Provisional Data: Little Mehoopany Creek near North Mehoopany, PA


Please select a monitoring station.
Please select start date.
Please select start date.

Toggle Unit: C/F Toggle Unit: C/F
Sample Time Temperature (C) Temperature (F) Specific Conductivity (mS/cm) pH   Turbidity (NTU+) DO (mg/L)
11/1/2022 12:00:00 AM 11.12 52.016 0.146 7.19 1.78 11.57
11/1/2022 12:15:00 AM 11.12 52.016 0.146 7.2 1.78 11.59
11/1/2022 12:30:00 AM 11.12 52.016 0.147 7.2 1.77 11.59
11/1/2022 12:45:00 AM 11.12 52.016 0.147 7.19 1.81 11.56
11/1/2022 1:00:00 AM 11.12 52.016 0.147 7.19 1.75 11.57
11/1/2022 1:15:00 AM 11.13 52.034 0.147 7.19 1.77 11.56
11/1/2022 1:30:00 AM 11.13 52.034 0.147 7.19 1.78 11.58
11/1/2022 1:45:00 AM 11.13 52.034 0.147 7.19 1.79 11.55
11/1/2022 2:00:00 AM 11.14 52.052 0.147 7.19 1.82 11.47
11/1/2022 2:15:00 AM 11.15 52.07 0.146 7.18 1.78 11.55
11/1/2022 2:30:00 AM 11.16 52.088 0.146 7.19 1.84 11.6
11/1/2022 2:45:00 AM 11.16 52.088 0.146 7.19 1.95 11.57
11/1/2022 3:00:00 AM 11.17 52.106 0.146 7.18 1.89 11.54
11/1/2022 3:15:00 AM 11.17 52.106 0.146 7.19 1.8 11.58
11/1/2022 3:30:00 AM 11.16 52.088 0.146 7.19 1.86 11.57
11/1/2022 3:45:00 AM 11.16 52.088 0.146 7.19 1.84 11.56
11/1/2022 4:00:00 AM 11.15 52.07 0.146 7.18 1.83 11.55
11/1/2022 4:15:00 AM 11.16 52.088 0.146 7.19 1.8 11.51
11/1/2022 4:30:00 AM 11.16 52.088 0.146 7.19 1.72 11.55
11/1/2022 4:45:00 AM 11.16 52.088 0.146 7.19 1.82 11.55
11/1/2022 5:00:00 AM 11.17 52.106 0.146 7.18 1.84 11.57
11/1/2022 5:15:00 AM 11.17 52.106 0.146 7.18 1.8 11.57
11/1/2022 5:30:00 AM 11.17 52.106 0.146 7.16 2.12 11.56
11/1/2022 5:45:00 AM 11.16 52.088 0.146 7.19 1.81 11.56
11/1/2022 6:00:00 AM 11.13 52.034 0.146 7.19 1.75 11.58
11/1/2022 6:15:00 AM 11.1 51.98 0.146 7.18 1.8 11.56
11/1/2022 6:30:00 AM 11.07 51.926 0.146 7.17 1.78 11.58
11/1/2022 6:45:00 AM 11.06 51.908 0.146 7.18 1.84 11.58
11/1/2022 7:00:00 AM 11.06 51.908 0.146 7.16 2.06 11.56
11/1/2022 7:15:00 AM 11.07 51.926 0.147 7.18 1.79 11.6
11/1/2022 7:30:00 AM 11.07 51.926 0.147 7.17 1.75 11.59
11/1/2022 7:45:00 AM 11.07 51.926 0.147 7.17 1.79 11.56
11/1/2022 8:00:00 AM 11.08 51.944 0.147 7.17 2 11.5
11/1/2022 8:15:00 AM 11.09 51.962 0.147 7.18 1.83 11.49
11/1/2022 8:30:00 AM 11.11 51.998 0.147 7.2 1.84 11.61
11/1/2022 8:45:00 AM 11.13 52.034 0.147 7.22 1.78 11.77
11/1/2022 9:00:00 AM 11.17 52.106 0.147 7.24 1.74 12.09
11/1/2022 9:15:00 AM 11.22 52.196 0.146 7.3 1.78 12.2
11/1/2022 9:30:00 AM 11.27 52.286 0.146 7.34 1.74 12.54
11/1/2022 9:45:00 AM 11.32 52.376 0.146 7.38 1.92 12.57
11/1/2022 10:00:00 AM 11.37 52.466 0.146 7.42 1.79 12.71
11/1/2022 10:15:00 AM 11.44 52.592 0.146 7.48 1.76 12.94
11/1/2022 10:30:00 AM 11.54 52.772 0.145 7.54 1.81 13.15
11/1/2022 10:45:00 AM 11.59 52.862 0.145 7.56 1.82 13.21
11/1/2022 11:00:00 AM 11.61 52.898 0.145 7.55 1.81 13.12
11/1/2022 11:15:00 AM 11.62 52.916 0.145 7.51 1.73 12.95
11/1/2022 11:30:00 AM 11.64 52.952 0.145 7.49 1.79 12.78
11/1/2022 11:45:00 AM 11.67 53.006 0.144 7.46 2.02 12.71
11/1/2022 12:00:00 PM 11.7 53.06 0.143 7.43 2.24 12.62
11/1/2022 12:15:00 PM 11.74 53.132 0.141 7.4 2.28 12.5
11/1/2022 12:30:00 PM 11.79 53.222 0.14 7.37 2.58 12.41
11/1/2022 12:45:00 PM 11.85 53.33 0.139 7.38 2.74 12.46
11/1/2022 1:00:00 PM 11.95 53.51 0.138 7.47 2.59 12.89
11/1/2022 1:15:00 PM 12.05 53.69 0.138 7.55 2.43 13.28
11/1/2022 1:30:00 PM 12.1 53.78 0.137 7.59 2.28 13.25
11/1/2022 1:45:00 PM 12.13 53.834 0.137 7.48 2.29 13.03
11/1/2022 2:00:00 PM 12.14 53.852 0.136 7.39 2.49 12.75
11/1/2022 2:15:00 PM 12.15 53.87 0.136 7.32 2.17 12.53
11/1/2022 2:30:00 PM 12.2 53.96 0.136 7.35 2.18 12.69
11/1/2022 2:45:00 PM 12.28 54.104 0.136 7.31 2.17 12.64
11/1/2022 3:00:00 PM 12.35 54.23 0.137 7.48 2.05 12.73
11/1/2022 3:15:00 PM 12.39 54.302 0.137 7.53 2 13.04
11/1/2022 3:30:00 PM 12.43 54.374 0.137 7.54 2 13.01
11/1/2022 3:45:00 PM 12.44 54.392 0.138 7.37 1.94 12.89
11/1/2022 4:00:00 PM 12.43 54.374 0.138 7.38 1.91 12.83
11/1/2022 4:15:00 PM 12.39 54.302 0.138 7.39 1.97 12.57
11/1/2022 4:30:00 PM 12.37 54.266 0.138 7.39 1.96 12.43
11/1/2022 4:45:00 PM 12.36 54.248 0.138 7.37 1.99 12.48
11/1/2022 5:00:00 PM 12.35 54.23 0.138 7.32 2 12.32
11/1/2022 5:15:00 PM 12.35 54.23 0.139 7.27 1.98 12.21
11/1/2022 5:30:00 PM 12.33 54.194 0.139 7.2 3.04 12.02
11/1/2022 5:45:00 PM 12.31 54.158 0.14 7.27 1.92 11.8
11/1/2022 6:00:00 PM 12.28 54.104 0.14 7.17 1.96 11.75
11/1/2022 6:15:00 PM 12.24 54.032 0.14 7.2 1.9 11.46
11/1/2022 6:30:00 PM 12.22 53.996 0.141 7.22 1.96 11.42
11/1/2022 6:45:00 PM 12.21 53.978 0.141 7.17 2.06 11.52
11/1/2022 7:00:00 PM 12.21 53.978 0.141 7.2 1.92 11.53
11/1/2022 7:15:00 PM 12.18 53.924 0.141 7.18 1.94 11.48
11/1/2022 7:30:00 PM 12.18 53.924 0.141 7.18 1.97 11.34
11/1/2022 7:45:00 PM 12.18 53.924 0.142 7.14 1.93 11.37
11/1/2022 8:00:00 PM 12.17 53.906 0.142 7.16 1.9 11.44
11/1/2022 8:15:00 PM 12.16 53.888 0.142 7.19 1.9 11.48
11/1/2022 8:30:00 PM 12.16 53.888 0.142 7.16 1.89 11.49
11/1/2022 8:45:00 PM 12.15 53.87 0.142 7.2 1.86 11.48
11/1/2022 9:00:00 PM 12.13 53.834 0.143 7.17 1.93 11.44
11/1/2022 9:15:00 PM 12.1 53.78 0.143 7.18 1.88 11.45
11/1/2022 9:30:00 PM 12.08 53.744 0.143 7.17 1.88 11.47
11/1/2022 9:45:00 PM 12.06 53.708 0.143 7.16 1.93 11.42
11/1/2022 10:00:00 PM 12.05 53.69 0.143 7.16 1.89 11.42
11/1/2022 10:15:00 PM 12.03 53.654 0.143 7.16 1.85 11.48
11/1/2022 10:30:00 PM 12.02 53.636 0.144 7.17 1.9 11.47
11/1/2022 10:45:00 PM 12 53.6 0.143 7.16 1.92 11.48
11/1/2022 11:00:00 PM 11.95 53.51 0.144 7.17 1.92 11.49
11/1/2022 11:15:00 PM 11.9 53.42 0.144 7.15 1.85 11.44
11/1/2022 11:30:00 PM 11.84 53.312 0.144 7.19 1.87 11.55
11/1/2022 11:45:00 PM 11.79 53.222 0.144 7.17 1.86 11.56
11/2/2022 12:00:00 AM 11.74 53.132 0.144 7.17 1.84 11.53
11/2/2022 12:15:00 AM 11.7 53.06 0.144 7.16 1.86 11.46
11/2/2022 12:30:00 AM 11.65 52.97 0.144 7.17 2.28 11.58
11/2/2022 12:45:00 AM 11.6 52.88 0.144 7.18 2.02 11.6
11/2/2022 1:00:00 AM 11.55 52.79 0.144 7.16 1.89 11.61
11/2/2022 1:15:00 AM 11.5 52.7 0.144 7.18 1.88 11.58
11/2/2022 1:30:00 AM 11.45 52.61 0.144 7.16 1.99 11.62
11/2/2022 1:45:00 AM 11.4 52.52 0.144 7.16 1.82 11.6
11/2/2022 2:00:00 AM 11.35 52.43 0.144 7.17 1.9 11.61
11/2/2022 2:15:00 AM 11.3 52.34 0.144 7.17 2.08 11.66
11/2/2022 2:30:00 AM 11.26 52.268 0.145 7.17 2.04 11.68
11/2/2022 2:45:00 AM 11.22 52.196 0.144 7.15 1.94 11.72
11/2/2022 3:00:00 AM 11.17 52.106 0.145 7.15 1.88 11.56
11/2/2022 3:15:00 AM 11.14 52.052 0.145 7.16 1.9 11.79
11/2/2022 3:30:00 AM 11.1 51.98 0.145 7.16 1.98 11.73
11/2/2022 3:45:00 AM 11.07 51.926 0.145 7.17 1.93 11.75
11/2/2022 4:00:00 AM 11.06 51.908 0.145 7.18 1.97 11.75
11/2/2022 4:15:00 AM 11.06 51.908 0.145 7.16 1.93 11.77
11/2/2022 4:30:00 AM 11.06 51.908 0.145 7.17 2 11.74
11/2/2022 4:45:00 AM 11.05 51.89 0.145 7.16 1.96 11.64
11/2/2022 5:00:00 AM 11.05 51.89 0.145 7.17 2.36 11.69
11/2/2022 5:15:00 AM 11.05 51.89 0.145 7.18 2.04 11.61
11/2/2022 5:30:00 AM 11.05 51.89 0.145 7.17 1.95 11.84
11/2/2022 5:45:00 AM 11.05 51.89 0.145 7.17 1.92 11.84
11/2/2022 6:00:00 AM 11.06 51.908 0.145 7.16 1.97 11.83
11/2/2022 6:15:00 AM 11.05 51.89 0.145 7.17 1.95 11.84
11/2/2022 6:30:00 AM 11.06 51.908 0.145 7.16 1.94 11.84
11/2/2022 6:45:00 AM 11.06 51.908 0.145 7.15 1.96 11.86
11/2/2022 7:00:00 AM 11.05 51.89 0.145 7.15 1.95 11.83
11/2/2022 7:15:00 AM 11.02 51.836 0.145 7.17 1.93 11.8
11/2/2022 7:30:00 AM 11 51.8 0.145 7.15 2.41 11.85
11/2/2022 7:45:00 AM 10.98 51.764 0.145 7.12 1.94 11.87
11/2/2022 8:00:00 AM 10.96 51.728 0.145 7.18 1.95 11.89
11/2/2022 8:15:00 AM 10.94 51.692 0.145 7.18 1.88 11.98
11/2/2022 8:30:00 AM 10.94 51.692 0.145 7.18 2.38 12.02
11/2/2022 8:45:00 AM 10.96 51.728 0.145 7.19 1.93 12.1
11/2/2022 9:00:00 AM 10.99 51.782 0.144 7.21 1.89 12.23
11/2/2022 9:15:00 AM 11.01 51.818 0.144 7.23 1.95 12.25
11/2/2022 9:30:00 AM 11.06 51.908 0.144 7.28 1.89 12.58
11/2/2022 9:45:00 AM 11.09 51.962 0.144 7.32 1.97 12.82
11/2/2022 10:00:00 AM 11.14 52.052 0.143 7.35 1.84 13.02
11/2/2022 10:15:00 AM 11.21 52.178 0.143 7.42 1.98 13.03
11/2/2022 10:30:00 AM 11.31 52.358 0.143 7.38 2.16 13.18
11/2/2022 10:45:00 AM 11.45 52.61 0.143 7.43 1.89 13.2
11/2/2022 11:00:00 AM 11.57 52.826 0.143 7.5 1.9 13.44
11/2/2022 11:15:00 AM 11.69 53.042 0.142 7.52 1.85 13.41
11/2/2022 11:30:00 AM 11.79 53.222 0.142 7.47 1.82 13.56
11/2/2022 11:45:00 AM 11.85 53.33 0.142 7.55 1.89 13.55
11/2/2022 12:00:00 PM 11.9 53.42 0.142 7.58 1.82 13.55
11/2/2022 12:15:00 PM 11.98 53.564 0.142 7.6 1.95 13.58
11/2/2022 12:30:00 PM 12.06 53.708 0.142 7.52 1.86 13.43
11/2/2022 12:45:00 PM 12.1 53.78 0.142 7.63 1.88 13.49
11/2/2022 1:00:00 PM 12.12 53.816 0.142 7.49 2.05 13.45
11/2/2022 1:15:00 PM 12.1 53.78 0.142 7.51 2.73 13.31
11/2/2022 1:30:00 PM 12.08 53.744 0.142 7.59 1.88 13.29
11/2/2022 1:45:00 PM 12.1 53.78 0.142 7.46 2 13.17
11/2/2022 2:00:00 PM 12.11 53.798 0.141 7.34 1.93 13.17
11/2/2022 2:15:00 PM 12.11 53.798 0.141 7.31 1.9 13.08
11/2/2022 2:30:00 PM 12.1 53.78 0.141 7.4 1.96 12.99
11/2/2022 2:45:00 PM 12.1 53.78 0.141 7.41 1.98 12.89
11/2/2022 3:00:00 PM 12.09 53.762 0.141 7.38 1.87 12.79
11/2/2022 3:15:00 PM 12.1 53.78 0.141 7.32 1.82 12.7
11/2/2022 3:30:00 PM 12.09 53.762 0.141 7.37 1.9 12.66
11/2/2022 3:45:00 PM 12.1 53.78 0.141 7.31 1.83 12.51
11/2/2022 4:00:00 PM 12.11 53.798 0.141 7.27 1.85 12.4
11/2/2022 4:15:00 PM 12.12 53.816 0.141 7.27 1.86 12.34
11/2/2022 4:30:00 PM 12.13 53.834 0.141 7.23 1.9 12.25
11/2/2022 4:45:00 PM 12.14 53.852 0.141 7.24 1.95 12.18
11/2/2022 5:00:00 PM 12.16 53.888 0.141 7.26 1.9 12.1
11/2/2022 5:15:00 PM 12.17 53.906 0.141 7.22 1.87 12.06
11/2/2022 5:30:00 PM 12.18 53.924 0.141 7.09 1.91 11.88
11/2/2022 5:45:00 PM 12.19 53.942 0.141 7.14 1.92 11.71
11/2/2022 6:00:00 PM 12.19 53.942 0.141 7.13 1.9 11.66
11/2/2022 6:15:00 PM 12.19 53.942 0.141 7.13 1.93 11.6
11/2/2022 6:30:00 PM 12.18 53.924 0.141 7.09 1.88 11.46
11/2/2022 6:45:00 PM 12.17 53.906 0.141 7.08 1.94 11.44
11/2/2022 7:00:00 PM 12.14 53.852 0.141 7.1 1.9 11.45
11/2/2022 7:15:00 PM 12.1 53.78 0.141 7.05 2.03 11.46
11/2/2022 7:30:00 PM 12.07 53.726 0.142 7.05 1.97 11.48
11/2/2022 7:45:00 PM 12 53.6 0.142 7.1 1.83 11.43
11/2/2022 8:00:00 PM 11.93 53.474 0.142 7.11 1.85 11.44
11/2/2022 8:15:00 PM 11.86 53.348 0.142 7.12 1.93 11.51
11/2/2022 8:30:00 PM 11.79 53.222 0.142 7.1 1.92 11.5
11/2/2022 8:45:00 PM 11.7 53.06 0.142 7.07 2 11.56
11/2/2022 9:00:00 PM 11.63 52.934 0.142 7.08 1.99 11.54
11/2/2022 9:15:00 PM 11.55 52.79 0.142 7.07 1.97 11.6
11/2/2022 9:30:00 PM 11.47 52.646 0.142 7.11 1.87 11.6
11/2/2022 9:45:00 PM 11.4 52.52 0.142 7.06 2.14 11.66
11/2/2022 10:00:00 PM 11.33 52.394 0.142 7.13 1.92 11.63
11/2/2022 10:15:00 PM 11.25 52.25 0.142 7.09 1.82 11.68
11/2/2022 10:30:00 PM 11.19 52.142 0.142 7.11 1.88 11.72
11/2/2022 10:45:00 PM 11.12 52.016 0.142 7.09 1.95 11.78
11/2/2022 11:00:00 PM 11.05 51.89 0.142 7.11 2.01 11.76
11/2/2022 11:15:00 PM 10.99 51.782 0.142 7.11 1.94 11.82
11/2/2022 11:30:00 PM 10.92 51.656 0.142 7.13 2.01 11.83
11/2/2022 11:45:00 PM 10.85 51.53 0.142 7.14 1.91 11.85
11/3/2022 12:00:00 AM 10.81 51.458 0.142 7.11 1.85 11.91
11/3/2022 12:15:00 AM 10.73 51.314 0.142 7.1 1.94 11.92
11/3/2022 12:30:00 AM 10.68 51.224 0.142 7.11 1.91 11.91
11/3/2022 12:45:00 AM 10.62 51.116 0.142 7.13 1.89 11.95
11/3/2022 1:00:00 AM 10.58 51.044 0.142 7.13 1.97 11.96
11/3/2022 1:15:00 AM 10.52 50.936 0.142 7.1 1.97 11.99
11/3/2022 1:30:00 AM 10.49 50.882 0.142 7.14 1.89 12.01
11/3/2022 1:45:00 AM 10.47 50.846 0.142 7.13 2 12.02
11/3/2022 2:00:00 AM 10.47 50.846 0.142 7.12 1.88 12.04
11/3/2022 2:15:00 AM 10.44 50.792 0.142 7.12 1.87 12.06
11/3/2022 2:30:00 AM 10.44 50.792 0.142 7.12 1.88 12.03
11/3/2022 2:45:00 AM 10.42 50.756 0.142 7.14 1.87 12.05
11/3/2022 3:00:00 AM 10.41 50.738 0.142 7.13 1.92 12.07
11/3/2022 3:15:00 AM 10.4 50.72 0.142 7.13 1.88 12.04
11/3/2022 3:30:00 AM 10.39 50.702 0.142 7.14 1.93 12.06
11/3/2022 3:45:00 AM 10.39 50.702 0.142 7.13 1.87 12.08
11/3/2022 4:00:00 AM 10.36 50.648 0.142 7.17 1.95 12.1
11/3/2022 4:15:00 AM 10.38 50.684 0.142 7.11 1.93 12.04
11/3/2022 4:30:00 AM 10.36 50.648 0.142 7.15 1.87 12.03
11/3/2022 4:45:00 AM 10.36 50.648 0.142 7.15 1.8 12.09
11/3/2022 5:00:00 AM 10.35 50.63 0.142 7.13 1.91 12.05
11/3/2022 5:15:00 AM 10.34 50.612 0.142 7.14 1.96 12.07
11/3/2022 5:30:00 AM 10.35 50.63 0.141 7.14 2.01 12.07
11/3/2022 5:45:00 AM 10.33 50.594 0.142 7.12 2 12.11
11/3/2022 6:00:00 AM 10.32 50.576 0.141 7.13 2.03 12.09
11/3/2022 6:15:00 AM 10.31 50.558 0.141 7.1 1.92 12.04
11/3/2022 6:30:00 AM 10.3 50.54 0.141 7.14 1.88 12.06
11/3/2022 6:45:00 AM 10.28 50.504 0.141 7.13 2.15 12.08
11/3/2022 7:00:00 AM 10.27 50.486 0.141 7.13 1.92 12.07
11/3/2022 7:15:00 AM 10.26 50.468 0.141 7.11 2.01 11.88
11/3/2022 7:30:00 AM 10.25 50.45 0.141 7.12 2.01 11.98
11/3/2022 7:45:00 AM 10.24 50.432 0.141 7.13 1.95 11.89
11/3/2022 8:00:00 AM 10.26 50.468 0.141 7.09 1.9 12.07
11/3/2022 8:15:00 AM 10.22 50.396 0.141 7.14 1.92 11.98
11/3/2022 8:30:00 AM 10.22 50.396 0.141 7.13 1.87 12.17
11/3/2022 8:45:00 AM 10.21 50.378 0.141 7.15 1.9 12.17
11/3/2022 9:00:00 AM 10.21 50.378 0.141 7.15 1.82 12.27
11/3/2022 9:15:00 AM 10.21 50.378 0.141 7.2 1.85 12.47
11/3/2022 9:30:00 AM 10.23 50.414 0.141 7.2 1.88 12.62
11/3/2022 9:45:00 AM 10.26 50.468 0.141 7.16 1.87 12.64
11/3/2022 10:00:00 AM 10.32 50.576 0.14 7.09 1.86 12.68
11/3/2022 10:15:00 AM 10.35 50.63 0.14 7.16 1.84 12.81
11/3/2022 10:30:00 AM 10.36 50.648 0.14 7.21 1.87 13.05
11/3/2022 10:45:00 AM 10.38 50.684 0.14 7.26 1.84 13.01
11/3/2022 11:00:00 AM 10.44 50.792 0.14 7.29 1.86 13.23
11/3/2022 11:15:00 AM 10.57 51.026 0.14 7.27 2.84 13.51
11/3/2022 11:30:00 AM 10.73 51.314 0.139 7.4 2.01 13.69
11/3/2022 11:45:00 AM 10.94 51.692 0.139 7.32 1.92 13.79
11/3/2022 12:00:00 PM 11.07 51.926 0.139 7.35 1.94 13.7
11/3/2022 12:15:00 PM 11.24 52.232 0.139 7.25 1.91 13.73
11/3/2022 12:30:00 PM 11.34 52.412 0.139 7.32 2.09 13.72
11/3/2022 12:45:00 PM 11.4 52.52 0.139 7.44 1.96 13.58
11/3/2022 1:00:00 PM 11.46 52.628 0.139 7.41 1.87 13.61
11/3/2022 1:15:00 PM 11.48 52.664 0.139 7.28 1.84 13.45
11/3/2022 1:30:00 PM 11.46 52.628 0.139 7.34 1.86 13.45
11/3/2022 1:45:00 PM 11.45 52.61 0.139 7.38 1.86 13.26
11/3/2022 2:00:00 PM 11.42 52.556 0.139 7.43 1.92 13.13
11/3/2022 2:15:00 PM 11.45 52.61 0.139 7.38 1.85 13.15
11/3/2022 2:30:00 PM 11.5 52.7 0.139 7.2 1.92 13.11
11/3/2022 2:45:00 PM 11.45 52.61 0.139 7.35 1.83 12.92
11/3/2022 3:00:00 PM 11.51 52.718 0.139 7.25 1.88 12.95
11/3/2022 3:15:00 PM 11.49 52.682 0.139 7.17 1.87 12.82
11/3/2022 3:30:00 PM 11.5 52.7 0.139 7.18 1.86 12.75
11/3/2022 3:45:00 PM 11.53 52.754 0.139 7.11 1.88 12.59
11/3/2022 4:00:00 PM 11.52 52.736 0.139 7.13 1.85 12.51
11/3/2022 4:15:00 PM 11.53 52.754 0.139 7.13 1.87 12.34
11/3/2022 4:30:00 PM 11.54 52.772 0.139 7.18 1.9 12.31
11/3/2022 4:45:00 PM 11.53 52.754 0.139 7.26 1.85 12.29
11/3/2022 5:00:00 PM 11.56 52.808 0.139 7.1 1.96 12.15
11/3/2022 5:15:00 PM 11.58 52.844 0.139 7.17 1.9 12.11
11/3/2022 5:30:00 PM 11.61 52.898 0.139 7.12 1.9 11.98
11/3/2022 5:45:00 PM 11.61 52.898 0.139 7.14 1.94 11.91
11/3/2022 6:00:00 PM 11.62 52.916 0.139 7.11 1.87 11.89
11/3/2022 6:15:00 PM 11.62 52.916 0.139 7.12 1.97 11.79
11/3/2022 6:30:00 PM 11.64 52.952 0.14 7.11 6.13 11.73
11/3/2022 6:45:00 PM 11.7 53.06 0.14 7.09 7.18 11.67
11/3/2022 7:00:00 PM 11.63 52.934 0.138 7.09 6.01 11.81
11/3/2022 7:15:00 PM 11.45 52.61 0.137 7.17 5.7 12.09
11/3/2022 7:30:00 PM 11.33 52.394 0.136 6.81 6.21 12.08
11/3/2022 7:45:00 PM 11.17 52.106 0.135 6.97 4.98 12.23
11/3/2022 8:00:00 PM 11.12 52.016 0.134 7.1 6.69 12.1
11/3/2022 8:15:00 PM 11.03 51.854 0.133 7.17 4.7 12.25
11/3/2022 8:30:00 PM 11.02 51.836 0.132 7.22 4.13 12.28
11/3/2022 8:45:00 PM 11 51.8 0.131 7.23 4.71 12.31
11/3/2022 9:00:00 PM 11 51.8 0.131 7.22 6.12 12.25
11/3/2022 9:15:00 PM 11.02 51.836 0.131 7.17 3.73 12.25
11/3/2022 9:30:00 PM 11.01 51.818 0.13 7.18 3.87 12.25
11/3/2022 9:45:00 PM 11 51.8 0.13 7.13 3.67 12.26
11/3/2022 10:00:00 PM 10.97 51.746 0.13 7.17 3.76 12.27
11/3/2022 10:15:00 PM 11.01 51.818 0.13 6.94 3.38 12.05
11/3/2022 10:30:00 PM 10.96 51.728 0.13 6.98 3.72 12.03
11/3/2022 10:45:00 PM 10.97 51.746 0.129 7 3.28 11.95
11/3/2022 11:00:00 PM 10.92 51.656 0.129 7.04 3.25 12.12
11/3/2022 11:15:00 PM 10.87 51.566 0.129 7 3.22 12.2
11/3/2022 11:30:00 PM 10.86 51.548 0.129 7.04 3.11 12.15
11/3/2022 11:45:00 PM 10.81 51.458 0.129 7.04 3.05 12.23
11/4/2022 12:00:00 AM 10.78 51.404 0.129 7 2.99 12.08
11/4/2022 12:15:00 AM 10.73 51.314 0.129 6.92 2.97 12.18
11/4/2022 12:30:00 AM 10.74 51.332 0.129 6.94 2.91 11.95
11/4/2022 12:45:00 AM 10.7 51.26 0.13 6.71 2.97 12.08
11/4/2022 1:00:00 AM 10.64 51.152 0.129 6.89 3.15 12.1
11/4/2022 1:15:00 AM 10.6 51.08 0.129 6.87 2.88 12.11
11/4/2022 1:30:00 AM 10.54 50.972 0.129 6.88 2.77 12.03
11/4/2022 1:45:00 AM 10.51 50.918 0.129 6.87 2.61 12.03
11/4/2022 2:00:00 AM 10.46 50.828 0.129 6.74 2.72 12.15
11/4/2022 2:15:00 AM 10.43 50.774 0.129 6.9 2.71 12.14
11/4/2022 2:30:00 AM 10.37 50.666 0.129 6.83 2.61 12.12
11/4/2022 2:45:00 AM 10.34 50.612 0.13 6.84 2.88 12.04
11/4/2022 3:00:00 AM 10.31 50.558 0.13 6.94 2.69 12.21
11/4/2022 3:15:00 AM 10.24 50.432 0.129 6.75 2.76 12.24
11/4/2022 3:30:00 AM 10.2 50.36 0.129 6.97 3.22 12.13
11/4/2022 3:45:00 AM 10.11 50.198 0.129 7.05 2.83 12.25
11/4/2022 4:00:00 AM 10.12 50.216 0.129 7.01 2.67 12.2
11/4/2022 4:15:00 AM 10.03 50.054 0.13 7.09 2.63 12.34
11/4/2022 4:30:00 AM 9.96 49.928 0.129 7.09 2.62 12.37
11/4/2022 4:45:00 AM 9.93 49.874 0.129 7.13 2.62 12.35
11/4/2022 5:00:00 AM 9.9 49.82 0.129 7.13 2.77 12.4
11/4/2022 5:15:00 AM 9.85 49.73 0.13 7.15 2.58 12.47
11/4/2022 5:30:00 AM 9.82 49.676 0.13 7.13 2.55 12.46
11/4/2022 5:45:00 AM 9.79 49.622 0.129 7.16 2.57 12.5
11/4/2022 6:00:00 AM 9.75 49.55 0.13 7.16 2.65 12.52
11/4/2022 6:15:00 AM 9.71 49.478 0.129 7.17 2.69 12.59
11/4/2022 6:30:00 AM 9.69 49.442 0.13 7.12 2.54 12.5
11/4/2022 6:45:00 AM 9.66 49.388 0.13 7.16 2.74 12.57
11/4/2022 7:00:00 AM 9.62 49.316 0.13 7.16 2.44 12.53
11/4/2022 7:15:00 AM 9.59 49.262 0.13 7.14 2.47 12.57
11/4/2022 7:30:00 AM 9.56 49.208 0.13 7.14 2.63 12.47
11/4/2022 7:45:00 AM 9.56 49.208 0.13 7.12 3.34 12.52
11/4/2022 8:00:00 AM 9.54 49.172 0.13 7.13 2.59 12.53
11/4/2022 8:15:00 AM 9.54 49.172 0.13 7.15 2.61 12.63
11/4/2022 8:30:00 AM 9.53 49.154 0.13 7.17 2.52 12.76
11/4/2022 8:45:00 AM 9.54 49.172 0.13 7.21 2.76 12.83
11/4/2022 9:00:00 AM 9.56 49.208 0.13 7.21 2.75 12.88
11/4/2022 9:15:00 AM 9.59 49.262 0.13 7.21 2.48 12.93
11/4/2022 9:30:00 AM 9.61 49.298 0.13 7.25 2.42 13.02
11/4/2022 9:45:00 AM 9.69 49.442 0.13 7.22 2.3 13.07
11/4/2022 10:00:00 AM 9.79 49.622 0.13 7.23 2.41 13.12
11/4/2022 10:15:00 AM 9.85 49.73 0.13 7.28 2.45 13.16
11/4/2022 10:30:00 AM 9.96 49.928 0.13 7.27 2.33 13.15
11/4/2022 10:45:00 AM 10.13 50.234 0.13 7.27 2.33 13.27
11/4/2022 11:00:00 AM 10.27 50.486 0.13 7.29 2.26 13.31
11/4/2022 11:15:00 AM 10.45 50.81 0.13 7.3 3.3 13.32
11/4/2022 11:30:00 AM 10.57 51.026 0.13 7.33 2.28 13.29
11/4/2022 11:45:00 AM 10.64 51.152 0.13 7.37 2.27 13.35
11/4/2022 12:00:00 PM 10.8 51.44 0.131 7.33 2.27 13.28
11/4/2022 12:15:00 PM 10.93 51.674 0.131 7.33 2.33 13.25
11/4/2022 12:30:00 PM 11.01 51.818 0.131 7.35 2.68 13.21
11/4/2022 12:45:00 PM 11.12 52.016 0.131 7.39 2.31 13.23
11/4/2022 1:00:00 PM 11.22 52.196 0.131 7.35 2.4 13.15
11/4/2022 1:15:00 PM 11.27 52.286 0.131 7.29 2.38 13.01
11/4/2022 1:30:00 PM 11.38 52.484 0.131 7.33 2.28 13
11/4/2022 1:45:00 PM 11.47 52.646 0.131 7.36 2.16 13.03
11/4/2022 2:00:00 PM 11.56 52.808 0.131 7.36 2.25 12.93
11/4/2022 2:15:00 PM 11.67 53.006 0.131 7.36 2.18 12.88
11/4/2022 2:30:00 PM 11.78 53.204 0.131 7.31 2.27 12.79
11/4/2022 2:45:00 PM 11.84 53.312 0.131 7.26 2.18 12.79
11/4/2022 3:00:00 PM 11.86 53.348 0.131 7.29 2.17 12.5
11/4/2022 3:15:00 PM 11.89 53.402 0.131 7.26 2.18 12.48
11/4/2022 3:30:00 PM 11.95 53.51 0.131 7.27 2.13 12.43
11/4/2022 3:45:00 PM 12.01 53.618 0.131 7.24 2.23 12.42
11/4/2022 4:00:00 PM 12.08 53.744 0.132 7.12 2.2 12.24
11/4/2022 4:15:00 PM 12.14 53.852 0.132 6.98 2.17 12.12
11/4/2022 4:30:00 PM 12.19 53.942 0.132 7.15 2.09 12.15
11/4/2022 4:45:00 PM 12.25 54.05 0.132 7.06 2.15 12.16
11/4/2022 5:00:00 PM 12.29 54.122 0.132 7.06 2.65 12.05
11/4/2022 5:15:00 PM 12.31 54.158 0.132 7.12 2.13 11.86
11/4/2022 5:30:00 PM 12.33 54.194 0.132 7.06 2.22 11.78
11/4/2022 5:45:00 PM 12.35 54.23 0.133 6.96 2.13 11.63
11/4/2022 6:00:00 PM 12.33 54.194 0.132 6.98 2.32 11.59
11/4/2022 6:15:00 PM 12.32 54.176 0.133 6.99 2.1 11.38
11/4/2022 6:30:00 PM 12.29 54.122 0.133 6.98 2.13 11.48
11/4/2022 6:45:00 PM 12.28 54.104 0.133 6.96 2.12 11.28
11/4/2022 7:00:00 PM 12.23 54.014 0.134 6.98 2.24 11.43
11/4/2022 7:15:00 PM 12.17 53.906 0.133 7.03 2.38 11.38
11/4/2022 7:30:00 PM 12.12 53.816 0.134 7.06 2.39 11.5
11/4/2022 7:45:00 PM 12.1 53.78 0.134 6.91 2.24 11.39
11/4/2022 8:00:00 PM 12.02 53.636 0.134 7.04 2.25 11.4
11/4/2022 8:15:00 PM 11.96 53.528 0.134 7.08 2.24 11.5
11/4/2022 8:30:00 PM 11.93 53.474 0.134 6.99 2.2 11.34
11/4/2022 8:45:00 PM 11.88 53.384 0.134 7.05 2.58 11.48
11/4/2022 9:00:00 PM 11.84 53.312 0.134 7.04 2.13 11.47
11/4/2022 9:15:00 PM 11.81 53.258 0.134 7.03 2.13 11.44
11/4/2022 9:30:00 PM 11.75 53.15 0.134 6.99 2.17 11.48
11/4/2022 9:45:00 PM 11.71 53.078 0.135 7.06 2.51 11.54
11/4/2022 10:00:00 PM 11.69 53.042 0.135 7.03 2.09 11.47
11/4/2022 10:15:00 PM 11.64 52.952 0.135 6.99 2.17 11.51
11/4/2022 10:30:00 PM 11.62 52.916 0.135 7.01 2.14 11.43
11/4/2022 10:45:00 PM 11.58 52.844 0.135 7 2.17 11.58
11/4/2022 11:00:00 PM 11.56 52.808 0.135 7.01 2.07 11.44
11/4/2022 11:15:00 PM 11.54 52.772 0.135 7.02 2.2 11.57
11/4/2022 11:30:00 PM 11.53 52.754 0.135 6.98 2.07 11.52
11/4/2022 11:45:00 PM 11.51 52.718 0.135 7.03 2.11 11.51
11/5/2022 12:00:00 AM 11.49 52.682 0.135 7.05 2.14 11.4
11/5/2022 12:15:00 AM 11.51 52.718 0.135 7 2.06 11.57
11/5/2022 12:30:00 AM 11.5 52.7 0.135 7.05 2.11 11.5
11/5/2022 12:45:00 AM 11.52 52.736 0.135 6.96 2.22 11.47
11/5/2022 1:00:00 AM 11.51 52.718 0.135 7 2.12 11.44
11/5/2022 1:15:00 AM 11.52 52.736 0.136 7.05 2.23 11.53
11/5/2022 1:30:00 AM 11.53 52.754 0.135 7 2.21 11.48
11/5/2022 1:45:00 AM 11.55 52.79 0.135 7.02 2.05 11.49
11/5/2022 2:00:00 AM 11.58 52.844 0.135 6.99 2.22 11.43
11/5/2022 2:15:00 AM 11.59 52.862 0.135 7.05 2.08 11.51
11/5/2022 2:30:00 AM 11.61 52.898 0.135 6.96 2.06 11.44
11/5/2022 2:45:00 AM 11.64 52.952 0.135 7 2.2 11.34
11/5/2022 3:00:00 AM 11.69 53.042 0.135 7 2.07 11.39
11/5/2022 3:15:00 AM 11.73 53.114 0.135 7.01 2.09 11.43
11/5/2022 3:30:00 AM 11.75 53.15 0.135 7.03 2.05 11.26
11/5/2022 3:45:00 AM 11.79 53.222 0.136 7 2.05 11.33
11/5/2022 4:00:00 AM 11.8 53.24 0.136 7.02 2.07 11.3
11/5/2022 4:15:00 AM 11.85 53.33 0.136 6.97 2.05 11.39
11/5/2022 4:30:00 AM 11.87 53.366 0.136 7.03 2.1 11.35
11/5/2022 4:45:00 AM 11.93 53.474 0.136 7.02 2.03 11.38
11/5/2022 5:00:00 AM 11.97 53.546 0.136 6.94 2.05 11.35
11/5/2022 5:15:00 AM 12 53.6 0.136 6.96 2.04 11.28
11/5/2022 5:30:00 AM 12.03 53.654 0.136 6.98 2.14 11.32
11/5/2022 5:45:00 AM 12.07 53.726 0.136 6.97 2.06 11.27
11/5/2022 6:00:00 AM 12.12 53.816 0.136 6.96 2.1 10.86
11/5/2022 6:15:00 AM 12.13 53.834 0.136 6.9 7.86 11.08
11/5/2022 6:30:00 AM 12.16 53.888 0.136 6.99 6.2 11.16
11/5/2022 6:45:00 AM 12.18 53.924 0.136 7.01 2.22 11.2
11/5/2022 7:00:00 AM 12.21 53.978 0.136 7 2.33 11.21
11/5/2022 7:15:00 AM 12.24 54.032 0.136 6.94 2.09 11.23
11/5/2022 7:30:00 AM 12.26 54.068 0.136 6.97 2.16 11.24
11/5/2022 7:45:00 AM 12.28 54.104 0.136 7.02 2.01 11.18
11/5/2022 8:00:00 AM 12.31 54.158 0.136 6.9 2.15 11.03
11/5/2022 8:15:00 AM 12.34 54.212 0.136 6.99 2.04 11.07
11/5/2022 8:30:00 AM 12.38 54.284 0.136 7 2.02 11.28
11/5/2022 8:45:00 AM 12.42 54.356 0.136 6.89 2.13 11.25
11/5/2022 9:00:00 AM 12.45 54.41 0.136 7.01 2.07 11.25
11/5/2022 9:15:00 AM 12.5 54.5 0.136 6.89 2.01 11.38
11/5/2022 9:30:00 AM 12.59 54.662 0.136 7.01 13.26 11.62
11/5/2022 9:45:00 AM 12.66 54.788 0.137 6.88 2.54 11.49
11/5/2022 10:00:00 AM 12.74 54.932 0.136 6.88 2.75 11.83
11/5/2022 10:15:00 AM 12.81 55.058 0.136 7 2.14 11.87
11/5/2022 10:30:00 AM 12.88 55.184 0.136 6.9 2.16 11.37
11/5/2022 10:45:00 AM 12.97 55.346 0.136 7 2.01 11.98
11/5/2022 11:00:00 AM 13.01 55.418 0.136 6.87 2.05 11.3
11/5/2022 11:15:00 AM 13.1 55.58 0.137 6.34 2.33 10.48
11/5/2022 11:30:00 AM 13.17 55.706 0.137 6.22 2.07 10.27
11/5/2022 11:45:00 AM 13.26 55.868 0.137 6.27 2.03 10.24
11/5/2022 12:00:00 PM 13.33 55.994 0.136 6.19 2.01 10.08
11/5/2022 12:15:00 PM 13.44 56.192 0.136 6.18 1.95 10.42
11/5/2022 12:30:00 PM 13.5 56.3 0.136 6.32 2.07 10.09
11/5/2022 12:45:00 PM 13.52 56.336 0.136 6.12 2.12 9.75
11/5/2022 1:00:00 PM 13.58 56.444 0.135 6.09 1.98 9.19
11/5/2022 1:15:00 PM 13.8 56.84 0.135 6.13 1.96 10.7
11/5/2022 1:30:00 PM 13.75 56.75 0.135 6.09 1.9 9.73
11/5/2022 1:45:00 PM 13.89 57.002 0.135 6.15 1.92 9.76
11/5/2022 2:00:00 PM 13.92 57.056 0.135 6.16 1.99 10.57
11/5/2022 2:15:00 PM 13.77 56.786 0.135 6.08 1.93 9.49
11/5/2022 2:30:00 PM 13.77 56.786 0.135 6.11 2.01 9.5
11/5/2022 2:45:00 PM 13.81 56.858 0.135 6.09 1.97 8.8
11/5/2022 3:00:00 PM 13.81 56.858 0.136 6.15 1.86 9.07
11/5/2022 3:15:00 PM 13.88 56.984 0.135 6.11 1.95 9.14
11/5/2022 3:30:00 PM 13.98 57.164 0.135 6.12 2.09 9.05
11/5/2022 3:45:00 PM 13.96 57.128 0.135 6.1 2 9.66
11/5/2022 4:00:00 PM 13.97 57.146 0.135 6.08 2.01 9.05
11/5/2022 4:15:00 PM 13.9 57.02 0.135 6.09 1.96 8.7
11/5/2022 4:30:00 PM 14.01 57.218 0.135 6.09 2.16 9.07
11/5/2022 4:45:00 PM 14.01 57.218 0.136 6.11 1.96 8.65
11/5/2022 5:00:00 PM 14.15 57.47 0.136 6.1 2.23 9.39
11/5/2022 5:15:00 PM 14.29 57.722 0.136 6.3 1.94 9.77
11/5/2022 5:30:00 PM 14.17 57.506 0.135 6.14 1.93 8.51
11/5/2022 5:45:00 PM 14.21 57.578 0.135 6.16 2.02 9.36
11/5/2022 6:00:00 PM 14.37 57.866 0.135 6.2 2.04 9.43
11/5/2022 6:15:00 PM 13.92 57.056 0.136 6.08 1.94 8.51
11/5/2022 6:30:00 PM 14.13 57.434 0.135 6.21 2 8.83
11/5/2022 6:45:00 PM 14.28 57.704 0.135 6.43 1.97 8.98
11/5/2022 7:00:00 PM 14.01 57.218 0.135 6.09 1.96 8.66
11/5/2022 7:15:00 PM 13.91 57.038 0.135 6.09 1.91 7.97
11/5/2022 7:30:00 PM 13.86 56.948 0.136 6.08 1.99 8.12
11/5/2022 7:45:00 PM 13.88 56.984 0.135 6.15 1.96 8.37
11/5/2022 8:00:00 PM 13.89 57.002 0.135 6.15 2.03 8.95
11/5/2022 8:15:00 PM 13.94 57.092 0.136 6.19 1.98 8.81
11/5/2022 8:30:00 PM 13.78 56.804 0.136 6.05 1.9 8.55
11/5/2022 8:45:00 PM 13.74 56.732 0.137 6.06 2.07 7.87
11/5/2022 9:00:00 PM 13.76 56.768 0.137 6.15 3.53 8.55
11/5/2022 9:15:00 PM 13.87 56.966 0.138 6.31 2.26 8.42
11/5/2022 9:30:00 PM 14.04 57.272 0.138 6.31 2.06 9.2
11/5/2022 9:45:00 PM 13.82 56.876 0.137 6.28 2.21 8.11
11/5/2022 10:00:00 PM 13.88 56.984 0.137 6.18 2.04 8.94
11/5/2022 10:15:00 PM 13.74 56.732 0.137 6.12 2.19 8.49
11/5/2022 10:30:00 PM 13.83 56.894 0.137 6.22 1.89 8.34
11/5/2022 10:45:00 PM 13.85 56.93 0.136 6.23 1.96 9.57
11/5/2022 11:00:00 PM 13.73 56.714 0.138 6.13 2.12 8.49
11/5/2022 11:15:00 PM 13.76 56.768 0.136 6.14 2.14 8.52
11/5/2022 11:30:00 PM 13.71 56.678 0.136 6.07 2.12 8.42
11/5/2022 11:45:00 PM 13.9 57.02 0.138 6.55 1.97 8.78
11/6/2022 12:00:00 AM 13.79 56.822 0.137 6.17 1.98 8.96
11/6/2022 12:15:00 AM 13.63 56.534 0.137 6.07 2.35 7.9
11/6/2022 12:30:00 AM 13.59 56.462 0.136 6.02 2.59 7.93
11/6/2022 12:45:00 AM 13.73 56.714 0.136 6.08 2.14 8.8
11/6/2022 1:00:00 AM 13.78 56.804 0.136 6.18 2.06 9
11/6/2022 1:15:00 AM 13.78 56.804 0.139 6.25 2.11 9.1
11/6/2022 1:30:00 AM 13.92 57.056 0.137 6.6 2.08 9.28
11/6/2022 1:45:00 AM 13.88 56.984 0.138 6.39 2.07 8.87
11/6/2022 2:00:00 AM 13.67 56.606 0.137 6.08 2.02 8.01
11/6/2022 2:15:00 AM 13.7 56.66 0.136 6.11 2.09 8.33
11/6/2022 2:30:00 AM 13.63 56.534 0.137 6.05 2.03 7.81
11/6/2022 2:45:00 AM 13.84 56.912 0.135 6.33 2.1 8.95
11/6/2022 3:00:00 AM 13.88 56.984 0.135 6.23 2.26 8.68
11/6/2022 3:15:00 AM 13.77 56.786 0.138 6.13 2.01 8.87
11/6/2022 3:30:00 AM 13.83 56.894 0.136 6.29 2.02 9.03
11/6/2022 3:45:00 AM 13.74 56.732 0.136 6.09 2.15 8.2
11/6/2022 4:00:00 AM 13.78 56.804 0.138 6.13 2.09 8.01
11/6/2022 4:15:00 AM 13.77 56.786 0.137 6.06 2.45 8.02
11/6/2022 4:30:00 AM 13.9 57.02 0.136 6.13 2.21 9.21
11/6/2022 4:45:00 AM 13.91 57.038 0.137 6.21 1.95 9
11/6/2022 5:00:00 AM 13.94 57.092 0.136 6.13 1.99 7.71
11/6/2022 5:15:00 AM 14.02 57.236 0.138 6.26 1.92 8.49
11/6/2022 5:30:00 AM 13.84 56.912 0.137 6.13 1.98 8.09
11/6/2022 5:45:00 AM 13.9 57.02 0.139 6.23 2.01 8.17
11/6/2022 6:00:00 AM 14.04 57.272 0.138 6.22 2.08 9.08
11/6/2022 6:15:00 AM 13.82 56.876 0.137 6.11 2.09 8.04
11/6/2022 6:30:00 AM 13.81 56.858 0.137 6.13 1.94 8.48
11/6/2022 6:45:00 AM 13.81 56.858 0.136 6.11 1.85 7.96
11/6/2022 7:00:00 AM 14.04 57.272 0.138 6.32 1.89 8.76
11/6/2022 7:15:00 AM 13.92 57.056 0.137 6.13 2.03 8.26
11/6/2022 7:30:00 AM 14 57.2 0.137 6.23 2.14 8.63
11/6/2022 7:45:00 AM 14.06 57.308 0.136 6.2 2.13 8.88
11/6/2022 8:00:00 AM 13.9 57.02 0.136 6.12 2.5 8.61
11/6/2022 8:15:00 AM 14.07 57.326 0.136 6.19 1.9 9.24
11/6/2022 8:30:00 AM 14.12 57.416 0.138 6.24 1.85 8.91
11/6/2022 8:45:00 AM 13.87 56.966 0.137 6.13 1.87 8.53
11/6/2022 9:00:00 AM 13.97 57.146 0.136 6.11 1.89 9.22
11/6/2022 9:15:00 AM 13.9 57.02 0.136 6.09 1.88 8.42
11/6/2022 9:30:00 AM 14.29 57.722 0.136 6.22 1.95 10.5
11/6/2022 9:45:00 AM 14.08 57.344 0.136 6.12 1.88 9.43
11/6/2022 10:00:00 AM 13.98 57.164 0.137 6.08 1.91 9.09
11/6/2022 10:15:00 AM 14.07 57.326 0.136 6.06 1.82 8.41
11/6/2022 10:30:00 AM 14.22 57.596 0.135 6.12 1.82 9.34
11/6/2022 10:45:00 AM 14.34 57.812 0.136 6.08 1.88 9.91
11/6/2022 11:00:00 AM 14.4 57.92 0.135 6.14 1.87 9.78
11/6/2022 11:15:00 AM 14.74 58.532 0.135 6.27 1.91 10.82
11/6/2022 11:30:00 AM 14.72 58.496 0.135 6.16 1.88 10.74
11/6/2022 11:45:00 AM 14.6 58.28 0.135 6.17 1.84 10.43
11/6/2022 12:00:00 PM 14.59 58.262 0.135 6.21 1.86 10.04
11/6/2022 12:15:00 PM 14.92 58.856 0.133 6.18 1.84 10.74
11/6/2022 12:30:00 PM 14.99 58.982 0.133 6.12 1.96 10.76
11/6/2022 12:45:00 PM 15.02 59.036 0.133 6.3 1.88 10.68
11/6/2022 1:00:00 PM 14.8 58.64 0.135 6.22 1.87 9.71
11/6/2022 1:15:00 PM 15.22 59.396 0.134 6.09 1.9 10.66
11/6/2022 1:30:00 PM 15.21 59.378 0.135 6.28 2.1 11.01
11/6/2022 1:45:00 PM 15.05 59.09 0.135 6.25 1.97 10.27
11/6/2022 2:00:00 PM 15.13 59.234 0.134 6.16 2 9.85
11/6/2022 2:15:00 PM 15.11 59.198 0.134 6.23 1.95 10.25
11/6/2022 2:30:00 PM 15.1 59.18 0.133 6.19 1.86 9.75
11/6/2022 2:45:00 PM 15.38 59.684 0.133 6.27 1.84 10.67
11/6/2022 3:00:00 PM 15.21 59.378 0.133 6.3 1.9 10.38
11/6/2022 3:15:00 PM 15.43 59.774 0.135 6.26 2.33 10.62
11/6/2022 3:30:00 PM 15.03 59.054 0.134 6.1 2.13 9.99
11/6/2022 3:45:00 PM 15.26 59.468 0.135 6.25 2.09 9.86
11/6/2022 4:00:00 PM 15.38 59.684 0.136 6.31 1.88 10.34
11/6/2022 4:15:00 PM 15.35 59.63 0.134 6.34 2 10.05
11/6/2022 4:30:00 PM 14.89 58.802 0.135 6.13 1.96 9.22
11/6/2022 4:45:00 PM 15.08 59.144 0.135 6.13 1.95 9.49
11/6/2022 5:00:00 PM 15.36 59.648 0.136 6.18 1.92 9.58
11/6/2022 5:15:00 PM 15.22 59.396 0.135 6.31 1.92 9.02
11/6/2022 5:30:00 PM 14.96 58.928 0.134 6.2 2.01 8.45
11/6/2022 5:45:00 PM 15.13 59.234 0.135 6.27 1.91 8.73
11/6/2022 6:00:00 PM 14.74 58.532 0.135 6.17 1.99 8.16
11/6/2022 6:15:00 PM 15.03 59.054 0.138 6.3 1.98 9.11
11/6/2022 6:30:00 PM 15.28 59.504 0.135 6.33 1.99 9.04
11/6/2022 6:45:00 PM 14.8 58.64 0.137 6.32 1.94 8.57
11/6/2022 7:00:00 PM 14.69 58.442 0.136 6.2 1.95 8.05
11/6/2022 7:15:00 PM 15.28 59.504 0.139 6.42 1.87 8.86
11/6/2022 7:30:00 PM 14.7 58.46 0.135 6.18 1.92 8.32
11/6/2022 7:45:00 PM 14.89 58.802 0.135 6.22 1.98 8.62
11/6/2022 8:00:00 PM 14.85 58.73 0.138 6.18 1.86 9.07
11/6/2022 8:15:00 PM 14.89 58.802 0.137 6.3 1.87 9.24
11/6/2022 8:30:00 PM 14.98 58.964 0.137 6.3 1.93 9.05
11/6/2022 8:45:00 PM 14.93 58.874 0.135 6.22 1.85 9.03
11/6/2022 9:00:00 PM 14.88 58.784 0.134 6.24 1.91 8.18
11/6/2022 9:15:00 PM 14.8 58.64 0.135 6.27 1.97 9.01
11/6/2022 9:30:00 PM 14.52 58.136 0.136 6.1 2.03 8.79
11/6/2022 9:45:00 PM 14.61 58.298 0.135 6.15 1.9 8.57
11/6/2022 10:00:00 PM 14.59 58.262 0.135 6.1 1.99 8.04
11/6/2022 10:15:00 PM 14.73 58.514 0.136 6.2 1.85 8.69
11/6/2022 10:30:00 PM 14.75 58.55 0.135 6.24 1.94 8.55
11/6/2022 10:45:00 PM 14.57 58.226 0.138 6.18 1.86 8.35
11/6/2022 11:00:00 PM 14.78 58.604 0.136 6.36 1.85 9.24
11/6/2022 11:15:00 PM 14.48 58.064 0.136 6.11 1.84 8.2
11/6/2022 11:30:00 PM 14.71 58.478 0.136 6.27 2.16 8.47
11/6/2022 11:45:00 PM 14.68 58.424 0.136 6.18 2.17 8.92
11/7/2022 12:00:00 AM 14.91 58.838 0.138 6.27 2.12 8.98
11/7/2022 12:15:00 AM 14.7 58.46 0.138 6.28 1.98 8.81
11/7/2022 12:30:00 AM 14.48 58.064 0.136 6.14 1.86 8.05
11/7/2022 12:45:00 AM 14.36 57.848 0.135 6.2 1.95 7.98
11/7/2022 1:00:00 AM 14.56 58.208 0.136 6.22 1.96 8.45
11/7/2022 1:15:00 AM 14.68 58.424 0.136 6.31 2.13 8.74
11/7/2022 1:30:00 AM 14.53 58.154 0.137 6.28 1.93 8.41
11/7/2022 1:45:00 AM 14.63 58.334 0.137 6.18 1.99 8.9
11/7/2022 2:00:00 AM 14.48 58.064 0.135 6.18 2.08 8.67
11/7/2022 2:15:00 AM 14.38 57.884 0.136 6.14 2.06 8.17
11/7/2022 2:30:00 AM 14.84 58.712 0.137 6.57 2.5 9.04
11/7/2022 2:45:00 AM 14.58 58.244 0.14 6.3 2.19 8.82
11/7/2022 3:00:00 AM 14.38 57.884 0.137 6.13 2.1 8.27
11/7/2022 3:15:00 AM 14.6 58.28 0.135 6.42 1.96 9.07
11/7/2022 3:30:00 AM 14.67 58.406 0.14 6.45 2.15 9.65
11/7/2022 3:45:00 AM 14.6 58.28 0.136 6.48 2.09 8.81
11/7/2022 4:00:00 AM 14.25 57.65 0.135 6.18 2.13 8.51
11/7/2022 4:15:00 AM 14.51 58.118 0.14 6.34 2.05 9.55
11/7/2022 4:30:00 AM 14.57 58.226 0.14 6.59 1.91 9.48
11/7/2022 4:45:00 AM 14.47 58.046 0.138 6.43 2 9.68
11/7/2022 5:00:00 AM 14.36 57.848 0.136 6.41 2.3 9.35
11/7/2022 5:15:00 AM 14.3 57.74 0.139 6.38 2.3 9.53
11/7/2022 5:30:00 AM 14.16 57.488 0.139 6.35 2.12 8.71
11/7/2022 5:45:00 AM 14.2 57.56 0.136 6.39 2.02 8.99
11/7/2022 6:00:00 AM 13.95 57.11 0.136 6.12 2.28 8.19
11/7/2022 6:15:00 AM 14.03 57.254 0.139 6.23 2.17 8.93
11/7/2022 6:30:00 AM 13.98 57.164 0.138 6.3 2.73 9.2
11/7/2022 6:45:00 AM 13.86 56.948 0.138 6.33 2.31 8.5
11/7/2022 7:00:00 AM 13.86 56.948 0.136 6.11 2.78 8.49
11/7/2022 7:15:00 AM 13.87 56.966 0.138 6.23 2.2 9.4
11/7/2022 7:30:00 AM 13.79 56.822 0.138 6.45 2.27 9.24
11/7/2022 7:45:00 AM 13.83 56.894 0.139 6.44 1.95 9.76
11/7/2022 8:00:00 AM 13.72 56.696 0.137 6.13 1.95 8.32
11/7/2022 8:15:00 AM 13.79 56.822 0.136 6.45 1.88 9.86
11/7/2022 8:30:00 AM 13.73 56.714 0.139 6.26 2.08 9.65
11/7/2022 8:45:00 AM 13.71 56.678 0.137 6.25 2.2 9.44
11/7/2022 9:00:00 AM 13.79 56.822 0.136 6.29 2.42 9.55
11/7/2022 9:15:00 AM 13.84 56.912 0.137 6.3 2.27 9.43
11/7/2022 9:30:00 AM 13.99 57.182 0.137 6.44 2.03 10.75
11/7/2022 9:45:00 AM 13.92 57.056 0.136 6.27 2.21 9.42
11/7/2022 10:00:00 AM 14.08 57.344 0.139 6.63 2.14 11.12
11/7/2022 10:15:00 AM 14.22 57.596 0.139 6.36 1.97 11.06
11/7/2022 10:30:00 AM 14.31 57.758 0.139 7.05 1.91 11.6
11/7/2022 10:45:00 AM 14.15 57.47 0.137 6.38 2.02 11.26
11/7/2022 11:00:00 AM 14.29 57.722 0.139 6.81 1.95 11.03
11/7/2022 11:15:00 AM 14.19 57.542 0.137 6.41 2.09 10.99
11/7/2022 11:30:00 AM 14.35 57.83 0.138 6.52 2.34 11.71
11/7/2022 11:45:00 AM 14.4 57.92 0.139 7.28 2 12.2
11/7/2022 12:00:00 PM 14.3 57.74 0.139 6.82 4.34 11.54
11/7/2022 12:15:00 PM 13.93 57.074 0.136 6.16 2.32 9.31
11/7/2022 12:30:00 PM 14.16 57.488 0.139 6.63 2.02 10.9
11/7/2022 12:45:00 PM 14.12 57.416 0.137 6.97 1.93 11.84
11/7/2022 1:00:00 PM 14.12 57.416 0.138 7.14 1.95 11.91
11/7/2022 1:15:00 PM 14.09 57.362 0.139 7.28 1.85 11.99
11/7/2022 1:30:00 PM 14.03 57.254 0.138 6.93 1.97 11.87
11/7/2022 1:45:00 PM 14 57.2 0.139 7.2 1.87 11.87
11/7/2022 2:00:00 PM 13.97 57.146 0.138 7.15 1.9 11.78
11/7/2022 2:15:00 PM 13.88 56.984 0.136 6.67 1.9 10.56
11/7/2022 2:30:00 PM 13.78 56.804 0.138 6.33 2.01 9.72
11/7/2022 2:45:00 PM 13.8 56.84 0.138 6.62 1.98 11.13
11/7/2022 3:00:00 PM 13.79 56.822 0.138 6.85 2.12 11.39
11/7/2022 3:15:00 PM 13.7 56.66 0.136 6.22 2.29 9.86
11/7/2022 3:30:00 PM 13.78 56.804 0.139 6.98 1.94 10.75
11/7/2022 3:45:00 PM 13.74 56.732 0.138 6.67 1.99 11.21
11/7/2022 4:00:00 PM 13.74 56.732 0.137 6.52 2.08 10.91
11/7/2022 4:15:00 PM 13.74 56.732 0.139 6.73 2.04 10.77
11/7/2022 4:30:00 PM 13.73 56.714 0.138 6.95 2.08 10.89
11/7/2022 4:45:00 PM 13.67 56.606 0.138 6.67 2.02 10.5
11/7/2022 5:00:00 PM 13.68 56.624 0.139 7.12 1.92 11.17
11/7/2022 5:15:00 PM 13.62 56.516 0.139 6.7 1.98 10.84
11/7/2022 5:30:00 PM 13.6 56.48 0.139 7.09 1.91 11.01
11/7/2022 5:45:00 PM 13.55 56.39 0.14 7.05 2.07 11.04
11/7/2022 6:00:00 PM 13.46 56.228 0.139 7.09 2.18 10.96
11/7/2022 6:15:00 PM 13.39 56.102 0.139 7.06 1.9 11.08
11/7/2022 6:30:00 PM 13.3 55.94 0.14 7.06 1.97 10.93
11/7/2022 6:45:00 PM 13.2 55.76 0.14 7.08 2.15 11.09
11/7/2022 7:00:00 PM 13.11 55.598 0.14 7.12 1.95 11.1
11/7/2022 7:15:00 PM 12.99 55.382 0.14 7.14 2.07 11.08
11/7/2022 7:30:00 PM 12.89 55.202 0.14 7.15 2.07 11.14
11/7/2022 7:45:00 PM 12.79 55.022 0.141 7.14 2.04 11.28
11/7/2022 8:00:00 PM 12.7 54.86 0.14 7.05 1.94 11.22
11/7/2022 8:15:00 PM 12.6 54.68 0.14 7.13 2.2 11.35
11/7/2022 8:30:00 PM 12.51 54.518 0.14 7.19 2.4 11.41
11/7/2022 8:45:00 PM 12.45 54.41 0.14 7.21 2.04 11.34
11/7/2022 9:00:00 PM 12.36 54.248 0.14 7.19 2 11.42
11/7/2022 9:15:00 PM 12.29 54.122 0.14 7.13 1.93 11.4
11/7/2022 9:30:00 PM 12.22 53.996 0.14 7.16 2.11 11.47
11/7/2022 9:45:00 PM 12.15 53.87 0.14 7.18 3.24 11.51
11/7/2022 10:00:00 PM 12.07 53.726 0.14 7.13 2.12 11.49
11/7/2022 10:15:00 PM 11.99 53.582 0.14 7.2 1.95 11.64
11/7/2022 10:30:00 PM 11.92 53.456 0.14 7.2 1.94 11.64
11/7/2022 10:45:00 PM 11.83 53.294 0.14 7.2 1.99 11.67
11/7/2022 11:00:00 PM 11.77 53.186 0.14 7.2 2.01 11.74
11/7/2022 11:15:00 PM 11.71 53.078 0.14 7.23 2 11.74
11/7/2022 11:30:00 PM 11.65 52.97 0.14 7.21 1.99 11.77
11/7/2022 11:45:00 PM 11.6 52.88 0.14 7.22 1.95 11.75
11/8/2022 12:00:00 AM 11.54 52.772 0.14 7.21 1.99 11.78
11/8/2022 12:15:00 AM 11.48 52.664 0.14 7.25 2 11.83
11/8/2022 12:30:00 AM 11.41 52.538 0.14 7.24 2.04 11.82
11/8/2022 12:45:00 AM 11.34 52.412 0.14 7.25 1.99 11.91
11/8/2022 1:00:00 AM 11.29 52.322 0.14 7.2 2.18 11.88
11/8/2022 1:15:00 AM 11.23 52.214 0.14 7.26 2.07 11.94
11/8/2022 1:30:00 AM 11.18 52.124 0.14 7.23 2.38 11.97
11/8/2022 1:45:00 AM 11.12 52.016 0.14 7.26 2.31 12.01
11/8/2022 2:00:00 AM 11.06 51.908 0.14 7.25 2.02 12.02
11/8/2022 2:15:00 AM 11.01 51.818 0.14 7.25 2.12 12.02
11/8/2022 2:30:00 AM 10.95 51.71 0.14 7.25 2.02 12.05
11/8/2022 2:45:00 AM 10.88 51.584 0.14 7.26 1.92 12.05
11/8/2022 3:00:00 AM 10.82 51.476 0.14 7.22 2.04 12.1
11/8/2022 3:15:00 AM 10.77 51.386 0.14 7.26 2.12 12.13
11/8/2022 3:30:00 AM 10.71 51.278 0.14 7.27 1.9 12.15
11/8/2022 3:45:00 AM 10.66 51.188 0.14 7.28 1.93 12.2
11/8/2022 4:00:00 AM 10.61 51.098 0.141 7.26 2.02 12.16
11/8/2022 4:15:00 AM 10.54 50.972 0.141 7.28 1.96 12.22
11/8/2022 4:30:00 AM 10.48 50.864 0.141 7.28 2.08 12.24
11/8/2022 4:45:00 AM 10.43 50.774 0.14 7.27 1.98 12.26
11/8/2022 5:00:00 AM 10.38 50.684 0.141 7.26 1.98 12.24
11/8/2022 5:15:00 AM 10.32 50.576 0.141 7.26 2.01 12.26
11/8/2022 5:30:00 AM 10.27 50.486 0.141 7.27 1.96 12.29
11/8/2022 5:45:00 AM 10.21 50.378 0.141 7.28 1.98 12.29
11/8/2022 6:00:00 AM 10.16 50.288 0.141 7.27 2.08 12.33
11/8/2022 6:15:00 AM 10.11 50.198 0.141 7.28 1.96 12.37
11/8/2022 6:30:00 AM 10.05 50.09 0.141 7.26 2.08 12.39
11/8/2022 6:45:00 AM 10 50 0.141 7.29 2 12.43
11/8/2022 7:00:00 AM 9.96 49.928 0.141 7.26 2.05 12.45
11/8/2022 7:15:00 AM 9.97 49.946 0.141 7.28 1.97 12.49
11/8/2022 7:30:00 AM 9.97 49.946 0.141 7.29 1.95 12.56
11/8/2022 7:45:00 AM 9.99 49.982 0.14 7.33 1.89 12.69
11/8/2022 8:00:00 AM 10 50 0.14 7.35 1.85 12.86
11/8/2022 8:15:00 AM 10.01 50.018 0.14 7.36 1.9 13
11/8/2022 8:30:00 AM 10.04 50.072 0.14 7.4 1.94 13.09
11/8/2022 8:45:00 AM 10.1 50.18 0.14 7.42 2.1 13.22
11/8/2022 9:00:00 AM 10.18 50.324 0.14 7.47 1.97 13.4
11/8/2022 9:15:00 AM 10.24 50.432 0.14 7.49 1.82 13.48
11/8/2022 9:30:00 AM 10.31 50.558 0.14 7.57 1.96 13.58
11/8/2022 9:45:00 AM 10.43 50.774 0.139 7.57 1.95 13.66
11/8/2022 10:00:00 AM 10.54 50.972 0.139 7.58 1.94 13.65
11/8/2022 10:15:00 AM 10.63 51.134 0.139 7.63 1.93 13.71
11/8/2022 10:30:00 AM 10.7 51.26 0.139 7.64 2.03 13.7
11/8/2022 10:45:00 AM 10.72 51.296 0.139 7.68 1.96 13.73
11/8/2022 11:00:00 AM 10.77 51.386 0.139 7.67 1.94 13.71
11/8/2022 11:15:00 AM 10.8 51.44 0.139 7.65 6.61 13.65
11/8/2022 11:30:00 AM 10.84 51.512 0.139 7.68 1.9 13.67
11/8/2022 11:45:00 AM 10.86 51.548 0.139 7.68 1.83 13.65
11/8/2022 12:00:00 PM 10.85 51.53 0.139 7.65 1.92 13.61
11/8/2022 12:15:00 PM 10.76 51.368 0.139 7.68 1.93 13.57
11/8/2022 12:30:00 PM 10.7 51.26 0.139 7.69 1.95 13.56
11/8/2022 12:45:00 PM 10.69 51.242 0.14 7.64 1.97 13.49
11/8/2022 1:00:00 PM 10.69 51.242 0.14 7.63 1.96 13.44
11/8/2022 1:15:00 PM 10.68 51.224 0.139 7.57 1.88 13.37
11/8/2022 1:30:00 PM 10.63 51.134 0.139 7.59 2.1 13.32
11/8/2022 1:45:00 PM 10.62 51.116 0.139 7.55 1.88 13.26
11/8/2022 2:00:00 PM 10.59 51.062 0.139 7.54 1.93 13.22
11/8/2022 2:15:00 PM 10.56 51.008 0.139 7.52 1.88 13.13
11/8/2022 2:30:00 PM 10.55 50.99 0.14 7.51 1.86 13.05
11/8/2022 2:45:00 PM 10.55 50.99 0.139 7.46 1.93 12.99
11/8/2022 3:00:00 PM 10.53 50.954 0.14 7.46 1.88 12.94
11/8/2022 3:15:00 PM 10.52 50.936 0.139 7.46 1.97 12.9
11/8/2022 3:30:00 PM 10.53 50.954 0.14 7.46 1.9 12.85
11/8/2022 3:45:00 PM 10.54 50.972 0.139 7.4 1.97 12.81
11/8/2022 4:00:00 PM 10.54 50.972 0.14 7.42 2.1 12.75
11/8/2022 4:15:00 PM 10.55 50.99 0.14 7.4 1.91 12.68
11/8/2022 4:30:00 PM 10.56 51.008 0.14 7.39 1.95 12.63
11/8/2022 4:45:00 PM 10.56 51.008 0.14 7.4 1.98 12.59
11/8/2022 5:00:00 PM 10.57 51.026 0.14 7.37 1.9 12.49
11/8/2022 5:15:00 PM 10.58 51.044 0.14 7.37 1.99 12.42
11/8/2022 5:30:00 PM 10.57 51.026 0.14 7.34 2.11 12.33
11/8/2022 5:45:00 PM 10.57 51.026 0.14 7.33 1.97 12.3
11/8/2022 6:00:00 PM 10.55 50.99 0.14 7.32 1.98 12.31
11/8/2022 6:15:00 PM 10.53 50.954 0.14 7.31 1.88 12.23
11/8/2022 6:30:00 PM 10.48 50.864 0.141 7.29 1.91 12.28
11/8/2022 6:45:00 PM 10.43 50.774 0.141 7.32 1.97 12.3
11/8/2022 7:00:00 PM 10.37 50.666 0.141 7.29 1.92 12.29
11/8/2022 7:15:00 PM 10.29 50.522 0.141 7.31 1.9 12.35
11/8/2022 7:30:00 PM 10.22 50.396 0.141 7.31 1.92 12.34
11/8/2022 7:45:00 PM 10.16 50.288 0.141 7.3 1.98 12.37
11/8/2022 8:00:00 PM 10.08 50.144 0.141 7.29 1.92 12.4
11/8/2022 8:15:00 PM 10.01 50.018 0.141 7.31 2.05 12.41
11/8/2022 8:30:00 PM 9.94 49.892 0.141 7.3 1.92 12.44
11/8/2022 8:45:00 PM 9.85 49.73 0.141 7.3 1.9 12.45
11/8/2022 9:00:00 PM 9.79 49.622 0.141 7.3 1.94 12.46
11/8/2022 9:15:00 PM 9.7 49.46 0.141 7.3 1.93 12.5
11/8/2022 9:30:00 PM 9.63 49.334 0.141 7.29 1.87 12.51
11/8/2022 9:45:00 PM 9.55 49.19 0.142 7.31 1.89 12.57
11/8/2022 10:00:00 PM 9.46 49.028 0.141 7.3 1.99 12.59
11/8/2022 10:15:00 PM 9.4 48.92 0.142 7.3 2 12.6
11/8/2022 10:30:00 PM 9.32 48.776 0.142 7.29 1.95 12.63
11/8/2022 10:45:00 PM 9.24 48.632 0.142 7.31 1.84 12.69
11/8/2022 11:00:00 PM 9.19 48.542 0.142 7.25 1.9 12.66
11/8/2022 11:15:00 PM 9.13 48.434 0.142 7.27 1.97 12.69
11/8/2022 11:30:00 PM 9.04 48.272 0.142 7.28 1.9 12.75
11/8/2022 11:45:00 PM 8.98 48.164 0.142 7.27 2.31 12.75
11/9/2022 12:00:00 AM 8.9 48.02 0.142 7.28 2.19 12.79
11/9/2022 12:15:00 AM 8.84 47.912 0.142 7.29 1.96 12.81
11/9/2022 12:30:00 AM 8.77 47.786 0.142 7.27 1.94 12.83
11/9/2022 12:45:00 AM 8.71 47.678 0.142 7.27 2.07 12.83
11/9/2022 1:00:00 AM 8.63 47.534 0.142 7.28 1.96 12.87
11/9/2022 1:15:00 AM 8.57 47.426 0.142 7.29 2 12.91
11/9/2022 1:30:00 AM 8.51 47.318 0.142 7.28 2.1 12.92
11/9/2022 1:45:00 AM 8.45 47.21 0.142 7.28 1.94 12.95
11/9/2022 2:00:00 AM 8.4 47.12 0.142 7.27 1.93 12.95
11/9/2022 2:15:00 AM 8.33 46.994 0.142 7.28 1.95 12.98
11/9/2022 2:30:00 AM 8.28 46.904 0.142 7.29 1.9 12.98
11/9/2022 2:45:00 AM 8.23 46.814 0.142 7.27 1.66 13.03
11/9/2022 3:00:00 AM 8.18 46.724 0.142 7.29 1.93 13.02
11/9/2022 3:15:00 AM 8.14 46.652 0.142 7.29 1.9 13.04
11/9/2022 3:30:00 AM 8.1 46.58 0.142 7.29 1.9 13.07
11/9/2022 3:45:00 AM 8.06 46.508 0.142 7.27 1.95 13.07
11/9/2022 4:00:00 AM 8 46.4 0.142 7.29 1.9 13.1
11/9/2022 4:15:00 AM 7.96 46.328 0.142 7.3 1.95 13.11
11/9/2022 4:30:00 AM 7.93 46.274 0.142 7.29 1.87 13.11
11/9/2022 4:45:00 AM 7.88 46.184 0.142 7.3 1.93 13.15
11/9/2022 5:00:00 AM 7.84 46.112 0.142 7.29 1.88 13.15
11/9/2022 5:15:00 AM 7.79 46.022 0.142 7.29 1.93 13.15
11/9/2022 5:30:00 AM 7.75 45.95 0.142 7.29 1.89 13.17
11/9/2022 5:45:00 AM 7.71 45.878 0.142 7.3 1.96 13.2
11/9/2022 6:00:00 AM 7.68 45.824 0.142 7.29 1.91 13.17
11/9/2022 6:15:00 AM 7.62 45.716 0.142 7.29 1.9 13.2
11/9/2022 6:30:00 AM 7.6 45.68 0.142 7.29 7.4 13.22
11/9/2022 6:45:00 AM 7.54 45.572 0.142 7.29 2.09 13.24
11/9/2022 7:00:00 AM 7.5 45.5 0.142 7.3 2 13.26
11/9/2022 7:15:00 AM 7.47 45.446 0.142 7.31 1.97 13.33
11/9/2022 7:30:00 AM 7.45 45.41 0.142 7.31 1.92 13.41
11/9/2022 7:45:00 AM 7.42 45.356 0.142 7.33 1.91 13.54
11/9/2022 8:00:00 AM 7.41 45.338 0.142 7.35 4.36 13.6
11/9/2022 8:15:00 AM 7.39 45.302 0.142 7.37 2.53 13.71
11/9/2022 8:30:00 AM 7.42 45.356 0.142 7.41 1.99 13.84
11/9/2022 8:45:00 AM 7.48 45.464 0.142 7.43 1.94 13.96
11/9/2022 9:00:00 AM 7.57 45.626 0.142 7.49 1.93 14.09
11/9/2022 9:15:00 AM 7.66 45.788 0.141 7.54 1.88 14.28
11/9/2022 9:30:00 AM 7.79 46.022 0.141 7.57 1.88 14.33
11/9/2022 9:45:00 AM 7.93 46.274 0.141 7.58 1.99 14.41
11/9/2022 10:00:00 AM 8.08 46.544 0.141 7.64 1.9 14.49
11/9/2022 10:15:00 AM 8.21 46.778 0.141 7.65 2.09 14.51
11/9/2022 10:30:00 AM 8.34 47.012 0.141 7.62 2.24 14.51
11/9/2022 10:45:00 AM 8.41 47.138 0.141 7.67 1.98 14.52
11/9/2022 11:00:00 AM 8.56 47.408 0.141 7.63 1.97 14.5
11/9/2022 11:15:00 AM 8.66 47.588 0.141 7.62 1.9 14.51
11/9/2022 11:30:00 AM 8.73 47.714 0.141 7.69 1.93 14.46
11/9/2022 11:45:00 AM 8.84 47.912 0.141 7.66 1.86 14.39
11/9/2022 12:00:00 PM 8.86 47.948 0.141 7.72 1.89 14.42
11/9/2022 12:15:00 PM 8.87 47.966 0.141 7.68 1.94 14.33
11/9/2022 12:30:00 PM 8.84 47.912 0.141 7.69 1.88 14.27
11/9/2022 12:45:00 PM 8.85 47.93 0.141 7.64 1.96 14.22
11/9/2022 1:00:00 PM 8.91 48.038 0.141 7.64 1.89 14.16
11/9/2022 1:15:00 PM 8.95 48.11 0.141 7.6 2.1 14.1
11/9/2022 1:30:00 PM 8.93 48.074 0.141 7.61 1.85 14.04
11/9/2022 1:45:00 PM 8.96 48.128 0.141 7.62 1.94 14.02
11/9/2022 2:00:00 PM 8.97 48.146 0.141 7.55 1.86 13.94
11/9/2022 2:15:00 PM 8.99 48.182 0.141 7.52 1.89 13.91
11/9/2022 2:30:00 PM 9.02 48.236 0.141 7.51 1.87 13.78
11/9/2022 2:45:00 PM 9.01 48.218 0.141 7.57 1.87 13.74
11/9/2022 3:00:00 PM 9.06 48.308 0.141 7.58 1.87 13.73
11/9/2022 3:15:00 PM 9.1 48.38 0.141 7.61 1.95 13.79
11/9/2022 3:30:00 PM 9.14 48.452 0.141 7.61 1.86 13.71
11/9/2022 3:45:00 PM 9.16 48.488 0.141 7.56 1.87 13.53
11/9/2022 4:00:00 PM 9.17 48.506 0.141 7.54 1.88 13.38
11/9/2022 4:15:00 PM 9.2 48.56 0.141 7.51 1.9 13.27
11/9/2022 4:30:00 PM 9.22 48.596 0.141 7.47 1.88 13.17
11/9/2022 4:45:00 PM 9.23 48.614 0.141 7.45 1.93 13.1
11/9/2022 5:00:00 PM 9.23 48.614 0.141 7.43 2.04 12.99
11/9/2022 5:15:00 PM 9.24 48.632 0.141 7.42 2.17 12.9
11/9/2022 5:30:00 PM 9.24 48.632 0.141 7.37 1.89 12.79
11/9/2022 5:45:00 PM 9.24 48.632 0.142 7.38 2 12.74
11/9/2022 6:00:00 PM 9.2 48.56 0.142 7.37 2.21 12.7
11/9/2022 6:15:00 PM 9.19 48.542 0.142 7.37 2.1 12.68
11/9/2022 6:30:00 PM 9.16 48.488 0.142 7.35 1.93 12.65
11/9/2022 6:45:00 PM 9.12 48.416 0.142 7.36 1.96 12.66
11/9/2022 7:00:00 PM 9.08 48.344 0.142 7.35 1.91 12.67
11/9/2022 7:15:00 PM 9.01 48.218 0.142 7.35 1.95 12.69
11/9/2022 7:30:00 PM 8.96 48.128 0.142 7.34 1.95 12.68
11/9/2022 7:45:00 PM 8.91 48.038 0.142 7.34 1.91 12.67
11/9/2022 8:00:00 PM 8.84 47.912 0.143 7.3 3.04 12.71
11/9/2022 8:15:00 PM 8.76 47.768 0.143 7.34 4.25 12.76
11/9/2022 8:30:00 PM 8.71 47.678 0.143 7.33 3.22 12.76
11/9/2022 8:45:00 PM 8.63 47.534 0.143 7.34 2.62 12.8
11/9/2022 9:00:00 PM 8.6 47.48 0.143 7.32 2.64 12.81
11/9/2022 9:15:00 PM 8.51 47.318 0.143 7.32 2.79 12.82
11/9/2022 9:30:00 PM 8.46 47.228 0.143 7.33 2.52 12.83
11/9/2022 9:45:00 PM 8.4 47.12 0.143 7.34 2.47 12.86
11/9/2022 10:00:00 PM 8.35 47.03 0.143 7.34 2.36 12.89
11/9/2022 10:15:00 PM 8.31 46.958 0.143 7.33 2.37 12.89
11/9/2022 10:30:00 PM 8.26 46.868 0.143 7.33 2.48 12.9
11/9/2022 10:45:00 PM 8.2 46.76 0.143 7.33 2.27 12.93
11/9/2022 11:00:00 PM 8.17 46.706 0.143 7.33 2.21 12.95
11/9/2022 11:15:00 PM 8.12 46.616 0.143 7.33 2.37 12.95
11/9/2022 11:30:00 PM 8.09 46.562 0.143 7.33 2.16 12.97
11/9/2022 11:45:00 PM 8.05 46.49 0.143 7.32 2.37 12.99
11/10/2022 12:00:00 AM 8.01 46.418 0.144 7.32 2.35 13.01
11/10/2022 12:15:00 AM 7.97 46.346 0.143 7.32 2.06 13
11/10/2022 12:30:00 AM 7.94 46.292 0.144 7.32 2.1 13.02
11/10/2022 12:45:00 AM 7.89 46.202 0.144 7.33 2.15 13.04
11/10/2022 1:00:00 AM 7.86 46.148 0.144 7.33 2.12 13.07
11/10/2022 1:15:00 AM 7.82 46.076 0.144 7.33 2.15 13.06
11/10/2022 1:30:00 AM 7.79 46.022 0.144 7.33 31.28 13.07
11/10/2022 1:45:00 AM 7.76 45.968 0.143 7.32 1.95 13.07
11/10/2022 2:00:00 AM 7.72 45.896 0.144 7.33 2.07 13.09
11/10/2022 2:15:00 AM 7.71 45.878 0.144 7.3 1.97 13.03
11/10/2022 2:30:00 AM 7.69 45.842 0.143 7.32 1.97 13.03
11/10/2022 2:45:00 AM 7.66 45.788 0.144 7.33 2 13.1
11/10/2022 3:00:00 AM 7.64 45.752 0.144 7.32 2.42 13.11
11/10/2022 3:15:00 AM 7.61 45.698 0.144 7.33 2.16 13.16
11/10/2022 3:30:00 AM 7.59 45.662 0.144 7.3 2.03 13.13
11/10/2022 3:45:00 AM 7.56 45.608 0.144 7.33 1.91 13.17
11/10/2022 4:00:00 AM 7.54 45.572 0.144 7.33 1.87 13.18
11/10/2022 4:15:00 AM 7.51 45.518 0.144 7.33 1.89 13.19
11/10/2022 4:30:00 AM 7.48 45.464 0.144 7.33 1.83 13.19
11/10/2022 4:45:00 AM 7.44 45.392 0.144 7.34 1.84 13.2
11/10/2022 5:00:00 AM 7.42 45.356 0.144 7.33 1.87 13.22
11/10/2022 5:15:00 AM 7.4 45.32 0.144 7.33 1.86 13.23
11/10/2022 5:30:00 AM 7.36 45.248 0.144 7.34 1.92 13.21
11/10/2022 5:45:00 AM 7.34 45.212 0.144 7.33 1.88 13.23
11/10/2022 6:00:00 AM 7.32 45.176 0.144 7.33 2.14 13.25
11/10/2022 6:15:00 AM 7.29 45.122 0.144 7.33 1.94 13.24
11/10/2022 6:30:00 AM 7.28 45.104 0.144 7.33 1.9 13.26
11/10/2022 6:45:00 AM 7.25 45.05 0.144 7.33 2.01 13.26
11/10/2022 7:00:00 AM 7.22 44.996 0.144 7.34 1.96 13.3
11/10/2022 7:15:00 AM 7.22 44.996 0.144 7.35 2.06 13.36
11/10/2022 7:30:00 AM 7.2 44.96 0.144 7.36 1.89 13.47
11/10/2022 7:45:00 AM 7.21 44.978 0.144 7.37 1.91 13.55
11/10/2022 8:00:00 AM 7.22 44.996 0.144 7.4 1.89 13.66
11/10/2022 8:15:00 AM 7.24 45.032 0.144 7.42 1.88 13.78
11/10/2022 8:30:00 AM 7.3 45.14 0.143 7.45 1.88 13.9
11/10/2022 8:45:00 AM 7.38 45.284 0.143 7.45 1.9 14.05
11/10/2022 9:00:00 AM 7.49 45.482 0.143 7.55 1.85 14.24
11/10/2022 9:15:00 AM 7.64 45.752 0.143 7.57 1.91 14.34
11/10/2022 9:30:00 AM 7.77 45.986 0.143 7.64 1.85 14.44
11/10/2022 9:45:00 AM 7.96 46.328 0.143 7.68 1.82 14.53
11/10/2022 10:00:00 AM 8.16 46.688 0.143 7.71 1.9 14.59
11/10/2022 10:15:00 AM 8.33 46.994 0.143 7.72 2.69 14.6
11/10/2022 10:30:00 AM 8.5 47.3 0.143 7.78 1.85 14.62
11/10/2022 10:45:00 AM 8.66 47.588 0.143 7.78 1.81 14.6
11/10/2022 11:00:00 AM 8.82 47.876 0.142 7.82 1.81 14.55
11/10/2022 11:15:00 AM 8.97 48.146 0.142 7.82 1.86 14.49
11/10/2022 11:30:00 AM 9.1 48.38 0.142 7.85 1.87 14.46
11/10/2022 11:45:00 AM 9.24 48.632 0.142 7.85 1.82 14.46
11/10/2022 12:00:00 PM 9.32 48.776 0.142 7.87 1.83 14.41
11/10/2022 12:15:00 PM 9.38 48.884 0.142 7.88 1.8 14.32
11/10/2022 12:30:00 PM 9.43 48.974 0.142 7.81 1.92 14.25
11/10/2022 12:45:00 PM 9.46 49.028 0.142 7.86 1.86 14.15
11/10/2022 1:00:00 PM 9.57 49.226 0.142 7.76 1.9 14.15
11/10/2022 1:15:00 PM 9.6 49.28 0.142 7.77 1.86 14.03
11/10/2022 1:30:00 PM 9.62 49.316 0.142 7.77 1.78 13.94
11/10/2022 1:45:00 PM 9.67 49.406 0.142 7.7 1.83 13.88
11/10/2022 2:00:00 PM 9.69 49.442 0.142 7.67 1.91 13.77
11/10/2022 2:15:00 PM 9.7 49.46 0.143 7.67 1.88 13.66
11/10/2022 2:30:00 PM 9.76 49.568 0.142 7.6 1.87 13.57
11/10/2022 2:45:00 PM 9.82 49.676 0.142 7.51 1.85 13.4
11/10/2022 3:00:00 PM 9.81 49.658 0.143 7.58 1.82 13.27
11/10/2022 3:15:00 PM 9.83 49.694 0.143 7.58 1.85 13.28
11/10/2022 3:30:00 PM 9.86 49.748 0.142 7.56 1.93 13.21
11/10/2022 3:45:00 PM 9.89 49.802 0.143 7.55 1.85 13.13
11/10/2022 4:00:00 PM 9.93 49.874 0.142 7.53 1.86 13.06
11/10/2022 4:15:00 PM 9.96 49.928 0.143 7.51 2.11 12.97
11/10/2022 4:30:00 PM 10 50 0.143 7.48 1.89 12.87
11/10/2022 4:45:00 PM 10.02 50.036 0.143 7.44 2.02 12.73
11/10/2022 5:00:00 PM 10.04 50.072 0.143 7.45 2.13 12.63
11/10/2022 5:15:00 PM 10.07 50.126 0.143 7.41 2 12.54
11/10/2022 5:30:00 PM 10.09 50.162 0.143 7.38 1.91 12.43
11/10/2022 5:45:00 PM 10.11 50.198 0.143 7.38 1.87 12.38
11/10/2022 6:00:00 PM 10.13 50.234 0.143 7.38 1.85 12.33
11/10/2022 6:15:00 PM 10.15 50.27 0.143 7.38 1.82 12.3
11/10/2022 6:30:00 PM 10.18 50.324 0.143 7.35 2 12.3
11/10/2022 6:45:00 PM 10.23 50.414 0.143 7.17 2 12.13
11/10/2022 7:00:00 PM 10.26 50.468 0.142 7.23 2.25 12.06
11/10/2022 7:15:00 PM 10.26 50.468 0.142 7.25 2.08 12.08
11/10/2022 7:30:00 PM 10.24 50.432 0.141 7.2 2.15 12.03
11/10/2022 7:45:00 PM 10.22 50.396 0.141 7.19 2.1 12.05
11/10/2022 8:00:00 PM 10.17 50.306 0.14 7.21 2.05 12.08
11/10/2022 8:15:00 PM 10.1 50.18 0.14 7.16 2.14 12.21
11/10/2022 8:30:00 PM 10.02 50.036 0.14 7.23 2.02 12.14
11/10/2022 8:45:00 PM 9.94 49.892 0.14 7.24 2.01 12.23
11/10/2022 9:00:00 PM 9.89 49.802 0.14 7.24 2.09 12.3
11/10/2022 9:15:00 PM 9.86 49.748 0.14 7.21 1.96 12.29
11/10/2022 9:30:00 PM 9.79 49.622 0.14 7.24 2.05 12.32
11/10/2022 9:45:00 PM 9.76 49.568 0.14 7.21 2.56 12.27
11/10/2022 10:00:00 PM 9.71 49.478 0.14 7.21 2.09 12.3
11/10/2022 10:15:00 PM 9.68 49.424 0.14 7.23 2.12 12.29
11/10/2022 10:30:00 PM 9.61 49.298 0.14 7.26 2.07 12.36
11/10/2022 10:45:00 PM 9.59 49.262 0.139 7.23 2.03 12.43
11/10/2022 11:00:00 PM 9.59 49.262 0.139 7.23 1.98 12.45
11/10/2022 11:15:00 PM 9.54 49.172 0.139 7.22 1.97 12.41
11/10/2022 11:30:00 PM 9.51 49.118 0.139 7.24 1.98 12.42
11/10/2022 11:45:00 PM 9.48 49.064 0.139 7.25 2 12.44
11/11/2022 12:00:00 AM 9.48 49.064 0.139 7.26 1.96 12.44
11/11/2022 12:15:00 AM 9.49 49.082 0.139 7.25 2.04 12.43
11/11/2022 12:30:00 AM 9.49 49.082 0.139 7.16 2.14 12.34
11/11/2022 12:45:00 AM 9.44 48.992 0.139 7.25 1.97 12.43
11/11/2022 1:00:00 AM 9.42 48.956 0.139 7.25 1.97 12.41
11/11/2022 1:15:00 AM 9.44 48.992 0.139 7.21 2.13 12.44
11/11/2022 1:30:00 AM 9.45 49.01 0.138 7.2 2.18 12.38
11/11/2022 1:45:00 AM 9.41 48.938 0.138 7.24 2 12.45
11/11/2022 2:00:00 AM 9.42 48.956 0.138 7.25 2.13 12.39
11/11/2022 2:15:00 AM 9.4 48.92 0.138 7.28 2 12.49
11/11/2022 2:30:00 AM 9.41 48.938 0.138 7.26 2.08 12.48
11/11/2022 2:45:00 AM 9.43 48.974 0.138 7.24 2.04 12.44
11/11/2022 3:00:00 AM 9.42 48.956 0.138 7.26 2.02 12.49
11/11/2022 3:15:00 AM 9.41 48.938 0.138 7.27 1.99 12.49
11/11/2022 3:30:00 AM 9.41 48.938 0.138 7.25 2.25 12.41
11/11/2022 3:45:00 AM 9.41 48.938 0.138 7.27 2.09 12.52
11/11/2022 4:00:00 AM 9.42 48.956 0.138 7.27 2.03 12.5
11/11/2022 4:15:00 AM 9.41 48.938 0.138 7.28 2.02 12.51
11/11/2022 4:30:00 AM 9.41 48.938 0.138 7.29 1.98 12.5
11/11/2022 4:45:00 AM 9.4 48.92 0.138 7.28 2.08 12.53
11/11/2022 5:00:00 AM 9.4 48.92 0.138 7.3 2.03 12.55
11/11/2022 5:15:00 AM 9.4 48.92 0.138 7.27 1.95 12.52
11/11/2022 5:30:00 AM 9.4 48.92 0.138 7.3 1.96 12.54
11/11/2022 5:45:00 AM 9.42 48.956 0.138 7.29 1.97 12.54
11/11/2022 6:00:00 AM 9.43 48.974 0.138 7.3 1.96 12.51
11/11/2022 6:15:00 AM 9.44 48.992 0.138 7.29 2.03 12.52
11/11/2022 6:30:00 AM 9.44 48.992 0.138 7.28 1.98 12.52
11/11/2022 6:45:00 AM 9.46 49.028 0.138 7.28 1.97 12.51
11/11/2022 7:00:00 AM 9.47 49.046 0.138 7.32 1.94 12.55
11/11/2022 7:15:00 AM 9.48 49.064 0.138 7.31 2 12.57
11/11/2022 7:30:00 AM 9.53 49.154 0.138 7.3 2.05 12.6
11/11/2022 7:45:00 AM 9.57 49.226 0.138 7.3 2.03 12.73
11/11/2022 8:00:00 AM 9.63 49.334 0.138 7.36 1.99 12.82
11/11/2022 8:15:00 AM 9.69 49.442 0.138 7.33 1.97 12.93
11/11/2022 8:30:00 AM 9.75 49.55 0.138 7.4 1.93 13.02
11/11/2022 8:45:00 AM 9.82 49.676 0.138 7.4 1.97 13
11/11/2022 9:00:00 AM 9.87 49.766 0.138 7.4 1.96 12.95
11/11/2022 9:15:00 AM 9.95 49.91 0.138 7.4 1.96 12.92
11/11/2022 9:30:00 AM 10.01 50.018 0.138 7.39 1.94 12.87
11/11/2022 9:45:00 AM 10.08 50.144 0.137 7.37 2.1 12.82
11/11/2022 10:00:00 AM 10.15 50.27 0.137 7.35 2.16 12.72
11/11/2022 10:15:00 AM 10.21 50.378 0.137 7.39 2.16 12.81
11/11/2022 10:30:00 AM 10.29 50.522 0.136 7.37 2.14 12.84
11/11/2022 10:45:00 AM 10.36 50.648 0.136 7.35 2.06 12.78
11/11/2022 11:00:00 AM 10.43 50.774 0.135 7.38 2.22 12.79
11/11/2022 11:15:00 AM 10.49 50.882 0.135 7.35 2.19 12.77
11/11/2022 11:30:00 AM 10.55 50.99 0.135 7.38 2.04 12.75
11/11/2022 11:45:00 AM 10.61 51.098 0.135 7.35 2.09 12.74
11/11/2022 12:00:00 PM 10.68 51.224 0.134 7.39 2.08 12.79
11/11/2022 12:15:00 PM 10.74 51.332 0.135 7.35 2.1 12.74
11/11/2022 12:30:00 PM 10.8 51.44 0.134 7.32 2.02 12.64
11/11/2022 12:45:00 PM 10.87 51.566 0.134 7.39 2.12 12.59
11/11/2022 1:00:00 PM 10.94 51.692 0.133 7.34 2.17 12.66
11/11/2022 1:15:00 PM 11 51.8 0.133 7.36 2.09 12.61
11/11/2022 1:30:00 PM 11.06 51.908 0.134 7.35 2.16 12.61
11/11/2022 1:45:00 PM 11.11 51.998 0.133 7.34 2.14 12.5
11/11/2022 2:00:00 PM 11.19 52.142 0.132 7.3 2.39 12.38
11/11/2022 2:15:00 PM 11.25 52.25 0.131 7.28 2.74 12.21
11/11/2022 2:30:00 PM 11.29 52.322 0.13 7.28 2.65 12.14
11/11/2022 2:45:00 PM 11.35 52.43 0.129 7.23 2.55 12.11
11/11/2022 3:00:00 PM 11.41 52.538 0.129 7.22 2.6 12
11/11/2022 3:15:00 PM 11.45 52.61 0.128 7.23 2.61 12.01
11/11/2022 3:30:00 PM 11.48 52.664 0.128 7.2 2.5 11.95
11/11/2022 3:45:00 PM 11.51 52.718 0.129 7.21 2.39 12.02
11/11/2022 4:00:00 PM 11.58 52.844 0.129 7.2 2.65 12.01
11/11/2022 4:15:00 PM 11.62 52.916 0.129 7.24 2.83 11.93
11/11/2022 4:30:00 PM 11.64 52.952 0.129 7.07 2.54 11.82
11/11/2022 4:45:00 PM 11.65 52.97 0.129 7.16 2.49 11.73
11/11/2022 5:00:00 PM 11.66 52.988 0.129 7.1 2.74 11.63
11/11/2022 5:15:00 PM 11.68 53.024 0.129 7.13 2.66 11.62
11/11/2022 5:30:00 PM 11.69 53.042 0.129 7.17 2.63 11.71
11/11/2022 5:45:00 PM 11.72 53.096 0.13 7.14 2.73 11.64
11/11/2022 6:00:00 PM 11.74 53.132 0.13 7.15 2.74 11.6
11/11/2022 6:15:00 PM 11.76 53.168 0.13 7.14 2.96 11.57
11/11/2022 6:30:00 PM 11.78 53.204 0.13 7.18 2.91 11.63
11/11/2022 6:45:00 PM 11.81 53.258 0.131 7.14 3.08 11.58
11/11/2022 7:00:00 PM 11.82 53.276 0.131 7.16 3.03 11.54
11/11/2022 7:15:00 PM 11.83 53.294 0.131 7.17 2.91 11.6
11/11/2022 7:30:00 PM 11.85 53.33 0.131 7.16 3.16 11.58
11/11/2022 7:45:00 PM 11.86 53.348 0.131 7.14 3.19 11.58
11/11/2022 8:00:00 PM 11.89 53.402 0.131 7.14 3.62 11.54
11/11/2022 8:15:00 PM 11.9 53.42 0.131 7.14 3.38 11.56
11/11/2022 8:30:00 PM 11.92 53.456 0.132 7.15 3.77 11.52
11/11/2022 8:45:00 PM 11.95 53.51 0.132 7.14 3.24 11.48
11/11/2022 9:00:00 PM 11.97 53.546 0.132 7.07 3.38 11.41
11/11/2022 9:15:00 PM 12.01 53.618 0.132 7.15 3.49 11.51
11/11/2022 9:30:00 PM 12.04 53.672 0.132 7.14 3.53 11.51
11/11/2022 9:45:00 PM 12.06 53.708 0.132 7.19 3.54 11.55
11/11/2022 10:00:00 PM 12.1 53.78 0.132 7.18 3.62 11.52
11/11/2022 10:15:00 PM 12.14 53.852 0.132 7.17 4.05 11.44
11/11/2022 10:30:00 PM 12.17 53.906 0.132 7.1 3.88 11.49
11/11/2022 10:45:00 PM 12.21 53.978 0.132 7.17 3.75 11.43
11/11/2022 11:00:00 PM 12.24 54.032 0.132 7.13 3.52 11.35
11/11/2022 11:15:00 PM 12.28 54.104 0.132 7.14 3.66 11.4
11/11/2022 11:30:00 PM 12.32 54.176 0.132 7.13 3.31 11.4
11/11/2022 11:45:00 PM 12.36 54.248 0.131 7.16 4.11 11.38
11/12/2022 12:00:00 AM 12.4 54.32 0.131 7.15 3.36 11.32
11/12/2022 12:15:00 AM 12.44 54.392 0.131 7.12 3.45 11.38
11/12/2022 12:30:00 AM 12.49 54.482 0.131 7.14 3.42 11.3
11/12/2022 12:45:00 AM 12.55 54.59 0.131 7.13 3.35 11.28
11/12/2022 1:00:00 AM 12.59 54.662 0.131 7.15 3.16 11.35
11/12/2022 1:15:00 AM 12.63 54.734 0.131 7.14 3.13 11.25
11/12/2022 1:30:00 AM 12.67 54.806 0.131 7.18 3.16 11.35
11/12/2022 1:45:00 AM 12.72 54.896 0.131 7.13 3.21 11.31
11/12/2022 2:00:00 AM 12.75 54.95 0.131 7.15 3.11 11.26
11/12/2022 2:15:00 AM 12.78 55.004 0.131 7.07 3.03 11.17
11/12/2022 2:30:00 AM 12.82 55.076 0.131 7.11 3.22 11.18
11/12/2022 2:45:00 AM 12.93 55.274 0.129 7.02 3.37 11.02
11/12/2022 3:00:00 AM 13.11 55.598 0.123 7.05 5.67 11.09
11/12/2022 3:15:00 AM 13.18 55.724 0.121 7.11 5.09 11.21
11/12/2022 3:30:00 AM 13.2 55.76 0.119 7.11 5.76 11.22
11/12/2022 3:45:00 AM 13.23 55.814 0.118 7.12 7.4 11.26
11/12/2022 4:00:00 AM 13.28 55.904 0.117 7.08 12.47 11.24
11/12/2022 4:15:00 AM 13.3 55.94 0.119 7.13 19.47 11.28
11/12/2022 4:30:00 AM 13.28 55.904 0.121 7.08 16.5 11.27
11/12/2022 4:45:00 AM 13.24 55.832 0.121 7.16 43.11 11.43
11/12/2022 5:00:00 AM 13.26 55.868 0.118 7.16 38.11 11.47
11/12/2022 5:15:00 AM 13.3 55.94 0.115 7.2 59.45 11.49
11/12/2022 5:30:00 AM 13.32 55.976 0.106 7.15 61.3 11.5
11/12/2022 5:45:00 AM 13.32 55.976 0.101 7.16 43 11.52
11/12/2022 6:00:00 AM 13.3 55.94 0.097 7.13 50.88 11.53
11/12/2022 6:15:00 AM 13.27 55.886 0.094 7.14 40.89 11.58
11/12/2022 6:30:00 AM 13.23 55.814 0.094 7.13 34.65 11.58
11/12/2022 6:45:00 AM 13.19 55.742 0.095 7.13 37.3 11.6
11/12/2022 7:00:00 AM 13.14 55.652 0.096 7.14 26.1 11.63
11/12/2022 7:15:00 AM 13.09 55.562 0.099 7.14 22.79 11.64
11/12/2022 7:30:00 AM 13.04 55.472 0.1 7.16 17.87 11.68
11/12/2022 7:45:00 AM 13 55.4 0.102 7.16 14.09 11.69
11/12/2022 8:00:00 AM 12.95 55.31 0.103 7.16 17.35 11.74
11/12/2022 8:15:00 AM 12.91 55.238 0.103 7.19 19.12 11.78
11/12/2022 8:30:00 AM 12.87 55.166 0.103 7.16 20.94 11.79
11/12/2022 8:45:00 AM 12.84 55.112 0.104 7.2 20.13 11.83
11/12/2022 9:00:00 AM 12.83 55.094 0.11 7.22 22.85 11.86
11/12/2022 9:15:00 AM 12.83 55.094 0.105 7.22 20.34 11.87
11/12/2022 9:30:00 AM 12.84 55.112 0.112 7.23 18.55 11.89
11/12/2022 9:45:00 AM 12.85 55.13 0.113 7.22 35.35 11.88
11/12/2022 10:00:00 AM 12.85 55.13 0.113 7.24 27.49 11.87
11/12/2022 10:15:00 AM 12.86 55.148 0.114 7.21 23.41 11.88
11/12/2022 10:30:00 AM 12.89 55.202 0.109 7.25 22.92 11.9
11/12/2022 10:45:00 AM 12.89 55.202 0.109 7.25 22.14 11.89
11/12/2022 11:00:00 AM 12.91 55.238 0.116 7.26 20.09 11.91
11/12/2022 11:15:00 AM 12.95 55.31 0.116 7.25 12.54 11.95
11/12/2022 11:30:00 AM 12.96 55.328 0.116 7.28 18.36 11.93
11/12/2022 11:45:00 AM 13 55.4 0.117 7.29 11.63 11.94
11/12/2022 12:00:00 PM 13 55.4 0.117 7.28 26.22 11.91
11/12/2022 12:15:00 PM 12.98 55.364 0.117 7.26 11.99 11.9
11/12/2022 12:30:00 PM 13.02 55.436 0.117 7.28 13.72 11.89
11/12/2022 12:45:00 PM 13.05 55.49 0.117 7.28 10.37 11.92
11/12/2022 1:00:00 PM 13.11 55.598 0.118 7.29 14.69 11.89
11/12/2022 1:15:00 PM 13.14 55.652 0.118 7.28 13.9 11.9
11/12/2022 1:30:00 PM 13.16 55.688 0.118 7.3 12.18 11.88
11/12/2022 1:45:00 PM 13.18 55.724 0.118 7.28 12.58 11.88
11/12/2022 2:00:00 PM 13.25 55.85 0.118 7.28 9.64 11.87
11/12/2022 2:15:00 PM 13.24 55.832 0.118 7.3 11.99 11.84
11/12/2022 2:30:00 PM 13.22 55.796 0.118 7.27 10.36 11.81
11/12/2022 2:45:00 PM 13.26 55.868 0.118 7.29 10.17 11.82
11/12/2022 3:00:00 PM 13.28 55.904 0.119 7.26 9.28 11.81
11/12/2022 3:15:00 PM 13.28 55.904 0.119 7.27 9.61 11.8
11/12/2022 3:30:00 PM 13.27 55.886 0.119 7.28 9.53 11.81
11/12/2022 3:45:00 PM 13.23 55.814 0.119 7.26 8.01 11.76
11/12/2022 4:00:00 PM 13.22 55.796 0.119 7.26 8.51 11.79
11/12/2022 4:15:00 PM 13.2 55.76 0.119 7.24 8.41 11.77
11/12/2022 4:30:00 PM 13.2 55.76 0.119 7.23 8.88 11.76
11/12/2022 4:45:00 PM 13.19 55.742 0.12 7.22 7.53 11.74
11/12/2022 5:00:00 PM 13.19 55.742 0.12 7.22 8.05 11.74
11/12/2022 5:15:00 PM 13.18 55.724 0.119 7.23 8.26 11.76
11/12/2022 5:30:00 PM 13.17 55.706 0.119 7.22 8.48 11.76
11/12/2022 5:45:00 PM 13.15 55.67 0.119 7.23 8.35 11.76
11/12/2022 6:00:00 PM 13.14 55.652 0.119 7.22 10.46 11.74
11/12/2022 6:15:00 PM 13.12 55.616 0.119 7.2 8.63 11.74
11/12/2022 6:30:00 PM 13.11 55.598 0.119 7.24 8.09 11.78
11/12/2022 6:45:00 PM 13.09 55.562 0.119 7.23 9.76 11.79
11/12/2022 7:00:00 PM 13.07 55.526 0.119 7.23 8.22 11.78
11/12/2022 7:15:00 PM 13.05 55.49 0.119 7.24 7.52 11.81
11/12/2022 7:30:00 PM 13.03 55.454 0.119 7.23 8.95 11.8
11/12/2022 7:45:00 PM 13 55.4 0.119 7.24 7.43 11.82
11/12/2022 8:00:00 PM 12.97 55.346 0.119 7.24 6.5 11.83
11/12/2022 8:15:00 PM 12.94 55.292 0.119 7.23 10.09 11.83
11/12/2022 8:30:00 PM 12.9 55.22 0.119 7.22 8.51 11.85
11/12/2022 8:45:00 PM 12.87 55.166 0.119 7.24 8.27 11.84
11/12/2022 9:00:00 PM 12.84 55.112 0.119 7.25 8.19 11.87
11/12/2022 9:15:00 PM 12.81 55.058 0.119 7.24 7.82 11.89
11/12/2022 9:30:00 PM 12.78 55.004 0.119 7.25 7 11.9
11/12/2022 9:45:00 PM 12.75 54.95 0.118 7.22 6.49 11.87
11/12/2022 10:00:00 PM 12.73 54.914 0.118 7.24 6.97 11.91
11/12/2022 10:15:00 PM 12.7 54.86 0.119 7.23 7.38 11.89
11/12/2022 10:30:00 PM 12.68 54.824 0.119 7.23 6.29 11.91
11/12/2022 10:45:00 PM 12.65 54.77 0.119 7.23 6.28 11.91
11/12/2022 11:00:00 PM 12.63 54.734 0.119 7.21 6.15 11.94
11/12/2022 11:15:00 PM 12.61 54.698 0.119 7.23 6.29 11.92
11/12/2022 11:30:00 PM 12.58 54.644 0.118 7.22 6.27 11.96
11/12/2022 11:45:00 PM 12.56 54.608 0.118 7.24 6.24 11.95
11/13/2022 12:00:00 AM 12.53 54.554 0.118 7.25 5.95 11.98
11/13/2022 12:15:00 AM 12.51 54.518 0.118 7.23 6.05 11.95
11/13/2022 12:30:00 AM 12.49 54.482 0.118 7.24 5.96 11.96
11/13/2022 12:45:00 AM 12.47 54.446 0.118 7.23 6.16 11.96
11/13/2022 1:00:00 AM 12.44 54.392 0.118 7.24 5.43 11.98
11/13/2022 1:15:00 AM 12.4 54.32 0.118 7.24 5.6 11.99
11/13/2022 1:30:00 AM 12.36 54.248 0.118 7.22 5.9 12.01
11/13/2022 1:45:00 AM 12.32 54.176 0.118 7.22 6.4 11.99
11/13/2022 2:00:00 AM 12.29 54.122 0.118 7.18 5.67 12.02
11/13/2022 2:15:00 AM 12.24 54.032 0.117 7.22 6.37 12.02
11/13/2022 2:30:00 AM 12.2 53.96 0.117 7.21 6 12.03
11/13/2022 2:45:00 AM 12.15 53.87 0.117 7.22 5.89 12.04
11/13/2022 3:00:00 AM 12.12 53.816 0.117 7.21 5.73 12.08
11/13/2022 3:15:00 AM 12.08 53.744 0.117 7.23 6.08 12.09
11/13/2022 3:30:00 AM 12.04 53.672 0.117 7.19 5.8 12.09
11/13/2022 3:45:00 AM 12.01 53.618 0.117 7.22 5.71 12.09
11/13/2022 4:00:00 AM 11.98 53.564 0.117 7.23 6.06 12.11
11/13/2022 4:15:00 AM 11.94 53.492 0.117 7.22 6.72 12.11
11/13/2022 4:30:00 AM 11.89 53.402 0.111 7.21 6.34 12.11
11/13/2022 4:45:00 AM 11.85 53.33 0.117 7.18 7.79 12.15
11/13/2022 5:00:00 AM 11.82 53.276 0.117 7.22 6.71 12.14
11/13/2022 5:15:00 AM 11.79 53.222 0.117 7.23 7.13 12.17
11/13/2022 5:30:00 AM 11.76 53.168 0.117 7.23 5.52 12.18
11/13/2022 5:45:00 AM 11.73 53.114 0.117 7.22 6.26 12.18
11/13/2022 6:00:00 AM 11.7 53.06 0.111 7.22 6.28 12.19
11/13/2022 6:15:00 AM 11.68 53.024 0.111 7.22 6.11 12.2
11/13/2022 6:30:00 AM 11.65 52.97 0.111 7.21 6.59 12.22
11/13/2022 6:45:00 AM 11.63 52.934 0.117 7.21 5.86 12.21
11/13/2022 7:00:00 AM 11.6 52.88 0.117 7.22 5.72 12.22
11/13/2022 7:15:00 AM 11.57 52.826 0.117 7.21 6.77 12.22
11/13/2022 7:30:00 AM 11.56 52.808 0.117 7.2 13.2 12.22
11/13/2022 7:45:00 AM 11.54 52.772 0.117 7.24 6.05 12.29
11/13/2022 8:00:00 AM 11.53 52.754 0.111 7.23 5.49 12.3
11/13/2022 8:15:00 AM 11.52 52.736 0.111 7.24 5.6 12.32
11/13/2022 8:30:00 AM 11.52 52.736 0.117 7.24 5.72 12.34
11/13/2022 8:45:00 AM 11.52 52.736 0.117 7.19 4.9 12.32
11/13/2022 9:00:00 AM 11.52 52.736 0.117 7.22 5.5 12.31
11/13/2022 9:15:00 AM 11.52 52.736 0.117 7.21 5.24 12.34
11/13/2022 9:30:00 AM 11.51 52.718 0.117 7.25 4.93 12.37
11/13/2022 9:45:00 AM 11.53 52.754 0.111 7.23 5.28 12.38
11/13/2022 10:00:00 AM 11.55 52.79 0.117 7.24 5.17 12.38
11/13/2022 10:15:00 AM 11.56 52.808 0.117 7.26 5.18 12.39
11/13/2022 10:30:00 AM 11.61 52.898 0.117 7.25 5.02 12.38
11/13/2022 10:45:00 AM 11.58 52.844 0.117 7.27 5.62 12.4
11/13/2022 11:00:00 AM 11.58 52.844 0.117 7.24 4.79 12.38
11/13/2022 11:15:00 AM 11.6 52.88 0.117 7.27 4.89 12.4
11/13/2022 11:30:00 AM 11.63 52.934 0.117 7.26 5.09 12.38
11/13/2022 11:45:00 AM 11.62 52.916 0.118 7.26 4.96 12.39
11/13/2022 12:00:00 PM 11.65 52.97 0.118 7.23 4.58 12.36
11/13/2022 12:15:00 PM 11.62 52.916 0.111 7.26 5.34 12.36
11/13/2022 12:30:00 PM 11.65 52.97 0.111 7.21 4.86 12.37
11/13/2022 12:45:00 PM 11.64 52.952 0.118 7.26 5.22 12.37
11/13/2022 1:00:00 PM 11.63 52.934 0.118 7.25 5.05 12.38
11/13/2022 1:15:00 PM 11.62 52.916 0.118 7.24 4.96 12.36
11/13/2022 1:30:00 PM 11.63 52.934 0.118 7.26 4.59 12.4
11/13/2022 1:45:00 PM 11.6 52.88 0.117 7.27 4.76 12.4
11/13/2022 2:00:00 PM 11.59 52.862 0.118 7.24 4.92 12.35
11/13/2022 2:15:00 PM 11.59 52.862 0.118 7.28 4.7 12.39
11/13/2022 2:30:00 PM 11.58 52.844 0.118 7.24 4.55 12.4
11/13/2022 2:45:00 PM 11.58 52.844 0.117 7.29 5.22 12.43
11/13/2022 3:00:00 PM 11.59 52.862 0.118 7.23 4.88 12.39
11/13/2022 3:15:00 PM 11.56 52.808 0.117 7.28 5.05 12.39
11/13/2022 3:30:00 PM 11.54 52.772 0.117 7.26 4.77 12.36
11/13/2022 3:45:00 PM 11.51 52.718 0.117 7.25 5.05 12.33
11/13/2022 4:00:00 PM 11.39 52.502 0.117 7.26 5.47 12.37
11/13/2022 4:15:00 PM 11.34 52.412 0.117 7.25 4.78 12.39
11/13/2022 4:30:00 PM 11.28 52.304 0.111 7.25 4.54 12.38
11/13/2022 4:45:00 PM 11.23 52.214 0.117 7.23 7.84 12.35
11/13/2022 5:00:00 PM 11.18 52.124 0.117 7.23 4.97 12.37
11/13/2022 5:15:00 PM 11.14 52.052 0.117 7.23 5.79 12.38
11/13/2022 5:30:00 PM 11.09 51.962 0.111 7.23 4.65 12.41
11/13/2022 5:45:00 PM 11.05 51.89 0.111 7.23 4.98 12.42
11/13/2022 6:00:00 PM 11.03 51.854 0.117 7.21 5.13 12.41
11/13/2022 6:15:00 PM 10.99 51.782 0.111 7.22 5.48 12.42
11/13/2022 6:30:00 PM 10.96 51.728 0.117 7.22 5.19 12.45
11/13/2022 6:45:00 PM 10.93 51.674 0.112 7.22 4.91 12.46
11/13/2022 7:00:00 PM 10.9 51.62 0.112 7.22 5.51 12.48
11/13/2022 7:15:00 PM 10.85 51.53 0.111 7.24 4.72 12.5
11/13/2022 7:30:00 PM 10.82 51.476 0.111 7.23 5.03 12.5
11/13/2022 7:45:00 PM 10.77 51.386 0.117 7.22 5.16 12.51
11/13/2022 8:00:00 PM 10.73 51.314 0.111 7.23 5.41 12.53
11/13/2022 8:15:00 PM 10.69 51.242 0.111 7.23 4.73 12.56
11/13/2022 8:30:00 PM 10.66 51.188 0.117 7.22 4.48 12.55
11/13/2022 8:45:00 PM 10.62 51.116 0.111 7.22 4.42 12.58
11/13/2022 9:00:00 PM 10.58 51.044 0.113 7.22 4.73 12.58
11/13/2022 9:15:00 PM 10.56 51.008 0.118 7.21 4.71 12.58
11/13/2022 9:30:00 PM 10.54 50.972 0.111 7.22 4.53 12.59
11/13/2022 9:45:00 PM 10.51 50.918 0.112 7.2 4.42 12.6
11/13/2022 10:00:00 PM 10.48 50.864 0.118 7.22 5.45 12.61
11/13/2022 10:15:00 PM 10.45 50.81 0.112 7.22 4.16 12.61
11/13/2022 10:30:00 PM 10.41 50.738 0.112 7.22 7.54 12.63
11/13/2022 10:45:00 PM 10.37 50.666 0.112 7.23 4.52 12.64
11/13/2022 11:00:00 PM 10.33 50.594 0.118 7.22 4.84 12.64
11/13/2022 11:15:00 PM 10.3 50.54 0.111 7.22 4.67 12.68
11/13/2022 11:30:00 PM 10.28 50.504 0.111 7.23 4.86 12.68
11/13/2022 11:45:00 PM 10.25 50.45 0.111 7.22 5.26 12.68
11/14/2022 12:00:00 AM 10.23 50.414 0.111 7.21 4.52 12.68
11/14/2022 12:15:00 AM 10.2 50.36 0.111 7.21 4.53 12.69
11/14/2022 12:30:00 AM 10.17 50.306 0.111 7.22 4.24 12.71
11/14/2022 12:45:00 AM 10.15 50.27 0.111 7.22 4.29 12.73
11/14/2022 1:00:00 AM 10.12 50.216 0.117 7.21 4.22 12.71
11/14/2022 1:15:00 AM 10.06 50.108 0.111 7.19 4.39 12.75
11/14/2022 1:30:00 AM 10.02 50.036 0.111 7.22 4.6 12.76
11/14/2022 1:45:00 AM 9.97 49.946 0.111 7.2 4.51 12.79
11/14/2022 2:00:00 AM 9.93 49.874 0.111 7.21 4.35 12.77
11/14/2022 2:15:00 AM 9.88 49.784 0.111 7.21 4.84 12.81
11/14/2022 2:30:00 AM 9.84 49.712 0.111 7.19 5.15 12.82
11/14/2022 2:45:00 AM 9.8 49.64 0.111 7.22 4.39 12.84
11/14/2022 3:00:00 AM 9.75 49.55 0.111 7.19 4.25 12.85
11/14/2022 3:15:00 AM 9.7 49.46 0.111 7.21 4.27 12.85
11/14/2022 3:30:00 AM 9.66 49.388 0.111 7.18 4.38 12.9
11/14/2022 3:45:00 AM 9.61 49.298 0.111 7.21 4.36 12.9
11/14/2022 4:00:00 AM 9.57 49.226 0.111 7.22 4.22 12.92
11/14/2022 4:15:00 AM 9.53 49.154 0.111 7.21 4.39 12.94
11/14/2022 4:30:00 AM 9.5 49.1 0.111 7.22 4.17 12.95
11/14/2022 4:45:00 AM 9.44 48.992 0.111 7.19 4.49 12.94
11/14/2022 5:00:00 AM 9.41 48.938 0.111 7.21 4.09 12.97
11/14/2022 5:15:00 AM 9.37 48.866 0.111 7.18 4.14 12.99
11/14/2022 5:30:00 AM 9.33 48.794 0.111 7.22 4.35 13.01
11/14/2022 5:45:00 AM 9.3 48.74 0.111 7.19 4.32 12.99
11/14/2022 6:00:00 AM 9.27 48.686 0.111 7.21 5.39 13.03
11/14/2022 6:15:00 AM 9.23 48.614 0.111 7.21 4.48 13.05
11/14/2022 6:30:00 AM 9.19 48.542 0.111 7.2 4.27 13.02
11/14/2022 6:45:00 AM 9.16 48.488 0.111 7.22 5.03 13.08
11/14/2022 7:00:00 AM 9.15 48.47 0.112 7.21 4.75 13.09
11/14/2022 7:15:00 AM 9.13 48.434 0.111 7.21 3.9 13.12
11/14/2022 7:30:00 AM 9.13 48.434 0.111 7.21 3.82 13.12
11/14/2022 7:45:00 AM 9.12 48.416 0.111 7.22 4.13 13.16
11/14/2022 8:00:00 AM 9.12 48.416 0.111 7.22 3.85 13.18
11/14/2022 8:15:00 AM 9.15 48.47 0.111 7.22 3.95 13.19
11/14/2022 8:30:00 AM 9.15 48.47 0.111 7.23 3.97 13.23
11/14/2022 8:45:00 AM 9.16 48.488 0.111 7.24 3.71 13.26
11/14/2022 9:00:00 AM 9.2 48.56 0.111 7.26 3.86 13.26
11/14/2022 9:15:00 AM 9.24 48.632 0.111 7.24 3.89 13.25
11/14/2022 9:30:00 AM 9.26 48.668 0.111 7.27 4 13.29
11/14/2022 9:45:00 AM 9.31 48.758 0.11 7.22 3.9 13.25
11/14/2022 10:00:00 AM 9.37 48.866 0.111 7.27 3.9 13.28
11/14/2022 10:15:00 AM 9.41 48.938 0.11 7.24 3.92 13.26
11/14/2022 10:30:00 AM 9.41 48.938 0.111 7.26 3.67 13.22
11/14/2022 10:45:00 AM 9.45 49.01 0.111 7.27 3.86 13.25
11/14/2022 11:00:00 AM 9.47 49.046 0.111 7.28 3.91 13.24
11/14/2022 11:15:00 AM 9.46 49.028 0.11 7.29 3.8 13.24
11/14/2022 11:30:00 AM 9.57 49.226 0.11 7.28 4.11 13.23
11/14/2022 11:45:00 AM 9.58 49.244 0.11 7.29 3.88 13.22
11/14/2022 12:00:00 PM 9.66 49.388 0.11 7.27 4.07 13.21
11/14/2022 12:15:00 PM 9.73 49.514 0.111 7.28 4.33 13.19
11/14/2022 12:30:00 PM 9.76 49.568 0.111 7.29 3.98 13.18
11/14/2022 12:45:00 PM 9.76 49.568 0.11 7.29 106 13.17
11/14/2022 1:00:00 PM 9.85 49.73 0.11 7.28 6.21 13.16
11/14/2022 1:15:00 PM 9.94 49.892 0.111 7.25 4.75 13.1
11/14/2022 1:30:00 PM 9.84 49.712 0.11 7.28 4.01 13.07
11/14/2022 1:45:00 PM 9.88 49.784 0.11 7.26 3.86 13.06
11/14/2022 2:00:00 PM 9.94 49.892 0.11 7.29 3.62 13.09
11/14/2022 2:15:00 PM 9.9 49.82 0.111 7.23 3.93 13.06
11/14/2022 2:30:00 PM 9.88 49.784 0.111 7.25 3.91 13.04
11/14/2022 2:45:00 PM 9.85 49.73 0.11 7.26 4.66 13.07
11/14/2022 3:00:00 PM 9.85 49.73 0.11 7.27 3.81 13.09
11/14/2022 3:15:00 PM 9.81 49.658 0.111 7.27 3.83 13.06
11/14/2022 3:30:00 PM 9.79 49.622 0.111 7.27 3.69 13.07
11/14/2022 3:45:00 PM 9.75 49.55 0.111 7.23 4.03 13
11/14/2022 4:00:00 PM 9.64 49.352 0.111 7.24 4.77 13.03
11/14/2022 4:15:00 PM 9.57 49.226 0.111 7.23 5.33 12.99
11/14/2022 4:30:00 PM 9.5 49.1 0.111 7.22 3.73 13.02
11/14/2022 4:45:00 PM 9.45 49.01 0.111 7.17 4 13.02
11/14/2022 5:00:00 PM 9.39 48.902 0.111 7.23 4.09 13.03
11/14/2022 5:15:00 PM 9.33 48.794 0.111 7.19 3.81 13.03
11/14/2022 5:30:00 PM 9.3 48.74 0.111 7.2 4.04 13.03
11/14/2022 5:45:00 PM 9.27 48.686 0.112 7.19 4.08 13.02
11/14/2022 6:00:00 PM 9.21 48.578 0.111 7.19 3.79 13.05
11/14/2022 6:15:00 PM 9.18 48.524 0.111 7.17 3.8 13.01
11/14/2022 6:30:00 PM 9.14 48.452 0.111 7.21 3.61 13.09
11/14/2022 6:45:00 PM 9.1 48.38 0.111 7.19 3.79 13.08
11/14/2022 7:00:00 PM 9.07 48.326 0.111 7.18 3.78 13.1
11/14/2022 7:15:00 PM 9.01 48.218 0.111 7.15 3.8 13.11
11/14/2022 7:30:00 PM 8.98 48.164 0.111 7.17 3.59 13.12
11/14/2022 7:45:00 PM 8.94 48.092 0.112 7.18 3.73 13.14
11/14/2022 8:00:00 PM 8.9 48.02 0.111 7.18 3.87 13.15
11/14/2022 8:15:00 PM 8.87 47.966 0.111 7.15 3.94 13.12
11/14/2022 8:30:00 PM 8.83 47.894 0.112 7.15 3.55 13.12
11/14/2022 8:45:00 PM 8.75 47.75 0.112 7.18 3.44 13.23
11/14/2022 9:00:00 PM 8.69 47.642 0.111 7.18 3.73 13.2
11/14/2022 9:15:00 PM 8.65 47.57 0.111 7.16 3.44 13.2
11/14/2022 9:30:00 PM 8.59 47.462 0.112 7.17 5.51 13.23
11/14/2022 9:45:00 PM 8.56 47.408 0.111 7.17 3.56 13.25
11/14/2022 10:00:00 PM 8.54 47.372 0.112 7.16 3.83 13.23
11/14/2022 10:15:00 PM 8.49 47.282 0.111 7.11 3.8 13.25
11/14/2022 10:30:00 PM 8.43 47.174 0.112 7.13 3.44 13.25
11/14/2022 10:45:00 PM 8.38 47.084 0.112 7.14 3.73 13.29
11/14/2022 11:00:00 PM 8.35 47.03 0.112 7.14 5.02 13.3
11/14/2022 11:15:00 PM 8.31 46.958 0.112 7.14 3.46 13.32
11/14/2022 11:30:00 PM 8.26 46.868 0.111 7.15 3.76 13.34
11/14/2022 11:45:00 PM 8.22 46.796 0.112 7.14 3.54 13.35
11/15/2022 12:00:00 AM 8.19 46.742 0.112 7.13 3.33 13.35
11/15/2022 12:15:00 AM 8.15 46.67 0.112 7.14 3.41 13.36
11/15/2022 12:30:00 AM 8.12 46.616 0.111 7.13 3.52 13.37
11/15/2022 12:45:00 AM 8.09 46.562 0.112 7.14 3.4 13.39
11/15/2022 1:00:00 AM 8.06 46.508 0.112 7.12 3.35 13.37
11/15/2022 1:15:00 AM 8 46.4 0.112 7.14 3.56 13.44
11/15/2022 1:30:00 AM 7.99 46.382 0.112 7.12 3.46 13.41
11/15/2022 1:45:00 AM 7.93 46.274 0.112 7.14 3.59 13.44
11/15/2022 2:00:00 AM 7.91 46.238 0.111 7.13 3.52 13.39
11/15/2022 2:15:00 AM 7.87 46.166 0.112 7.12 3.46 13.44
11/15/2022 2:30:00 AM 7.85 46.13 0.112 7.1 3.44 13.43
11/15/2022 2:45:00 AM 7.79 46.022 0.112 7.14 3.69 13.52
11/15/2022 3:00:00 AM 7.76 45.968 0.112 7.12 3.43 13.48
11/15/2022 3:15:00 AM 7.72 45.896 0.112 7.13 3.37 13.53
11/15/2022 3:30:00 AM 7.69 45.842 0.112 7.12 3.52 13.52
11/15/2022 3:45:00 AM 7.66 45.788 0.112 7.14 3.29 13.54
11/15/2022 4:00:00 AM 7.62 45.716 0.112 7.12 3.41 13.53
11/15/2022 4:15:00 AM 7.6 45.68 0.112 7.13 3.32 13.54
11/15/2022 4:30:00 AM 7.57 45.626 0.112 7.13 3.33 13.55
11/15/2022 4:45:00 AM 7.53 45.554 0.112 7.13 3.39 13.56
11/15/2022 5:00:00 AM 7.49 45.482 0.112 7.14 3.49 13.62
11/15/2022 5:15:00 AM 7.47 45.446 0.112 7.11 3.34 13.59
11/15/2022 5:30:00 AM 7.45 45.41 0.112 7.12 3.39 13.59
11/15/2022 5:45:00 AM 7.43 45.374 0.112 7.11 3.22 13.56
11/15/2022 6:00:00 AM 7.39 45.302 0.112 7.14 3.35 13.65
11/15/2022 6:15:00 AM 7.4 45.32 0.112 7.14 3.29 13.62
11/15/2022 6:30:00 AM 7.38 45.284 0.112 7.12 3.27 13.59
11/15/2022 6:45:00 AM 7.34 45.212 0.112 7.15 3.4 13.65
11/15/2022 7:00:00 AM 7.31 45.158 0.112 7.14 3.47 13.67
11/15/2022 7:15:00 AM 7.3 45.14 0.112 7.14 3.58 13.68
11/15/2022 7:30:00 AM 7.27 45.086 0.112 7.16 8.72 13.75
11/15/2022 7:45:00 AM 7.29 45.122 0.112 7.15 3.23 13.75
11/15/2022 8:00:00 AM 7.28 45.104 0.112 7.17 3.28 13.8
11/15/2022 8:15:00 AM 7.3 45.14 0.111 7.18 3.38 13.84
11/15/2022 8:30:00 AM 7.34 45.212 0.112 7.2 3.16 13.88
11/15/2022 8:45:00 AM 7.39 45.302 0.112 7.19 3.2 13.87
11/15/2022 9:00:00 AM 7.43 45.374 0.111 7.2 3.28 13.89
11/15/2022 9:15:00 AM 7.48 45.464 0.112 7.21 3.3 13.88
11/15/2022 9:30:00 AM 7.53 45.554 0.112 7.21 3.35 13.87
11/15/2022 9:45:00 AM 7.58 45.644 0.111 7.2 3.15 13.84
11/15/2022 10:00:00 AM 7.67 45.806 0.111 7.22 3.14 13.87
11/15/2022 10:15:00 AM 7.77 45.986 0.112 7.24 3.06 13.84
11/15/2022 10:30:00 AM 7.84 46.112 0.111 7.24 3.03 13.81
11/15/2022 10:45:00 AM 7.93 46.274 0.112 7.22 3.1 13.75
11/15/2022 11:00:00 AM 7.96 46.328 0.111 7.24 3.2 13.77
11/15/2022 11:15:00 AM 8.05 46.49 0.111 7.23 3.28 13.72
11/15/2022 11:30:00 AM 8.1 46.58 0.111 7.24 3.09 13.7
11/15/2022 11:45:00 AM 8.18 46.724 0.111 7.23 3.07 13.66
11/15/2022 12:00:00 PM 8.2 46.76 0.111 7.24 3.13 13.62
11/15/2022 12:15:00 PM 8.22 46.796 0.111 7.24 3.24 13.59
11/15/2022 12:30:00 PM 8.25 46.85 0.111 7.23 3.04 13.55
11/15/2022 12:45:00 PM 8.25 46.85 0.111 7.25 3.22 13.56
11/15/2022 1:00:00 PM 8.27 46.886 0.111 7.22 3.15 13.5
11/15/2022 1:15:00 PM 8.29 46.922 0.111 7.23 3.66 13.51
11/15/2022 1:30:00 PM 8.32 46.976 0.111 7.21 7.92 13.48
11/15/2022 1:45:00 PM 8.32 46.976 0.111 7.22 3.81 13.45
11/15/2022 2:00:00 PM 8.31 46.958 0.111 7.21 3.27 13.42
11/15/2022 2:15:00 PM 8.32 46.976 0.111 7.22 3.26 13.44
11/15/2022 2:30:00 PM 8.35 47.03 0.111 7.22 3.21 13.43
11/15/2022 2:45:00 PM 8.37 47.066 0.112 7.22 3.17 13.45
11/15/2022 3:00:00 PM 8.38 47.084 0.111 7.22 3.01 13.37
11/15/2022 3:15:00 PM 8.4 47.12 0.111 7.15 3.19 13.33
11/15/2022 3:30:00 PM 8.39 47.102 0.111 7.21 3.25 13.35
11/15/2022 3:45:00 PM 8.38 47.084 0.111 7.2 3.25 13.3
11/15/2022 4:00:00 PM 8.34 47.012 0.112 7.21 3.12 13.33
11/15/2022 4:15:00 PM 8.29 46.922 0.112 7.19 3.72 13.28
11/15/2022 4:30:00 PM 8.21 46.778 0.112 7.18 3.19 13.27
11/15/2022 4:45:00 PM 8.11 46.598 0.112 7.2 3.37 13.32
11/15/2022 5:00:00 PM 7.97 46.346 0.111 7.19 3.27 13.32
11/15/2022 5:15:00 PM 7.96 46.328 0.112 7.16 3.28 13.3
11/15/2022 5:30:00 PM 7.9 46.22 0.111 7.15 3.07 13.43
11/15/2022 5:45:00 PM 7.78 46.004 0.111 7.17 3.42 13.39
11/15/2022 6:00:00 PM 7.63 45.734 0.111 7.19 3.17 13.45
11/15/2022 6:15:00 PM 7.53 45.554 0.111 7.18 3.49 13.47
11/15/2022 6:30:00 PM 7.52 45.536 0.111 7.18 3.27 13.5
11/15/2022 6:45:00 PM 7.41 45.338 0.111 7.16 3.19 13.49
11/15/2022 7:00:00 PM 7.34 45.212 0.111 7.16 3.15 13.49
11/15/2022 7:15:00 PM 7.19 44.942 0.111 7.18 3.23 13.57
11/15/2022 7:30:00 PM 7.11 44.798 0.11 7.17 3.41 13.59
11/15/2022 7:45:00 PM 7.1 44.78 0.11 7.16 3.4 13.59
11/15/2022 8:00:00 PM 7.19 44.942 0.11 7.15 3.19 13.58
11/15/2022 8:15:00 PM 7.24 45.032 0.11 7.16 3.36 13.52
11/15/2022 8:30:00 PM 7.25 45.05 0.11 7.19 3.27 13.6
11/15/2022 8:45:00 PM 7.3 45.14 0.11 7.19 3.44 13.59
11/15/2022 9:00:00 PM 7.36 45.248 0.11 7.18 4.55 13.55
11/15/2022 9:15:00 PM 7.4 45.32 0.11 7.15 3.27 13.5
11/15/2022 9:30:00 PM 7.41 45.338 0.11 7.17 3.36 13.53
11/15/2022 9:45:00 PM 7.43 45.374 0.11 7.14 3.43 13.48
11/15/2022 10:00:00 PM 7.42 45.356 0.11 7.18 3.41 13.53
11/15/2022 10:15:00 PM 7.42 45.356 0.11 7.16 3.4 13.51
11/15/2022 10:30:00 PM 7.44 45.392 0.11 7.14 3.39 13.46
11/15/2022 10:45:00 PM 7.43 45.374 0.111 7.17 3.37 13.52
11/15/2022 11:00:00 PM 7.45 45.41 0.11 7.16 3.55 13.5
11/15/2022 11:15:00 PM 7.44 45.392 0.11 7.16 3.41 13.51
11/15/2022 11:30:00 PM 7.47 45.446 0.11 7.16 3.46 13.48
11/15/2022 11:45:00 PM 7.46 45.428 0.11 7.14 3.53 13.48
11/16/2022 12:00:00 AM 7.47 45.446 0.111 7.14 3.48 13.45
11/16/2022 12:15:00 AM 7.45 45.41 0.112 7.16 3.54 13.5
11/16/2022 12:30:00 AM 7.47 45.446 0.112 7.14 4.89 13.46
11/16/2022 12:45:00 AM 7.43 45.374 0.113 7.13 3.97 13.48
11/16/2022 1:00:00 AM 7.46 45.428 0.114 7.13 3.64 13.44
11/16/2022 1:15:00 AM 7.48 45.464 0.115 7.14 3.49 13.45
11/16/2022 1:30:00 AM 7.52 45.536 0.115 7.13 3.63 13.44
11/16/2022 1:45:00 AM 7.54 45.572 0.115 7.14 3.43 13.39
11/16/2022 2:00:00 AM 7.54 45.572 0.114 7.14 3.64 13.42
11/16/2022 2:15:00 AM 7.57 45.626 0.115 7.15 3.67 13.39
11/16/2022 2:30:00 AM 7.56 45.608 0.116 7.14 3.54 13.4
11/16/2022 2:45:00 AM 7.57 45.626 0.116 7.15 3.78 13.43
11/16/2022 3:00:00 AM 7.58 45.644 0.116 7.15 4.19 13.41
11/16/2022 3:15:00 AM 7.59 45.662 0.116 7.15 4.36 13.41
11/16/2022 3:30:00 AM 7.6 45.68 0.116 7.15 4.15 13.4
11/16/2022 3:45:00 AM 7.6 45.68 0.116 7.17 3.82 13.43
11/16/2022 4:00:00 AM 7.62 45.716 0.116 7.16 4.75 13.4
11/16/2022 4:15:00 AM 7.62 45.716 0.117 7.17 4.02 13.43
11/16/2022 4:30:00 AM 7.63 45.734 0.119 7.15 4.18 13.41
11/16/2022 4:45:00 AM 7.64 45.752 0.119 7.16 4.86 13.38
11/16/2022 5:00:00 AM 7.65 45.77 0.119 7.17 4.96 13.43
11/16/2022 5:15:00 AM 7.67 45.806 0.118 7.14 4.63 13.41
11/16/2022 5:30:00 AM 7.67 45.806 0.117 7.17 4.68 13.44
11/16/2022 5:45:00 AM 7.69 45.842 0.115 7.11 4.78 13.38
11/16/2022 6:00:00 AM 7.69 45.842 0.114 7.17 4.42 13.41
11/16/2022 6:15:00 AM 7.73 45.914 0.113 7.16 5.25 13.4
11/16/2022 6:30:00 AM 7.74 45.932 0.114 7.15 4.54 13.38
11/16/2022 6:45:00 AM 7.73 45.914 0.112 7.16 4.76 13.4
11/16/2022 7:00:00 AM 7.76 45.968 0.112 7.16 4.6 13.38
11/16/2022 7:15:00 AM 7.75 45.95 0.112 7.16 4.68 13.38
11/16/2022 7:30:00 AM 7.76 45.968 0.112 7.17 4.74 13.41
11/16/2022 7:45:00 AM 7.79 46.022 0.111 7.16 4.89 13.4
11/16/2022 8:00:00 AM 7.81 46.058 0.111 7.16 4.48 13.4
11/16/2022 8:15:00 AM 7.84 46.112 0.111 7.17 4.3 13.45
11/16/2022 8:30:00 AM 7.88 46.184 0.11 7.18 4.26 13.45
11/16/2022 8:45:00 AM 7.91 46.238 0.111 7.19 4.1 13.49
11/16/2022 9:00:00 AM 7.95 46.31 0.11 7.21 4.39 13.5
11/16/2022 9:15:00 AM 8.02 46.436 0.11 7.2 4.15 13.48
11/16/2022 9:30:00 AM 8.02 46.436 0.11 7.23 4.52 13.5
11/16/2022 9:45:00 AM 8.08 46.544 0.109 7.21 4.28 13.46
11/16/2022 10:00:00 AM 8.11 46.598 0.109 7.22 4.02 13.46
11/16/2022 10:15:00 AM 8.17 46.706 0.109 7.22 4.46 13.44
11/16/2022 10:30:00 AM 8.23 46.814 0.109 7.22 4.01 13.45
11/16/2022 10:45:00 AM 8.26 46.868 0.109 7.22 4.54 13.44
11/16/2022 11:00:00 AM 8.29 46.922 0.108 7.23 3.8 13.43
11/16/2022 11:15:00 AM 8.35 47.03 0.108 7.23 4.14 13.43
11/16/2022 11:30:00 AM 8.37 47.066 0.109 7.24 4.5 13.42
11/16/2022 11:45:00 AM 8.48 47.264 0.108 7.23 4.07 13.39
11/16/2022 12:00:00 PM 8.55 47.39 0.108 7.23 3.98 13.37
11/16/2022 12:15:00 PM 8.61 47.498 0.108 7.23 4.05 13.34
11/16/2022 12:30:00 PM 8.65 47.57 0.108 7.23 4.04 13.33
11/16/2022 12:45:00 PM 8.66 47.588 0.108 7.23 4.28 13.3
11/16/2022 1:00:00 PM 8.68 47.624 0.107 7.22 4.22 13.26
11/16/2022 1:15:00 PM 8.72 47.696 0.107 7.22 4.15 13.24
11/16/2022 1:30:00 PM 8.72 47.696 0.106 7.21 4.01 13.23
11/16/2022 1:45:00 PM 8.71 47.678 0.106 7.23 4.35 13.25
11/16/2022 2:00:00 PM 8.73 47.714 0.106 7.21 4.21 13.16
11/16/2022 2:15:00 PM 8.74 47.732 0.107 7.2 4.09 13.19
11/16/2022 2:30:00 PM 8.74 47.732 0.106 7.21 4.98 13.22
11/16/2022 2:45:00 PM 8.71 47.678 0.106 7.22 4.53 13.19
11/16/2022 3:00:00 PM 8.69 47.642 0.106 7.21 5.11 13.17
11/16/2022 3:15:00 PM 8.69 47.642 0.105 7.21 4.62 13.17
11/16/2022 3:30:00 PM 8.68 47.624 0.105 7.2 4.56 13.18
11/16/2022 3:45:00 PM 8.68 47.624 0.105 7.19 4.43 13.16
11/16/2022 4:00:00 PM 8.66 47.588 0.105 7.2 4.53 13.18
11/16/2022 4:15:00 PM 8.64 47.552 0.105 7.21 4.39 13.18
11/16/2022 4:30:00 PM 8.65 47.57 0.105 7.18 4.34 13.13
11/16/2022 4:45:00 PM 8.63 47.534 0.105 7.19 4.1 13.12
11/16/2022 5:00:00 PM 8.6 47.48 0.106 7.18 4.57 13.14
11/16/2022 5:15:00 PM 8.57 47.426 0.106 7.18 4.68 13.15
11/16/2022 5:30:00 PM 8.52 47.336 0.106 7.17 4.53 13.11
11/16/2022 5:45:00 PM 8.45 47.21 0.106 7.2 4.58 13.18
11/16/2022 6:00:00 PM 8.41 47.138 0.106 7.19 4.76 13.16
11/16/2022 6:15:00 PM 8.37 47.066 0.106 7.17 4.68 13.16
11/16/2022 6:30:00 PM 8.31 46.958 0.106 7.17 4.29 13.2
11/16/2022 6:45:00 PM 8.24 46.832 0.106 7.18 4.47 13.22
11/16/2022 7:00:00 PM 8.19 46.742 0.106 7.17 4.49 13.23
11/16/2022 7:15:00 PM 8.14 46.652 0.106 7.16 4.15 13.23
11/16/2022 7:30:00 PM 8.07 46.526 0.106 7.11 4.47 13.28
11/16/2022 7:45:00 PM 8.03 46.454 0.106 7.18 4.59 13.31
11/16/2022 8:00:00 PM 8.01 46.418 0.106 7.15 4.69 13.28
11/16/2022 8:15:00 PM 7.97 46.346 0.106 7.16 4.42 13.3
11/16/2022 8:30:00 PM 7.93 46.274 0.106 7.17 4.39 13.34
11/16/2022 8:45:00 PM 7.87 46.166 0.106 7.18 4.22 13.36
11/16/2022 9:00:00 PM 7.85 46.13 0.106 7.18 4.7 13.37
11/16/2022 9:15:00 PM 7.79 46.022 0.106 7.18 4.86 13.39
11/16/2022 9:30:00 PM 7.76 45.968 0.106 7.17 4.15 13.4
11/16/2022 9:45:00 PM 7.74 45.932 0.106 7.13 4.07 13.38
11/16/2022 10:00:00 PM 7.7 45.86 0.106 7.18 4.27 13.43
11/16/2022 10:15:00 PM 7.66 45.788 0.106 7.19 4.22 13.43
11/16/2022 10:30:00 PM 7.63 45.734 0.106 7.19 4.01 13.44
11/16/2022 10:45:00 PM 7.61 45.698 0.106 7.17 4.12 13.44
11/16/2022 11:00:00 PM 7.59 45.662 0.106 7.2 3.98 13.47
11/16/2022 11:15:00 PM 7.58 45.644 0.106 7.18 4.3 13.45
11/16/2022 11:30:00 PM 7.57 45.626 0.106 7.2 4.02 13.48
11/16/2022 11:45:00 PM 7.57 45.626 0.106 7.19 4.91 13.48
11/17/2022 12:00:00 AM 7.57 45.626 0.106 7.17 4.09 13.44
11/17/2022 12:15:00 AM 7.54 45.572 0.106 7.18 4.19 13.47
11/17/2022 12:30:00 AM 7.58 45.644 0.106 7.19 4.04 13.48
11/17/2022 12:45:00 AM 7.59 45.662 0.106 7.17 4.04 13.43
11/17/2022 1:00:00 AM 7.57 45.626 0.106 7.18 4.15 13.45
11/17/2022 1:15:00 AM 7.58 45.644 0.106 7.17 4.05 13.44
11/17/2022 1:30:00 AM 7.58 45.644 0.106 7.16 4.23 13.44
11/17/2022 1:45:00 AM 7.55 45.59 0.106 7.16 4.1 13.46
11/17/2022 2:00:00 AM 7.57 45.626 0.106 7.17 3.76 13.45
11/17/2022 2:15:00 AM 7.57 45.626 0.106 7.15 4.21 13.46
11/17/2022 2:30:00 AM 7.56 45.608 0.106 7.18 4.08 13.46
11/17/2022 2:45:00 AM 7.58 45.644 0.106 7.16 4.43 13.42
11/17/2022 3:00:00 AM 7.52 45.536 0.106 7.19 4.17 13.5
11/17/2022 3:15:00 AM 7.54 45.572 0.106 7.18 3.78 13.46
11/17/2022 3:30:00 AM 7.51 45.518 0.106 7.19 4.1 13.49
11/17/2022 3:45:00 AM 7.51 45.518 0.106 7.17 4.07 13.46
11/17/2022 4:00:00 AM 7.5 45.5 0.106 7.17 4.07 13.48
11/17/2022 4:15:00 AM 7.47 45.446 0.106 7.15 4.08 13.47
11/17/2022 4:30:00 AM 7.48 45.464 0.106 7.17 3.91 13.47
11/17/2022 4:45:00 AM 7.44 45.392 0.106 7.16 4.18 13.49
11/17/2022 5:00:00 AM 7.46 45.428 0.106 7.16 3.97 13.44
11/17/2022 5:15:00 AM 7.45 45.41 0.106 7.17 4.13 13.47
11/17/2022 5:30:00 AM 7.43 45.374 0.106 7.18 4.04 13.49
11/17/2022 5:45:00 AM 7.42 45.356 0.106 7.19 3.82 13.5
11/17/2022 6:00:00 AM 7.42 45.356 0.106 7.18 3.74 13.52
11/17/2022 6:15:00 AM 7.43 45.374 0.106 7.18 3.75 13.5
11/17/2022 6:30:00 AM 7.42 45.356 0.106 7.16 4.02 13.48
11/17/2022 6:45:00 AM 7.39 45.302 0.106 7.17 3.98 13.49
11/17/2022 7:00:00 AM 7.41 45.338 0.106 7.15 3.94 13.48
11/17/2022 7:15:00 AM 7.36 45.248 0.106 7.17 3.79 13.53
11/17/2022 7:30:00 AM 7.34 45.212 0.106 7.17 3.89 13.54
11/17/2022 7:45:00 AM 7.33 45.194 0.106 7.18 3.77 13.55
11/17/2022 8:00:00 AM 7.29 45.122 0.106 7.18 3.74 13.59
11/17/2022 8:15:00 AM 7.27 45.086 0.106 7.19 3.62 13.63
11/17/2022 8:30:00 AM 7.26 45.068 0.106 7.19 3.65 13.64
11/17/2022 8:45:00 AM 7.26 45.068 0.106 7.19 4.94 13.66
11/17/2022 9:00:00 AM 7.24 45.032 0.106 7.21 6.03 13.7
11/17/2022 9:15:00 AM 7.26 45.068 0.106 7.19 4.55 13.68
11/17/2022 9:30:00 AM 7.25 45.05 0.106 7.23 4.11 13.76
11/17/2022 9:45:00 AM 7.29 45.122 0.106 7.21 3.52 13.76
11/17/2022 10:00:00 AM 7.35 45.23 0.106 7.2 3.74 13.75
11/17/2022 10:15:00 AM 7.31 45.158 0.106 7.23 4.04 13.78
11/17/2022 10:30:00 AM 7.3 45.14 0.106 7.22 3.49 13.77
11/17/2022 10:45:00 AM 7.37 45.266 0.106 7.22 3.43 13.73
11/17/2022 11:00:00 AM 7.4 45.32 0.106 7.22 8.63 13.72
11/17/2022 11:15:00 AM 7.54 45.572 0.106 7.25 3.7 13.76
11/17/2022 11:30:00 AM 7.6 45.68 0.106 7.19 3.64 13.72
11/17/2022 11:45:00 AM 7.65 45.77 0.106 7.24 3.52 13.71
11/17/2022 12:00:00 PM 7.65 45.77 0.106 7.23 3.5 13.69
11/17/2022 12:15:00 PM 7.71 45.878 0.106 7.24 3.4 13.67
11/17/2022 12:30:00 PM 7.76 45.968 0.106 7.24 3.6 13.67
11/17/2022 12:45:00 PM 7.77 45.986 0.106 7.23 3.48 13.63
11/17/2022 1:00:00 PM 7.86 46.148 0.106 7.23 3.52 13.63
11/17/2022 1:15:00 PM 7.79 46.022 0.106 7.19 3.42 13.54
11/17/2022 1:30:00 PM 7.77 45.986 0.106 7.24 3.38 13.62
11/17/2022 1:45:00 PM 7.85 46.13 0.106 7.25 3.78 13.63
11/17/2022 2:00:00 PM 7.78 46.004 0.106 7.23 3.45 13.56
11/17/2022 2:15:00 PM 7.75 45.95 0.106 7.21 3.42 13.52
11/17/2022 2:30:00 PM 7.69 45.842 0.106 7.23 3.43 13.58
11/17/2022 2:45:00 PM 7.68 45.824 0.107 7.2 3.55 13.53
11/17/2022 3:00:00 PM 7.62 45.716 0.106 7.22 3.55 13.56
11/17/2022 3:15:00 PM 7.61 45.698 0.106 7.2 3.54 13.55
11/17/2022 3:30:00 PM 7.58 45.644 0.106 7.2 3.53 13.59
11/17/2022 3:45:00 PM 7.58 45.644 0.106 7.2 3.48 13.57
11/17/2022 4:00:00 PM 7.56 45.608 0.106 7.2 3.48 13.56
11/17/2022 4:15:00 PM 7.54 45.572 0.106 7.19 3.62 13.52
11/17/2022 4:30:00 PM 7.52 45.536 0.106 7.19 3.51 13.53
11/17/2022 4:45:00 PM 7.49 45.482 0.106 7.19 3.55 13.55
11/17/2022 5:00:00 PM 7.48 45.464 0.106 7.17 3.76 13.49
11/17/2022 5:15:00 PM 7.44 45.392 0.106 7.18 3.93 13.54
11/17/2022 5:30:00 PM 7.41 45.338 0.106 7.18 5.13 13.55
11/17/2022 5:45:00 PM 7.37 45.266 0.106 7.19 5.45 13.57
11/17/2022 6:00:00 PM 7.35 45.23 0.107 7.17 4.01 13.55
11/17/2022 6:15:00 PM 7.34 45.212 0.107 7.17 4 13.56
11/17/2022 6:30:00 PM 7.28 45.104 0.107 7.16 4.52 13.59
11/17/2022 6:45:00 PM 7.25 45.05 0.106 7.17 3.62 13.58
11/17/2022 7:00:00 PM 7.21 44.978 0.106 7.17 3.92 13.64
11/17/2022 7:15:00 PM 7.2 44.96 0.106 7.16 3.84 13.56
11/17/2022 7:30:00 PM 7.15 44.87 0.106 7.18 3.82 13.65
11/17/2022 7:45:00 PM 7.14 44.852 0.106 7.17 6.79 13.65
11/17/2022 8:00:00 PM 7.07 44.726 0.106 7.18 4.54 13.68
11/17/2022 8:15:00 PM 7.05 44.69 0.107 7.17 3.83 13.66
11/17/2022 8:30:00 PM 7 44.6 0.106 7.16 3.78 13.67
11/17/2022 8:45:00 PM 6.95 44.51 0.106 7.17 3.84 13.7
11/17/2022 9:00:00 PM 6.93 44.474 0.106 7.17 3.81 13.74
11/17/2022 9:15:00 PM 6.9 44.42 0.106 7.17 3.72 13.73
11/17/2022 9:30:00 PM 6.86 44.348 0.106 7.17 3.52 13.75
11/17/2022 9:45:00 PM 6.81 44.258 0.106 7.17 3.37 13.77
11/17/2022 10:00:00 PM 6.8 44.24 0.106 7.17 3.53 13.76
11/17/2022 10:15:00 PM 6.78 44.204 0.106 7.16 3.36 13.73
11/17/2022 10:30:00 PM 6.77 44.186 0.106 7.16 3.5 13.76
11/17/2022 10:45:00 PM 6.72 44.096 0.107 7.17 3.5 13.8
11/17/2022 11:00:00 PM 6.7 44.06 0.107 7.17 3.44 13.82
11/17/2022 11:15:00 PM 6.68 44.024 0.106 7.15 3.74 13.76
11/17/2022 11:30:00 PM 6.65 43.97 0.107 7.16 3.91 13.84
11/17/2022 11:45:00 PM 6.61 43.898 0.106 7.17 3.65 13.86
11/18/2022 12:00:00 AM 6.61 43.898 0.106 7.15 4.08 13.83
11/18/2022 12:15:00 AM 6.58 43.844 0.106 7.17 3.68 13.86
11/18/2022 12:30:00 AM 6.57 43.826 0.106 7.13 3.77 13.83
11/18/2022 12:45:00 AM 6.54 43.772 0.107 7.15 3.42 13.83
11/18/2022 1:00:00 AM 6.52 43.736 0.106 7.13 3.35 13.83
11/18/2022 1:15:00 AM 6.5 43.7 0.107 7.16 3.61 13.85
11/18/2022 1:30:00 AM 6.48 43.664 0.106 7.15 3.35 13.85
11/18/2022 1:45:00 AM 6.48 43.664 0.106 7.14 3.35 13.86
11/18/2022 2:00:00 AM 6.45 43.61 0.106 7.16 3.28 13.86
11/18/2022 2:15:00 AM 6.46 43.628 0.106 7.15 3.44 13.86
11/18/2022 2:30:00 AM 6.46 43.628 0.106 7.15 3.95 13.86
11/18/2022 2:45:00 AM 6.45 43.61 0.106 7.17 3.6 13.89
11/18/2022 3:00:00 AM 6.45 43.61 0.107 7.16 3.54 13.84
11/18/2022 3:15:00 AM 6.43 43.574 0.106 7.17 3.36 13.89
11/18/2022 3:30:00 AM 6.42 43.556 0.106 7.16 3.71 13.87
11/18/2022 3:45:00 AM 6.38 43.484 0.106 7.16 3.24 13.89
11/18/2022 4:00:00 AM 6.39 43.502 0.107 7.15 3.46 13.89
11/18/2022 4:15:00 AM 6.34 43.412 0.106 7.16 4.21 13.91
11/18/2022 4:30:00 AM 6.32 43.376 0.106 7.15 3.54 13.89
11/18/2022 4:45:00 AM 6.3 43.34 0.106 7.15 4.14 13.9
11/18/2022 5:00:00 AM 6.29 43.322 0.106 7.13 4.21 13.91
11/18/2022 5:15:00 AM 6.26 43.268 0.106 7.15 3.91 13.95
11/18/2022 5:30:00 AM 6.26 43.268 0.106 7.14 4.53 13.92
11/18/2022 5:45:00 AM 6.24 43.232 0.106 7.15 3.53 13.95
11/18/2022 6:00:00 AM 6.23 43.214 0.106 7.15 3.52 13.96
11/18/2022 6:15:00 AM 6.22 43.196 0.106 7.15 3.42 13.95
11/18/2022 6:30:00 AM 6.19 43.142 0.106 7.15 3.42 13.95
11/18/2022 6:45:00 AM 6.19 43.142 0.106 7.15 3.39 13.96
11/18/2022 7:00:00 AM 6.16 43.088 0.107 7.15 3.36 13.97
11/18/2022 7:15:00 AM 6.15 43.07 0.107 7.13 4.16 13.97
11/18/2022 7:30:00 AM 6.12 43.016 0.106 7.16 3.91 14.04
11/18/2022 7:45:00 AM 6.11 42.998 0.106 7.17 14.36 14.06
11/18/2022 8:00:00 AM 6.11 42.998 0.106 7.16 3.71 14.08
11/18/2022 8:15:00 AM 6.1 42.98 0.106 7.16 3.28 14.09
11/18/2022 8:30:00 AM 6.11 42.998 0.107 7.16 3.18 14.08
11/18/2022 8:45:00 AM 6.12 43.016 0.106 7.18 3.21 14.15
11/18/2022 9:00:00 AM 6.11 42.998 0.106 7.19 3.28 14.2
11/18/2022 9:15:00 AM 6.22 43.196 0.106 7.18 3.35 14.16
11/18/2022 9:30:00 AM 6.21 43.178 0.106 7.2 3.23 14.22
11/18/2022 9:45:00 AM 6.29 43.322 0.106 7.2 3.31 14.21
11/18/2022 10:00:00 AM 6.35 43.43 0.106 7.21 3.34 14.22
11/18/2022 10:15:00 AM 6.35 43.43 0.106 7.2 3.29 14.16
11/18/2022 10:30:00 AM 6.46 43.628 0.106 7.2 3.29 14.18
11/18/2022 10:45:00 AM 6.53 43.754 0.106 7.2 3.36 14.14
11/18/2022 11:00:00 AM 6.5 43.7 0.106 7.21 3.57 14.15
11/18/2022 11:15:00 AM 6.56 43.808 0.106 7.22 3.41 14.16
11/18/2022 11:30:00 AM 6.6 43.88 0.106 7.17 3.25 14.07
11/18/2022 11:45:00 AM 6.59 43.862 0.106 7.21 3.3 14.1
11/18/2022 12:00:00 PM 6.61 43.898 0.106 7.19 3.17 14.08
11/18/2022 12:15:00 PM 6.68 44.024 0.106 7.19 3.3 14
11/18/2022 12:30:00 PM 6.63 43.934 0.106 7.2 3.16 14.05
11/18/2022 12:45:00 PM 6.71 44.078 0.106 7.22 3.37 14.05
11/18/2022 1:00:00 PM 6.76 44.168 0.106 7.18 3.27 13.94
11/18/2022 1:15:00 PM 6.81 44.258 0.106 7.19 3.27 14.02
11/18/2022 1:30:00 PM 6.86 44.348 0.106 7.2 3.23 13.98
11/18/2022 1:45:00 PM 6.83 44.294 0.106 7.21 3.39 13.99
11/18/2022 2:00:00 PM 6.87 44.366 0.106 7.19 3.46 13.91
11/18/2022 2:15:00 PM 6.87 44.366 0.106 7.21 3.13 13.94
11/18/2022 2:30:00 PM 6.88 44.384 0.106 7.19 3.29 13.89
11/18/2022 2:45:00 PM 6.89 44.402 0.106 7.19 3.23 13.89
11/18/2022 3:00:00 PM 6.89 44.402 0.106 7.19 3.25 13.86
11/18/2022 3:15:00 PM 6.89 44.402 0.106 7.2 3.28 13.87
11/18/2022 3:30:00 PM 6.91 44.438 0.106 7.19 3.4 13.84
11/18/2022 3:45:00 PM 6.86 44.348 0.106 7.18 6.03 13.86
11/18/2022 4:00:00 PM 6.85 44.33 0.106 7.17 4.48 13.79
11/18/2022 4:15:00 PM 6.79 44.222 0.106 7.15 3.36 13.81
11/18/2022 4:30:00 PM 6.77 44.186 0.106 7.17 3.34 13.78
11/18/2022 4:45:00 PM 6.72 44.096 0.106 7.14 3.31 13.79
11/18/2022 5:00:00 PM 6.72 44.096 0.106 7.14 3.31 13.69
11/18/2022 5:15:00 PM 6.68 44.024 0.106 7.11 3.22 13.76
11/18/2022 5:30:00 PM 6.69 44.042 0.106 7.14 3.45 13.71
11/18/2022 5:45:00 PM 6.64 43.952 0.106 7.14 3.86 13.77
11/18/2022 6:00:00 PM 6.56 43.808 0.106 7.13 3.46 13.74
11/18/2022 6:15:00 PM 6.52 43.736 0.106 7.14 3.46 13.8
11/18/2022 6:30:00 PM 6.52 43.736 0.106 7.15 3.24 13.82
11/18/2022 6:45:00 PM 6.39 43.502 0.106 7.14 3.26 13.83
11/18/2022 7:00:00 PM 6.42 43.556 0.107 7.14 3.1 13.86
11/18/2022 7:15:00 PM 6.37 43.466 0.107 7.13 3.33 13.86
11/18/2022 7:30:00 PM 6.3 43.34 0.106 7.15 3.28 13.91
11/18/2022 7:45:00 PM 6.29 43.322 0.106 7.15 3.31 13.91
11/18/2022 8:00:00 PM 6.26 43.268 0.107 7.14 3.1 13.91
11/18/2022 8:15:00 PM 6.22 43.196 0.106 7.14 3.25 13.93
11/18/2022 8:30:00 PM 6.19 43.142 0.106 7.12 3.13 13.9
11/18/2022 8:45:00 PM 6.14 43.052 0.107 7.14 3.14 13.96
11/18/2022 9:00:00 PM 6.12 43.016 0.107 7.12 3.19 13.97
11/18/2022 9:15:00 PM 6.07 42.926 0.106 7.13 3.16 13.98
11/18/2022 9:30:00 PM 6.04 42.872 0.107 7.11 3.14 13.98
11/18/2022 9:45:00 PM 6 42.8 0.107 7.13 3.12 14.02
11/18/2022 10:00:00 PM 5.95 42.71 0.107 7.13 3.14 14.06
11/18/2022 10:15:00 PM 5.9 42.62 0.107 7.13 3.09 14.08
11/18/2022 10:30:00 PM 5.87 42.566 0.107 7.13 3.18 14.07
11/18/2022 10:45:00 PM 5.85 42.53 0.107 7.11 3.26 14.03
11/18/2022 11:00:00 PM 5.8 42.44 0.107 7.11 3.15 14.08
11/18/2022 11:15:00 PM 5.77 42.386 0.107 7.13 3.2 14.11
11/18/2022 11:30:00 PM 5.7 42.26 0.107 7.14 3.38 14.15
11/18/2022 11:45:00 PM 5.71 42.278 0.107 7.12 3.06 14.14
11/19/2022 12:00:00 AM 5.66 42.188 0.107 7.11 3.13 14.13
11/19/2022 12:15:00 AM 5.6 42.08 0.107 7.13 3.05 14.19
11/19/2022 12:30:00 AM 5.58 42.044 0.107 7.13 3.21 14.2
11/19/2022 12:45:00 AM 5.57 42.026 0.107 7.11 3.12 14.19
11/19/2022 1:00:00 AM 5.54 41.972 0.107 7.13 3.06 14.22
11/19/2022 1:15:00 AM 5.52 41.936 0.107 7.12 3.26 14.2
11/19/2022 1:30:00 AM 5.48 41.864 0.107 7.14 3.14 14.25
11/19/2022 1:45:00 AM 5.44 41.792 0.107 7.14 3.16 14.27
11/19/2022 2:00:00 AM 5.43 41.774 0.107 7.13 3.12 14.25
11/19/2022 2:15:00 AM 5.4 41.72 0.107 7.14 3.05 14.25
11/19/2022 2:30:00 AM 5.38 41.684 0.107 7.13 3.19 14.27
11/19/2022 2:45:00 AM 5.34 41.612 0.107 7.13 3.16 14.29
11/19/2022 3:00:00 AM 5.31 41.558 0.107 7.14 3.06 14.31
11/19/2022 3:15:00 AM 5.31 41.558 0.107 7.13 3.16 14.3
11/19/2022 3:30:00 AM 5.27 41.486 0.107 7.13 3.01 14.31
11/19/2022 3:45:00 AM 5.29 41.522 0.107 7.11 3.05 14.29
11/19/2022 4:00:00 AM 5.21 41.378 0.107 7.13 3.14 14.34
11/19/2022 4:15:00 AM 5.21 41.378 0.107 7.12 3.18 14.33
11/19/2022 4:30:00 AM 5.14 41.252 0.107 7.14 3.13 14.37
11/19/2022 4:45:00 AM 5.12 41.216 0.107 7.13 3.03 14.36
11/19/2022 5:00:00 AM 5.11 41.198 0.107 7.12 3.04 14.36
11/19/2022 5:15:00 AM 5.07 41.126 0.107 7.13 3.04 14.4
11/19/2022 5:30:00 AM 5.02 41.036 0.108 7.12 3.02 14.39
11/19/2022 5:45:00 AM 5.01 41.018 0.107 7.11 3.02 14.38
11/19/2022 6:00:00 AM 4.96 40.928 0.107 7.12 3.1 14.42
11/19/2022 6:15:00 AM 4.92 40.856 0.107 7.12 3.14 14.42
11/19/2022 6:30:00 AM 4.92 40.856 0.107 7.11 3.06 14.39
11/19/2022 6:45:00 AM 4.88 40.784 0.108 7.11 3.12 14.43
11/19/2022 7:00:00 AM 4.82 40.676 0.108 7.13 3.03 14.51
11/19/2022 7:15:00 AM 4.79 40.622 0.108 7.12 3.02 14.52
11/19/2022 7:30:00 AM 4.74 40.532 0.107 7.14 2.98 14.57
11/19/2022 7:45:00 AM 4.76 40.568 0.107 7.13 2.98 14.57
11/19/2022 8:00:00 AM 4.77 40.586 0.108 7.12 3.08 14.57
11/19/2022 8:15:00 AM 4.75 40.55 0.107 7.15 3.05 14.63
11/19/2022 8:30:00 AM 4.77 40.586 0.108 7.17 4.74 14.66
11/19/2022 8:45:00 AM 4.83 40.694 0.108 7.15 2.98 14.59
11/19/2022 9:00:00 AM 4.78 40.604 0.108 7.17 2.92 14.69
11/19/2022 9:15:00 AM 4.83 40.694 0.107 7.19 3.22 14.69
11/19/2022 9:30:00 AM 4.93 40.874 0.107 7.19 2.94 14.74
11/19/2022 9:45:00 AM 5.01 41.018 0.107 7.2 3.18 14.71
11/19/2022 10:00:00 AM 5.08 41.144 0.108 7.17 3.04 14.64
11/19/2022 10:15:00 AM 5.05 41.09 0.107 7.19 3 14.71
11/19/2022 10:30:00 AM 5.13 41.234 0.107 7.19 3.01 14.64
11/19/2022 10:45:00 AM 5.08 41.144 0.107 7.22 2.93 14.72
11/19/2022 11:00:00 AM 5.24 41.432 0.107 7.2 3.03 14.63
11/19/2022 11:15:00 AM 5.23 41.414 0.107 7.18 3.02 14.57
11/19/2022 11:30:00 AM 5.31 41.558 0.107 7.22 2.95 14.67
11/19/2022 11:45:00 AM 5.36 41.648 0.107 7.22 2.93 14.61
11/19/2022 12:00:00 PM 5.39 41.702 0.107 7.21 2.93 14.58
11/19/2022 12:15:00 PM 5.42 41.756 0.107 7.21 3.02 14.54
11/19/2022 12:30:00 PM 5.59 42.062 0.107 7.19 2.95 14.47
11/19/2022 12:45:00 PM 5.59 42.062 0.107 7.22 2.83 14.48
11/19/2022 1:00:00 PM 5.61 42.098 0.107 7.21 2.84 14.45
11/19/2022 1:15:00 PM 5.61 42.098 0.107 7.22 2.93 14.44
11/19/2022 1:30:00 PM 5.62 42.116 0.107 7.22 2.92 14.43
11/19/2022 1:45:00 PM 5.65 42.17 0.107 7.22 2.94 14.38
11/19/2022 2:00:00 PM 5.65 42.17 0.107 7.2 2.93 14.36
11/19/2022 2:15:00 PM 5.63 42.134 0.107 7.2 2.97 14.31
11/19/2022 2:30:00 PM 5.64 42.152 0.107 7.19 2.9 14.3
11/19/2022 2:45:00 PM 5.65 42.17 0.107 7.2 2.87 14.31
11/19/2022 3:00:00 PM 5.67 42.206 0.107 7.2 3.1 14.27
11/19/2022 3:15:00 PM 5.67 42.206 0.107 7.2 2.94 14.25
11/19/2022 3:30:00 PM 5.68 42.224 0.107 7.16 3.01 14.18
11/19/2022 3:45:00 PM 5.65 42.17 0.107 7.19 3.04 14.22
11/19/2022 4:00:00 PM 5.64 42.152 0.107 7.18 3.02 14.25
11/19/2022 4:15:00 PM 5.54 41.972 0.107 7.21 2.95 14.29
11/19/2022 4:30:00 PM 5.53 41.954 0.108 7.19 2.93 14.22
11/19/2022 4:45:00 PM 5.47 41.846 0.108 7.18 3.13 14.24
11/19/2022 5:00:00 PM 5.44 41.792 0.108 7.18 3 14.24
11/19/2022 5:15:00 PM 5.42 41.756 0.108 7.17 3.01 14.22
11/19/2022 5:30:00 PM 5.41 41.738 0.108 7.15 3.09 14.17
11/19/2022 5:45:00 PM 5.33 41.594 0.108 7.17 2.97 14.24
11/19/2022 6:00:00 PM 5.33 41.594 0.108 7.16 2.9 14.21
11/19/2022 6:15:00 PM 5.25 41.45 0.108 7.17 2.95 14.26
11/19/2022 6:30:00 PM 5.24 41.432 0.108 7.18 3.16 14.29
11/19/2022 6:45:00 PM 5.23 41.414 0.108 7.15 2.99 14.25
11/19/2022 7:00:00 PM 5.17 41.306 0.108 7.17 3.06 14.29
11/19/2022 7:15:00 PM 5.2 41.36 0.109 7.15 2.97 14.25
11/19/2022 7:30:00 PM 5.12 41.216 0.108 7.16 3.1 14.31
11/19/2022 7:45:00 PM 5.06 41.108 0.108 7.16 2.99 14.28
11/19/2022 8:00:00 PM 5.03 41.054 0.108 7.18 3 14.34
11/19/2022 8:15:00 PM 5.08 41.144 0.108 7.14 3.08 14.22
11/19/2022 8:30:00 PM 4.99 40.982 0.109 7.16 3.01 14.33
11/19/2022 8:45:00 PM 4.99 40.982 0.108 7.16 3.19 14.34
11/19/2022 9:00:00 PM 4.93 40.874 0.108 7.16 3.11 14.36
11/19/2022 9:15:00 PM 4.89 40.802 0.108 7.18 2.96 14.39
11/19/2022 9:30:00 PM 4.89 40.802 0.108 7.17 3.02 14.37
11/19/2022 9:45:00 PM 4.84 40.712 0.109 7.18 3.07 14.4
11/19/2022 10:00:00 PM 4.82 40.676 0.108 7.17 2.96 14.42
11/19/2022 10:15:00 PM 4.83 40.694 0.108 7.16 2.93 14.4
11/19/2022 10:30:00 PM 4.82 40.676 0.108 7.18 2.91 14.45
11/19/2022 10:45:00 PM 4.82 40.676 0.108 7.17 2.93 14.41
11/19/2022 11:00:00 PM 4.81 40.658 0.108 7.18 3.01 14.45
11/19/2022 11:15:00 PM 4.84 40.712 0.108 7.17 2.84 14.4
11/19/2022 11:30:00 PM 4.81 40.658 0.108 7.17 2.88 14.42
11/19/2022 11:45:00 PM 4.85 40.73 0.108 7.17 2.85 14.41
11/20/2022 12:00:00 AM 4.86 40.748 0.108 7.18 2.97 14.45
11/20/2022 12:15:00 AM 4.84 40.712 0.108 7.17 2.87 14.41
11/20/2022 12:30:00 AM 4.86 40.748 0.108 7.17 4.02 14.4
11/20/2022 12:45:00 AM 4.85 40.73 0.108 7.16 3.1 14.38
11/20/2022 1:00:00 AM 4.81 40.658 0.108 7.17 2.99 14.39
11/20/2022 1:15:00 AM 4.77 40.586 0.108 7.19 3.1 14.45
11/20/2022 1:30:00 AM 4.81 40.658 0.109 7.18 2.94 14.42
11/20/2022 1:45:00 AM 4.77 40.586 0.108 7.19 2.98 14.43
11/20/2022 2:00:00 AM 4.84 40.712 0.109 7.17 3.02 14.37
11/20/2022 2:15:00 AM 4.77 40.586 0.108 7.16 2.96 14.39
11/20/2022 2:30:00 AM 4.76 40.568 0.108 7.18 2.96 14.43
11/20/2022 2:45:00 AM 4.76 40.568 0.108 7.18 2.88 14.44
11/20/2022 3:00:00 AM 4.72 40.496 0.108 7.19 2.95 14.47
11/20/2022 3:15:00 AM 4.7 40.46 0.108 7.18 3.21 14.43
11/20/2022 3:30:00 AM 4.65 40.37 0.108 7.2 2.95 14.51
11/20/2022 3:45:00 AM 4.65 40.37 0.108 7.2 3.03 14.51
11/20/2022 4:00:00 AM 4.63 40.334 0.108 7.19 3.53 14.45
11/20/2022 4:15:00 AM 4.62 40.316 0.108 7.19 3.14 14.52
11/20/2022 4:30:00 AM 4.58 40.244 0.108 7.19 3.17 14.52
11/20/2022 4:45:00 AM 4.66 40.388 0.108 7.16 3.03 14.43
11/20/2022 5:00:00 AM 4.57 40.226 0.108 7.18 2.93 14.53
11/20/2022 5:15:00 AM 4.57 40.226 0.108 7.18 2.86 14.51
11/20/2022 5:30:00 AM 4.59 40.262 0.108 7.17 2.96 14.49
11/20/2022 5:45:00 AM 4.61 40.298 0.109 7.15 2.96 14.44
11/20/2022 6:00:00 AM 4.54 40.172 0.108 7.17 3.05 14.51
11/20/2022 6:15:00 AM 4.46 40.028 0.108 7.18 2.87 14.54
11/20/2022 6:30:00 AM 4.43 39.974 0.109 7.17 2.83 14.57
11/20/2022 6:45:00 AM 4.47 40.046 0.108 7.14 2.98 14.49
11/20/2022 7:00:00 AM 4.4 39.92 0.108 7.17 2.9 14.58
11/20/2022 7:15:00 AM 4.4 39.92 0.108 7.16 3.02 14.56
11/20/2022 7:30:00 AM 4.37 39.866 0.109 7.17 2.87 14.64
11/20/2022 7:45:00 AM 4.38 39.884 0.108 7.14 2.79 14.58
11/20/2022 8:00:00 AM 4.36 39.848 0.108 7.16 2.89 14.68
11/20/2022 8:15:00 AM 4.32 39.776 0.109 7.17 2.96 14.72
11/20/2022 8:30:00 AM 4.38 39.884 0.109 7.14 2.91 14.71
11/20/2022 8:45:00 AM 4.31 39.758 0.108 7.18 2.84 14.8
11/20/2022 9:00:00 AM 4.42 39.956 0.108 7.16 2.87 14.76
11/20/2022 9:15:00 AM 4.37 39.866 0.108 7.18 3.12 14.86
11/20/2022 9:30:00 AM 4.51 40.118 0.108 7.2 4.47 14.86
11/20/2022 9:45:00 AM 4.49 40.082 0.108 7.18 3.01 14.84
11/20/2022 10:00:00 AM 4.56 40.208 0.108 7.22 8.29 14.92
11/20/2022 10:15:00 AM 4.59 40.262 0.108 7.22 3.41 14.95
11/20/2022 10:30:00 AM 4.69 40.442 0.107 7.22 2.93 14.88
11/20/2022 10:45:00 AM 4.7 40.46 0.107 7.22 2.75 14.89
11/20/2022 11:00:00 AM 4.77 40.586 0.108 7.22 2.75 14.86
11/20/2022 11:15:00 AM 4.81 40.658 0.108 7.23 2.85 14.86
11/20/2022 11:30:00 AM 4.76 40.568 0.108 7.22 2.86 14.85
11/20/2022 11:45:00 AM 4.78 40.604 0.107 7.24 2.83 14.85
11/20/2022 12:00:00 PM 4.78 40.604 0.107 7.24 2.8 14.84
11/20/2022 12:15:00 PM 4.89 40.802 0.107 7.23 2.83 14.77
11/20/2022 12:30:00 PM 4.82 40.676 0.107 7.25 2.85 14.82
11/20/2022 12:45:00 PM 4.97 40.946 0.107 7.24 3.28 14.79
11/20/2022 1:00:00 PM 4.94 40.892 0.107 7.22 2.86 14.76
11/20/2022 1:15:00 PM 4.92 40.856 0.107 7.22 2.9 14.74
11/20/2022 1:30:00 PM 4.99 40.982 0.107 7.24 2.83 14.79
11/20/2022 1:45:00 PM 4.92 40.856 0.107 7.26 2.84 14.76
11/20/2022 2:00:00 PM 4.93 40.874 0.107 7.26 2.89 14.79
11/20/2022 2:15:00 PM 4.97 40.946 0.107 7.24 2.82 14.68
11/20/2022 2:30:00 PM 4.96 40.928 0.107 7.22 2.93 14.72
11/20/2022 2:45:00 PM 4.92 40.856 0.107 7.24 2.85 14.75
11/20/2022 3:00:00 PM 4.98 40.964 0.107 7.21 2.84 14.63
11/20/2022 3:15:00 PM 4.91 40.838 0.107 7.24 2.82 14.72
11/20/2022 3:30:00 PM 4.88 40.784 0.107 7.24 2.76 14.74
11/20/2022 3:45:00 PM 4.86 40.748 0.107 7.21 3 14.68
11/20/2022 4:00:00 PM 4.8 40.64 0.107 7.21 2.81 14.67
11/20/2022 4:15:00 PM 4.75 40.55 0.107 7.2 2.84 14.61
11/20/2022 4:30:00 PM 4.69 40.442 0.107 7.19 3.12 14.64
11/20/2022 4:45:00 PM 4.76 40.568 0.109 7.14 2.98 14.47
11/20/2022 5:00:00 PM 4.63 40.334 0.107 7.15 2.94 14.59
11/20/2022 5:15:00 PM 4.55 40.19 0.107 7.15 2.85 14.57
11/20/2022 5:30:00 PM 4.51 40.118 0.108 7.15 2.88 14.59
11/20/2022 5:45:00 PM 4.54 40.172 0.108 7.11 2.9 14.52
11/20/2022 6:00:00 PM 4.44 39.992 0.108 7.11 2.9 14.59
11/20/2022 6:15:00 PM 4.4 39.92 0.108 7.13 2.9 14.63
11/20/2022 6:30:00 PM 4.35 39.83 0.108 7.13 3.04 14.64
11/20/2022 6:45:00 PM 4.37 39.866 0.108 7.13 3.02 14.62
11/20/2022 7:00:00 PM 4.37 39.866 0.108 7.11 2.88 14.6
11/20/2022 7:15:00 PM 4.33 39.794 0.108 7.14 2.83 14.67
11/20/2022 7:30:00 PM 4.36 39.848 0.108 7.15 2.97 14.69
11/20/2022 7:45:00 PM 4.32 39.776 0.109 7.12 2.9 14.65
11/20/2022 8:00:00 PM 4.33 39.794 0.108 7.11 2.89 14.64
11/20/2022 8:15:00 PM 4.33 39.794 0.108 7.11 2.9 14.65
11/20/2022 8:30:00 PM 4.35 39.83 0.109 7.11 3 14.61
11/20/2022 8:45:00 PM 4.32 39.776 0.109 7.13 2.89 14.67
11/20/2022 9:00:00 PM 4.32 39.776 0.109 7.11 2.92 14.58
11/20/2022 9:15:00 PM 4.35 39.83 0.109 7.12 2.95 14.66
11/20/2022 9:30:00 PM 4.3 39.74 0.109 7.11 2.92 14.59
11/20/2022 9:45:00 PM 4.36 39.848 0.109 7.08 2.91 14.6
11/20/2022 10:00:00 PM 4.28 39.704 0.109 7.13 3.01 14.69
11/20/2022 10:15:00 PM 4.26 39.668 0.109 7.11 2.99 14.7
11/20/2022 10:30:00 PM 4.32 39.776 0.109 7.11 2.9 14.75
11/20/2022 10:45:00 PM 4.24 39.632 0.109 7.14 2.93 14.7
11/20/2022 11:00:00 PM 4.26 39.668 0.109 7.11 2.84 14.72
11/20/2022 11:15:00 PM 4.28 39.704 0.109 7.11 2.86 14.64
11/20/2022 11:30:00 PM 4.26 39.668 0.109 7.12 2.87 14.71
11/20/2022 11:45:00 PM 4.28 39.704 0.109 7.09 2.91 14.55
11/21/2022 12:00:00 AM 4.26 39.668 0.109 7.11 2.95 14.68
11/21/2022 12:15:00 AM 4.29 39.722 0.109 7.11 2.99 14.67
11/21/2022 12:30:00 AM 4.24 39.632 0.109 7.13 2.86 14.75
11/21/2022 12:45:00 AM 4.25 39.65 0.109 7.12 2.93 14.73
11/21/2022 1:00:00 AM 4.26 39.668 0.11 7.09 2.92 14.64
11/21/2022 1:15:00 AM 4.24 39.632 0.109 7.11 2.91 14.66
11/21/2022 1:30:00 AM 4.19 39.542 0.109 7.13 2.84 14.76
11/21/2022 1:45:00 AM 4.17 39.506 0.109 7.1 3.49 14.73
11/21/2022 2:00:00 AM 4.12 39.416 0.109 7.11 3 14.77
11/21/2022 2:15:00 AM 4.09 39.362 0.109 7.11 2.96 14.75
11/21/2022 2:30:00 AM 4.05 39.29 0.109 7.11 3.06 14.81
11/21/2022 2:45:00 AM 4.06 39.308 0.109 7.11 2.92 14.74
11/21/2022 3:00:00 AM 3.99 39.182 0.109 7.11 3.21 14.75
11/21/2022 3:15:00 AM 4.04 39.272 0.11 7.1 2.81 14.79
11/21/2022 3:30:00 AM 3.96 39.128 0.109 7.07 2.96 14.74
11/21/2022 3:45:00 AM 3.91 39.038 0.109 7.1 3.01 14.78
11/21/2022 4:00:00 AM 3.85 38.93 0.109 7.1 3.02 14.83
11/21/2022 4:15:00 AM 3.81 38.858 0.109 7.08 2.85 14.85
11/21/2022 4:30:00 AM 3.81 38.858 0.109 7.06 3.09 14.76
11/21/2022 4:45:00 AM 3.77 38.786 0.109 7.07 2.86 14.82
11/21/2022 5:00:00 AM 3.8 38.84 0.109 7.05 2.86 14.78
11/21/2022 5:15:00 AM 3.74 38.732 0.109 7.06 2.85 14.87
11/21/2022 5:30:00 AM 3.65 38.57 0.109 7.08 2.82 14.9
11/21/2022 5:45:00 AM 3.62 38.516 0.11 7.08 2.83 14.89
11/21/2022 6:00:00 AM 3.6 38.48 0.11 7.06 2.76 14.79
11/21/2022 6:15:00 AM 3.61 38.498 0.11 7.05 3.07 14.86
11/21/2022 6:30:00 AM 3.52 38.336 0.11 7.07 2.99 14.97
11/21/2022 6:45:00 AM 3.52 38.336 0.109 7.06 3.02 14.98
11/21/2022 7:00:00 AM 3.46 38.228 0.109 7.05 2.92 14.88
11/21/2022 7:15:00 AM 3.56 38.408 0.11 7 2.79 14.81
11/21/2022 7:30:00 AM 3.39 38.102 0.109 7.05 2.79 15.03
11/21/2022 7:45:00 AM 3.44 38.192 0.109 7.05 2.92 15.01
11/21/2022 8:00:00 AM 3.38 38.084 0.11 7.07 3.22 15.05
11/21/2022 8:15:00 AM 3.43 38.174 0.109 7.07 2.97 15.14
11/21/2022 8:30:00 AM 3.53 38.354 0.109 7.03 2.83 15.14
11/21/2022 8:45:00 AM 3.47 38.246 0.109 7.07 2.88 15.27
11/21/2022 9:00:00 AM 3.63 38.534 0.109 7.08 2.95 15.19
11/21/2022 9:15:00 AM 3.67 38.606 0.109 7.07 2.97 15.24
11/21/2022 9:30:00 AM 3.77 38.786 0.109 7.06 2.77 14.95
11/21/2022 9:45:00 AM 3.93 39.074 0.109 7.08 2.89 14.91
11/21/2022 10:00:00 AM 3.98 39.164 0.109 7.11 2.93 14.92
11/21/2022 10:15:00 AM 4.11 39.398 0.11 6.99 2.92 14.89
11/21/2022 10:30:00 AM 4.17 39.506 0.11 7.03 2.86 14.82
11/21/2022 10:45:00 AM 4.22 39.596 0.109 7.04 2.8 14.76
11/21/2022 11:00:00 AM 4.13 39.434 0.109 7.1 2.91 15.1
11/21/2022 11:15:00 AM 4.19 39.542 0.109 7.08 2.78 15.18
11/21/2022 11:30:00 AM 4.24 39.632 0.109 7.09 2.79 15.03
11/21/2022 11:45:00 AM 4.32 39.776 0.109 7.05 2.85 14.96
11/21/2022 12:00:00 PM 4.54 40.172 0.108 6.91 2.76 14.54
11/21/2022 12:15:00 PM 4.82 40.676 0.11 7.01 2.79 13.81
11/21/2022 12:30:00 PM 4.55 40.19 0.109 7.07 2.9 14.62
11/21/2022 12:45:00 PM 4.71 40.478 0.11 7.07 2.78 14.81
11/21/2022 1:00:00 PM 4.72 40.496 0.108 7.08 2.75 14.63
11/21/2022 1:15:00 PM 4.8 40.64 0.109 7.1 2.82 14.77
11/21/2022 1:30:00 PM 4.94 40.892 0.11 7.06 2.76 14.7
11/21/2022 1:45:00 PM 5.24 41.432 0.109 7.04 2.77 12.84
11/21/2022 2:00:00 PM 5.12 41.216 0.109 7.02 2.73 14.13
11/21/2022 2:15:00 PM 5.08 41.144 0.109 7.08 2.83 14.19
11/21/2022 2:30:00 PM 5.34 41.612 0.109 6.99 2.79 13.93
11/21/2022 2:45:00 PM 5.25 41.45 0.109 7.07 6.44 14.32
11/21/2022 3:00:00 PM 5.15 41.27 0.108 7.08 3.25 13.8
11/21/2022 3:15:00 PM 5.27 41.486 0.108 6.98 3.35 13.82
11/21/2022 3:30:00 PM 5.31 41.558 0.11 7.06 2.91 13.95
11/21/2022 3:45:00 PM 5.27 41.486 0.109 7.07 3.1 14.44
11/21/2022 4:00:00 PM 5.32 41.576 0.11 7.04 3.03 14.21
11/21/2022 4:15:00 PM 5.27 41.486 0.109 7.04 2.88 14.18
11/21/2022 4:30:00 PM 5.31 41.558 0.109 7.02 2.81 13.78
11/21/2022 4:45:00 PM 5.64 42.152 0.112 6.89 4.04 13.89
11/21/2022 5:00:00 PM 5.55 41.99 0.11 6.94 3.53 13.38
11/21/2022 5:15:00 PM 5.25 41.45 0.109 6.91 2.89 13.06
11/21/2022 5:30:00 PM 5.13 41.234 0.109 6.97 2.88 13.55
11/21/2022 5:45:00 PM 5.21 41.378 0.109 7.07 2.98 13.15
11/21/2022 6:00:00 PM 5.27 41.486 0.11 6.97 2.68 13.52
11/21/2022 6:15:00 PM 5.09 41.162 0.109 7.03 2.74 14.19
11/21/2022 6:30:00 PM 5.11 41.198 0.11 7.01 2.68 14
11/21/2022 6:45:00 PM 5 41 0.11 7.05 2.68 13.93
11/21/2022 7:00:00 PM 4.99 40.982 0.109 6.99 2.61 14.17
11/21/2022 7:15:00 PM 5.04 41.072 0.11 6.99 2.75 14.01
11/21/2022 7:30:00 PM 5.02 41.036 0.111 6.98 2.7 14.23
11/21/2022 7:45:00 PM 5.07 41.126 0.11 6.95 2.72 13.88
11/21/2022 8:00:00 PM 4.95 40.91 0.11 7.02 2.7 14.1
11/21/2022 8:15:00 PM 5.04 41.072 0.11 6.97 2.81 13.29
11/21/2022 8:30:00 PM 5.01 41.018 0.111 6.97 2.75 14.08
11/21/2022 8:45:00 PM 4.95 40.91 0.11 6.9 2.76 13.73
11/21/2022 9:00:00 PM 5.08 41.144 0.111 6.94 2.81 13.92
11/21/2022 9:15:00 PM 4.84 40.712 0.11 7.03 2.78 14.16
11/21/2022 9:30:00 PM 5 41 0.113 7 2.78 13.51
11/21/2022 9:45:00 PM 5.06 41.108 0.11 6.95 2.75 13.86
11/21/2022 10:00:00 PM 4.8 40.64 0.11 7.01 2.69 14.13
11/21/2022 10:15:00 PM 4.8 40.64 0.11 7.03 2.74 14.1
11/21/2022 10:30:00 PM 4.75 40.55 0.11 7.01 2.6 14.23
11/21/2022 10:45:00 PM 4.69 40.442 0.11 7.06 2.65 14.19
11/21/2022 11:00:00 PM 4.87 40.766 0.111 6.95 2.58 14.13
11/21/2022 11:15:00 PM 4.83 40.694 0.11 6.93 2.79 14.06
11/21/2022 11:30:00 PM 4.69 40.442 0.11 6.97 2.65 14.19
11/21/2022 11:45:00 PM 4.74 40.532 0.11 7.01 3.19 14
11/22/2022 12:00:00 AM 4.8 40.64 0.11 7 2.66 14.15
11/22/2022 12:15:00 AM 4.7 40.46 0.11 7.04 2.61 14.23
11/22/2022 12:30:00 AM 4.68 40.424 0.11 6.92 2.67 13.92
11/22/2022 12:45:00 AM 4.74 40.532 0.111 6.95 2.65 14.2
11/22/2022 1:00:00 AM 4.81 40.658 0.11 6.91 2.7 14.13
11/22/2022 1:15:00 AM 4.6 40.28 0.11 7.06 2.62 14.44
11/22/2022 1:30:00 AM 4.87 40.766 0.11 6.99 2.69 13.79
11/22/2022 1:45:00 AM 4.76 40.568 0.11 7 2.59 14.07
11/22/2022 2:00:00 AM 4.52 40.136 0.11 7.04 2.6 14.29
11/22/2022 2:15:00 AM 4.51 40.118 0.11 7.04 2.61 14.35
11/22/2022 2:30:00 AM 4.57 40.226 0.11 6.99 2.56 14.27
11/22/2022 2:45:00 AM 4.48 40.064 0.11 7.04 2.62 14.02
11/22/2022 3:00:00 AM 4.44 39.992 0.11 7.04 2.71 14.51
11/22/2022 3:15:00 AM 4.45 40.01 0.11 7.02 2.64 14.32
11/22/2022 3:30:00 AM 4.38 39.884 0.11 6.95 2.68 14.42
11/22/2022 3:45:00 AM 4.45 40.01 0.111 7 2.56 14.23
11/22/2022 4:00:00 AM 4.48 40.064 0.11 6.98 2.85 13.77
11/22/2022 4:15:00 AM 4.36 39.848 0.11 6.96 2.68 14.41
11/22/2022 4:30:00 AM 4.26 39.668 0.11 7.03 2.6 14.56
11/22/2022 4:45:00 AM 4.48 40.064 0.112 7.02 2.58 14.39
11/22/2022 5:00:00 AM 4.44 39.992 0.111 6.99 2.69 14.03
11/22/2022 5:15:00 AM 4.21 39.578 0.11 7.02 2.94 14.41
11/22/2022 5:30:00 AM 4.39 39.902 0.111 6.99 2.98 14.23
11/22/2022 5:45:00 AM 4.14 39.452 0.11 7 3.07 14.45
11/22/2022 6:00:00 AM 4.1 39.38 0.11 7.05 2.92 14.65
11/22/2022 6:15:00 AM 4.32 39.776 0.112 6.91 2.8 14.35
11/22/2022 6:30:00 AM 4.21 39.578 0.11 6.89 2.7 14.45
11/22/2022 6:45:00 AM 4.13 39.434 0.11 6.96 2.65 14.54
11/22/2022 7:00:00 AM 4.01 39.218 0.11 7.03 2.66 14.57
11/22/2022 7:15:00 AM 4 39.2 0.11 7.02 2.63 14.65
11/22/2022 7:30:00 AM 4.3 39.74 0.11 6.83 2.74 14.43
11/22/2022 7:45:00 AM 4.07 39.326 0.111 6.99 3.5 14.61
11/22/2022 8:00:00 AM 4.09 39.362 0.11 6.98 2.81 14.68
11/22/2022 8:15:00 AM 4.34 39.812 0.111 6.93 2.54 14.39
11/22/2022 8:30:00 AM 4.27 39.686 0.111 6.93 2.62 14.28
11/22/2022 8:45:00 AM 4.5 40.1 0.111 6.92 2.59 14.07
11/22/2022 9:00:00 AM 4.21 39.578 0.11 7.03 2.69 14.62
11/22/2022 9:15:00 AM 4.39 39.902 0.11 6.9 2.56 14.63
11/22/2022 9:30:00 AM 4.32 39.776 0.11 6.97 2.61 14.84
11/22/2022 9:45:00 AM 4.44 39.992 0.109 7 2.59 14.77
11/22/2022 10:00:00 AM 4.57 40.226 0.109 7.07 3.14 14.57
11/22/2022 10:15:00 AM 4.65 40.37 0.109 7 2.62 14.63
11/22/2022 10:30:00 AM 5 41 0.111 6.99 2.72 14
11/22/2022 10:45:00 AM 4.79 40.622 0.109 7.03 2.61 14.78
11/22/2022 11:00:00 AM 5.26 41.468 0.11 6.99 2.59 13.4
11/22/2022 11:15:00 AM 4.82 40.676 0.11 7.04 2.73 14.69
11/22/2022 11:30:00 AM 4.96 40.928 0.109 7.07 2.5 14.82
11/22/2022 11:45:00 AM 5 41 0.11 7.05 2.44 14.4
11/22/2022 12:00:00 PM 5.37 41.666 0.11 6.95 2.51 13.92
11/22/2022 12:15:00 PM 5.08 41.144 0.111 7.05 2.57 14.51
11/22/2022 12:30:00 PM 5.31 41.558 0.109 7.05 2.59 14.26
11/22/2022 12:45:00 PM 5.43 41.774 0.109 6.91 2.53 13.97
11/22/2022 1:00:00 PM 5.38 41.684 0.11 7.03 2.59 14.35
11/22/2022 1:15:00 PM 5.51 41.918 0.11 6.92 2.59 14.48
11/22/2022 1:30:00 PM 5.47 41.846 0.11 6.95 2.65 14.34
11/22/2022 1:45:00 PM 5.65 42.17 0.109 6.9 2.81 14.06
11/22/2022 2:00:00 PM 5.59 42.062 0.11 7.06 2.56 14.39
11/22/2022 2:15:00 PM 5.55 41.99 0.109 7.03 2.57 14.33
11/22/2022 2:30:00 PM 5.6 42.08 0.11 7.02 2.54 14.17
11/22/2022 2:45:00 PM 5.72 42.296 0.11 6.96 3.42 14.18
11/22/2022 3:00:00 PM 5.77 42.386 0.109 6.98 2.67 14.12
11/22/2022 3:15:00 PM 5.68 42.224 0.109 7.03 3.17 14.2
11/22/2022 3:30:00 PM 5.73 42.314 0.109 7.04 2.54 14.11
11/22/2022 3:45:00 PM 5.81 42.458 0.109 6.97 2.56 14.09
11/22/2022 4:00:00 PM 5.8 42.44 0.11 6.96 2.7 13.97
11/22/2022 4:15:00 PM 5.84 42.512 0.11 6.89 2.57 13.81
11/22/2022 4:30:00 PM 5.8 42.44 0.11 6.99 2.92 13.85
11/22/2022 4:45:00 PM 5.83 42.494 0.11 6.97 2.67 13.81
11/22/2022 5:00:00 PM 5.62 42.116 0.11 7.01 2.58 13.94
11/22/2022 5:15:00 PM 5.77 42.386 0.11 6.98 2.68 13.08
11/22/2022 5:30:00 PM 5.45 41.81 0.11 7 2.53 13.93
11/22/2022 5:45:00 PM 5.47 41.846 0.11 6.98 2.7 13.97
11/22/2022 6:00:00 PM 5.36 41.648 0.111 6.98 2.57 13.83
11/22/2022 6:15:00 PM 5.27 41.486 0.109 6.96 2.65 13.73
11/22/2022 6:30:00 PM 5.35 41.63 0.11 6.97 2.69 13.87
11/22/2022 6:45:00 PM 5.25 41.45 0.11 7 2.67 13.78
11/22/2022 7:00:00 PM 5.19 41.342 0.111 6.96 2.59 13.93
11/22/2022 7:15:00 PM 5.04 41.072 0.11 7.04 2.73 14.15
11/22/2022 7:30:00 PM 5.09 41.162 0.11 7.01 2.91 14.15
11/22/2022 7:45:00 PM 5.11 41.198 0.11 6.92 3.07 14.1
11/22/2022 8:00:00 PM 4.99 40.982 0.11 7.03 2.78 14.06
11/22/2022 8:15:00 PM 5.12 41.216 0.111 6.84 2.62 13.53
11/22/2022 8:30:00 PM 5.14 41.252 0.111 6.93 2.62 13.64
11/22/2022 8:45:00 PM 5.04 41.072 0.111 6.98 2.5 13.74
11/22/2022 9:00:00 PM 5.01 41.018 0.111 6.94 2.57 14.01
11/22/2022 9:15:00 PM 4.89 40.802 0.11 7.01 2.54 14.13
11/22/2022 9:30:00 PM 4.86 40.748 0.111 7.01 2.67 14.16
11/22/2022 9:45:00 PM 4.82 40.676 0.11 7.01 2.56 14.13
11/22/2022 10:00:00 PM 4.84 40.712 0.11 7.02 2.55 14.15
11/22/2022 10:15:00 PM 4.89 40.802 0.11 6.99 2.53 13.99
11/22/2022 10:30:00 PM 4.87 40.766 0.111 7 2.57 14.11
11/22/2022 10:45:00 PM 4.85 40.73 0.111 6.96 2.53 13.96
11/22/2022 11:00:00 PM 4.81 40.658 0.11 6.98 2.55 14.22
11/22/2022 11:15:00 PM 4.75 40.55 0.111 6.98 2.57 14.15
11/22/2022 11:30:00 PM 4.75 40.55 0.111 7 2.52 14.17
11/22/2022 11:45:00 PM 4.68 40.424 0.111 7.05 2.47 14.34
11/23/2022 12:00:00 AM 4.78 40.604 0.111 7 2.55 14.11
11/23/2022 12:15:00 AM 4.6 40.28 0.111 7.03 2.56 14.33
11/23/2022 12:30:00 AM 4.7 40.46 0.111 6.95 2.61 14.14
11/23/2022 12:45:00 AM 4.53 40.154 0.111 7.02 2.55 14.39
11/23/2022 1:00:00 AM 4.63 40.334 0.111 7.02 2.67 14.19
11/23/2022 1:15:00 AM 4.48 40.064 0.11 7.05 2.57 14.22
11/23/2022 1:30:00 AM 4.52 40.136 0.111 7.04 2.56 14.24
11/23/2022 1:45:00 AM 4.59 40.262 0.111 7 2.53 14.22
11/23/2022 2:00:00 AM 4.48 40.064 0.111 7.03 2.5 14.41
11/23/2022 2:15:00 AM 4.53 40.154 0.111 6.97 2.57 14.28
11/23/2022 2:30:00 AM 4.47 40.046 0.111 7.03 2.59 14.36
11/23/2022 2:45:00 AM 4.51 40.118 0.111 7.02 2.67 14.28
11/23/2022 3:00:00 AM 4.59 40.262 0.111 7.01 2.64 14.1
11/23/2022 3:15:00 AM 4.43 39.974 0.111 6.99 2.51 14.3
11/23/2022 3:30:00 AM 4.32 39.776 0.111 7.06 2.62 14.46
11/23/2022 3:45:00 AM 4.3 39.74 0.111 7.05 2.58 14.41
11/23/2022 4:00:00 AM 4.33 39.794 0.111 7.03 2.49 14.36
11/23/2022 4:15:00 AM 4.43 39.974 0.112 7.02 2.68 14.4
11/23/2022 4:30:00 AM 4.31 39.758 0.111 7.01 2.82 14.45
11/23/2022 4:45:00 AM 4.26 39.668 0.111 7.02 2.62 14.36
11/23/2022 5:00:00 AM 4.22 39.596 0.11 7.01 2.67 14.41
11/23/2022 5:15:00 AM 4.18 39.524 0.111 6.99 2.59 14.38
11/23/2022 5:30:00 AM 4.14 39.452 0.11 7.03 2.59 14.42
11/23/2022 5:45:00 AM 4.13 39.434 0.111 7.01 2.53 14.55
11/23/2022 6:00:00 AM 4.14 39.452 0.111 6.98 2.61 14.44
11/23/2022 6:15:00 AM 4.06 39.308 0.111 7.03 2.55 14.55
11/23/2022 6:30:00 AM 4.12 39.416 0.111 7.02 2.5 14.46
11/23/2022 6:45:00 AM 4.06 39.308 0.111 7.01 2.53 14.45
11/23/2022 7:00:00 AM 4.07 39.326 0.111 6.99 2.47 14.45
11/23/2022 7:15:00 AM 3.97 39.146 0.111 7.04 2.53 14.65
11/23/2022 7:30:00 AM 4.07 39.326 0.111 6.96 2.54 14.58
11/23/2022 7:45:00 AM 4.05 39.29 0.111 6.99 2.54 14.4
11/23/2022 8:00:00 AM 3.98 39.164 0.111 7.04 2.57 14.82
11/23/2022 8:15:00 AM 4.01 39.218 0.11 7.04 2.53 14.72
11/23/2022 8:30:00 AM 4.01 39.218 0.11 7.07 2.62 14.85
11/23/2022 8:45:00 AM 4.08 39.344 0.11 7.05 2.57 14.71
11/23/2022 9:00:00 AM 4.17 39.506 0.111 7.03 2.47 14.76
11/23/2022 9:15:00 AM 4.17 39.506 0.11 7.09 2.53 14.92
11/23/2022 9:30:00 AM 4.3 39.74 0.11 7.09 2.49 15
11/23/2022 9:45:00 AM 4.43 39.974 0.11 7.08 2.58 14.72
11/23/2022 10:00:00 AM 4.54 40.172 0.11 7.1 2.52 14.9
11/23/2022 10:15:00 AM 4.71 40.478 0.11 7.1 2.43 14.85
11/23/2022 10:30:00 AM 4.71 40.478 0.11 7.1 2.46 14.89
11/23/2022 10:45:00 AM 4.89 40.802 0.11 7.07 2.55 14.67
11/23/2022 11:00:00 AM 4.93 40.874 0.11 7.12 2.49 14.78
11/23/2022 11:15:00 AM 5.08 41.144 0.11 7.11 2.46 14.82
11/23/2022 11:30:00 AM 5.13 41.234 0.11 7.06 2.5 14.67
11/23/2022 11:45:00 AM 5.05 41.09 0.11 7.14 2.47 14.84
11/23/2022 12:00:00 PM 5.07 41.126 0.109 7.14 2.5 14.78
11/23/2022 12:15:00 PM 5.31 41.558 0.11 7.11 2.48 14.5
11/23/2022 12:30:00 PM 5.37 41.666 0.109 7.09 2.44 14.62
11/23/2022 12:45:00 PM 5.41 41.738 0.109 7.14 2.49 14.64
11/23/2022 1:00:00 PM 5.53 41.954 0.11 7.13 2.49 14.64
11/23/2022 1:15:00 PM 5.63 42.134 0.109 7.13 2.46 14.51
11/23/2022 1:30:00 PM 5.76 42.368 0.11 7.09 2.53 14.36
11/23/2022 1:45:00 PM 5.76 42.368 0.109 7.12 2.52 14.3
11/23/2022 2:00:00 PM 5.75 42.35 0.109 7.12 2.51 14.31
11/23/2022 2:15:00 PM 5.79 42.422 0.109 7.1 2.45 14.25
11/23/2022 2:30:00 PM 5.9 42.62 0.11 7.1 2.64 14.08
11/23/2022 2:45:00 PM 5.86 42.548 0.109 7.15 2.51 14.2
11/23/2022 3:00:00 PM 5.94 42.692 0.11 7.1 2.48 14.16
11/23/2022 3:15:00 PM 5.95 42.71 0.11 7.11 2.45 14.15
11/23/2022 3:30:00 PM 6.11 42.998 0.111 7.04 2.43 13.78
11/23/2022 3:45:00 PM 6.07 42.926 0.11 7.06 2.52 13.95
11/23/2022 4:00:00 PM 6.02 42.836 0.109 7.09 2.49 13.93
11/23/2022 4:15:00 PM 6.04 42.872 0.11 7.06 2.48 13.96
11/23/2022 4:30:00 PM 5.96 42.728 0.109 7.1 2.5 13.97
11/23/2022 4:45:00 PM 6.01 42.818 0.11 7.07 2.53 13.59
11/23/2022 5:00:00 PM 5.91 42.638 0.11 7.03 2.46 13.89
11/23/2022 5:15:00 PM 5.84 42.512 0.11 7.06 2.53 13.79
11/23/2022 5:30:00 PM 5.8 42.44 0.111 7.04 2.51 13.88
11/23/2022 5:45:00 PM 5.77 42.386 0.11 6.95 2.52 13.45
11/23/2022 6:00:00 PM 5.64 42.152 0.111 7 2.54 13.96
11/23/2022 6:15:00 PM 5.58 42.044 0.11 7.01 2.54 14.03
11/23/2022 6:30:00 PM 5.53 41.954 0.11 7.02 2.53 13.92
11/23/2022 6:45:00 PM 5.49 41.882 0.11 7.02 2.56 13.85
11/23/2022 7:00:00 PM 5.47 41.846 0.11 6.97 2.56 13.85
11/23/2022 7:15:00 PM 5.76 42.368 0.11 6.95 2.5 13.22
11/23/2022 7:30:00 PM 5.42 41.756 0.111 6.97 2.52 13.7
11/23/2022 7:45:00 PM 5.35 41.63 0.111 6.99 2.48 13.93
11/23/2022 8:00:00 PM 5.21 41.378 0.111 7.02 2.57 14.09
11/23/2022 8:15:00 PM 5.22 41.396 0.111 7.02 2.58 13.94
11/23/2022 8:30:00 PM 5.23 41.414 0.111 6.96 2.53 13.93
11/23/2022 8:45:00 PM 5.29 41.522 0.111 6.87 2.62 13.85
11/23/2022 9:00:00 PM 5.06 41.108 0.111 7.06 2.6 14.23
11/23/2022 9:15:00 PM 5.14 41.252 0.11 6.97 2.65 14.01
11/23/2022 9:30:00 PM 5.07 41.126 0.111 7.01 2.62 14.08
11/23/2022 9:45:00 PM 5.02 41.036 0.111 7.01 2.52 14.02
11/23/2022 10:00:00 PM 5.05 41.09 0.11 6.93 2.47 13.15
11/23/2022 10:15:00 PM 4.96 40.928 0.111 7.04 2.7 14.19
11/23/2022 10:30:00 PM 5.04 41.072 0.111 6.96 2.64 13.8
11/23/2022 10:45:00 PM 4.87 40.766 0.111 7.05 2.51 13.93
11/23/2022 11:00:00 PM 4.87 40.766 0.111 7 2.57 14.21
11/23/2022 11:15:00 PM 4.83 40.694 0.111 7 2.59 14.33
11/23/2022 11:30:00 PM 4.76 40.568 0.112 7 2.56 14.12
11/23/2022 11:45:00 PM 4.8 40.64 0.111 6.99 2.5 13.26
11/24/2022 12:00:00 AM 4.81 40.658 0.111 6.91 2.53 14.2
11/24/2022 12:15:00 AM 4.74 40.532 0.112 7 2.51 14.18
11/24/2022 12:30:00 AM 4.64 40.352 0.111 7.05 2.58 14.27
11/24/2022 12:45:00 AM 4.61 40.298 0.111 7.05 2.49 14.38
11/24/2022 1:00:00 AM 4.74 40.532 0.111 6.98 2.48 13.99
11/24/2022 1:15:00 AM 4.61 40.298 0.111 6.98 2.59 14.35
11/24/2022 1:30:00 AM 4.67 40.406 0.112 6.9 2.56 14.16
11/24/2022 1:45:00 AM 4.53 40.154 0.112 7.02 2.52 14.22
11/24/2022 2:00:00 AM 4.47 40.046 0.111 7.02 2.6 14.34
11/24/2022 2:15:00 AM 4.44 39.992 0.111 7.01 2.7 14.41
11/24/2022 2:30:00 AM 4.47 40.046 0.111 7.03 2.55 14.14
11/24/2022 2:45:00 AM 4.37 39.866 0.113 7.04 2.43 14.51
11/24/2022 3:00:00 AM 4.31 39.758 0.111 7.06 2.46 14.53
11/24/2022 3:15:00 AM 4.44 39.992 0.111 7.03 2.52 14.14
11/24/2022 3:30:00 AM 4.25 39.65 0.111 7.07 2.49 14.4
11/24/2022 3:45:00 AM 4.4 39.92 0.111 7 2.63 14.12
11/24/2022 4:00:00 AM 4.21 39.578 0.111 7.04 2.49 14.52
11/24/2022 4:15:00 AM 4.27 39.686 0.111 6.97 2.47 14.22
11/24/2022 4:30:00 AM 4.22 39.596 0.111 7.01 2.57 14.4
11/24/2022 4:45:00 AM 4.16 39.488 0.111 7.08 2.59 14.51
11/24/2022 5:00:00 AM 4.41 39.938 0.112 6.92 2.51 14.14
11/24/2022 5:15:00 AM 4.07 39.326 0.111 7.03 2.57 14.55
11/24/2022 5:30:00 AM 4.11 39.398 0.111 7.02 2.51 14.44
11/24/2022 5:45:00 AM 4.08 39.344 0.111 7.03 2.54 14.43
11/24/2022 6:00:00 AM 4.12 39.416 0.112 6.98 2.44 14.37
11/24/2022 6:15:00 AM 3.93 39.074 0.111 7.04 2.62 14.66
11/24/2022 6:30:00 AM 4.05 39.29 0.111 6.93 2.61 14.55
11/24/2022 6:45:00 AM 3.98 39.164 0.111 7 2.62 14.62
11/24/2022 7:00:00 AM 3.91 39.038 0.111 7 2.48 14.56
11/24/2022 7:15:00 AM 3.92 39.056 0.111 7 2.48 14.28
11/24/2022 7:30:00 AM 4.04 39.272 0.112 7.02 2.56 14.18
11/24/2022 7:45:00 AM 3.86 38.948 0.111 7.02 2.39 14.6
11/24/2022 8:00:00 AM 3.75 38.75 0.111 7.03 2.52 14.9
11/24/2022 8:15:00 AM 3.85 38.93 0.111 7.02 2.51 14.83
11/24/2022 8:30:00 AM 3.8 38.84 0.111 7.08 2.48 14.91
11/24/2022 8:45:00 AM 3.9 39.02 0.111 7.04 2.5 14.87
11/24/2022 9:00:00 AM 3.92 39.056 0.111 7.08 2.47 14.95
11/24/2022 9:15:00 AM 4 39.2 0.111 7.07 2.5 15.02
11/24/2022 9:30:00 AM 4.09 39.362 0.111 7 2.5 14.65
11/24/2022 9:45:00 AM 4.3 39.74 0.111 7.04 2.53 14.88
11/24/2022 10:00:00 AM 4.33 39.794 0.111 7.11 2.41 15.04
11/24/2022 10:15:00 AM 4.52 40.136 0.111 7.03 2.44 14.65
11/24/2022 10:30:00 AM 4.35 39.83 0.11 7.11 2.44 15.15
11/24/2022 10:45:00 AM 4.48 40.064 0.11 7.1 2.44 15.01
11/24/2022 11:00:00 AM 4.53 40.154 0.11 7.12 2.43 14.99
11/24/2022 11:15:00 AM 4.66 40.388 0.11 7.12 2.48 14.91
11/24/2022 11:30:00 AM 4.74 40.532 0.111 7.09 2.39 14.86
11/24/2022 11:45:00 AM 4.91 40.838 0.11 7.07 2.47 14.74
11/24/2022 12:00:00 PM 4.85 40.73 0.11 7.05 2.76 14.83
11/24/2022 12:15:00 PM 5 41 0.11 7.13 3.2 14.8
11/24/2022 12:30:00 PM 4.98 40.964 0.11 7.13 2.59 14.81
11/24/2022 12:45:00 PM 5.17 41.306 0.11 7.05 2.71 14.75
11/24/2022 1:00:00 PM 5.24 41.432 0.11 7.15 2.37 14.75
11/24/2022 1:15:00 PM 5.25 41.45 0.109 7.19 2.52 14.8
11/24/2022 1:30:00 PM 5.37 41.666 0.11 7.11 2.42 14.57
11/24/2022 1:45:00 PM 5.47 41.846 0.11 7.15 2.46 14.61
11/24/2022 2:00:00 PM 5.51 41.918 0.11 7.14 2.39 14.57
11/24/2022 2:15:00 PM 5.69 42.242 0.111 7.1 3.51 13.9
11/24/2022 2:30:00 PM 5.69 42.242 0.11 7.11 2.46 14.14
11/24/2022 2:45:00 PM 5.72 42.296 0.11 7.12 2.51 14.23
11/24/2022 3:00:00 PM 5.83 42.494 0.11 7.06 2.42 14.14
11/24/2022 3:15:00 PM 5.78 42.404 0.11 7.09 2.39 14.21
11/24/2022 3:30:00 PM 5.89 42.602 0.11 7.11 2.92 14.14
11/24/2022 3:45:00 PM 5.88 42.584 0.11 7.13 2.48 14.09
11/24/2022 4:00:00 PM 5.86 42.548 0.11 7.13 2.46 14.05
11/24/2022 4:15:00 PM 5.92 42.656 0.11 7.07 2.38 14.11
11/24/2022 4:30:00 PM 5.94 42.692 0.11 7.09 2.55 14
11/24/2022 4:45:00 PM 5.9 42.62 0.11 7.07 2.46 13.99
11/24/2022 5:00:00 PM 5.83 42.494 0.11 7.1 2.62 13.97
11/24/2022 5:15:00 PM 5.75 42.35 0.11 7.12 2.47 14.04
11/24/2022 5:30:00 PM 5.75 42.35 0.111 7.1 2.42 13.96
11/24/2022 5:45:00 PM 5.67 42.206 0.111 7.09 2.4 13.94
11/24/2022 6:00:00 PM 5.6 42.08 0.111 7.08 2.5 13.99
11/24/2022 6:15:00 PM 5.51 41.918 0.11 7.08 2.49 13.94
11/24/2022 6:30:00 PM 5.47 41.846 0.111 7.07 2.59 14.03
11/24/2022 6:45:00 PM 5.44 41.792 0.111 7.05 2.57 13.99
11/24/2022 7:00:00 PM 5.35 41.63 0.111 7.06 2.63 14
11/24/2022 7:15:00 PM 5.29 41.522 0.111 7.08 2.55 14.08
11/24/2022 7:30:00 PM 5.25 41.45 0.111 7.07 2.57 14.1
11/24/2022 7:45:00 PM 5.3 41.54 0.111 7.03 2.54 13.83
11/24/2022 8:00:00 PM 5.2 41.36 0.111 7.04 2.43 14.03
11/24/2022 8:15:00 PM 5.23 41.414 0.112 7.03 3.55 13.87
11/24/2022 8:30:00 PM 5.2 41.36 0.111 7.02 2.77 14.02
11/24/2022 8:45:00 PM 5.13 41.234 0.111 7.05 2.56 13.98
11/24/2022 9:00:00 PM 5.2 41.36 0.111 7 2.47 13.45
11/24/2022 9:15:00 PM 5.11 41.198 0.111 7.04 2.56 14.05
11/24/2022 9:30:00 PM 5.12 41.216 0.112 7.03 2.41 14.06
11/24/2022 9:45:00 PM 5.13 41.234 0.111 7.07 2.54 13.67
11/24/2022 10:00:00 PM 5.07 41.126 0.111 7.05 2.44 14.13
11/24/2022 10:15:00 PM 5.08 41.144 0.111 7.04 2.5 14.08
11/24/2022 10:30:00 PM 5.19 41.342 0.112 6.97 2.46 14.02
11/24/2022 10:45:00 PM 5.13 41.234 0.111 7.01 2.56 13.82
11/24/2022 11:00:00 PM 5.14 41.252 0.112 7.05 2.41 14.12
11/24/2022 11:15:00 PM 5.29 41.522 0.112 7.02 2.5 14.04
11/24/2022 11:30:00 PM 5.23 41.414 0.112 6.98 2.48 14.05
11/24/2022 11:45:00 PM 5.24 41.432 0.111 6.94 2.52 13.9
11/25/2022 12:00:00 AM 5.25 41.45 0.112 7.01 2.43 14.05
11/25/2022 12:15:00 AM 5.22 41.396 0.111 7.06 2.46 14.09
11/25/2022 12:30:00 AM 5.26 41.468 0.111 7.05 2.45 13.96
11/25/2022 12:45:00 AM 5.33 41.594 0.111 7.01 2.46 13.94
11/25/2022 1:00:00 AM 5.33 41.594 0.111 7.06 2.45 13.91
11/25/2022 1:15:00 AM 5.36 41.648 0.111 7.04 2.53 13.95
11/25/2022 1:30:00 AM 5.37 41.666 0.111 7.06 2.52 13.8
11/25/2022 1:45:00 AM 5.44 41.792 0.111 7.03 2.49 13.57
11/25/2022 2:00:00 AM 5.45 41.81 0.111 7.03 2.49 13.89
11/25/2022 2:15:00 AM 5.45 41.81 0.111 7.05 2.52 13.96
11/25/2022 2:30:00 AM 5.54 41.972 0.111 7.06 2.53 13.8
11/25/2022 2:45:00 AM 5.7 42.26 0.111 6.96 2.41 13.69
11/25/2022 3:00:00 AM 5.6 42.08 0.112 7.03 2.37 13.9
11/25/2022 3:15:00 AM 5.68 42.224 0.112 7.03 2.49 13.85
11/25/2022 3:30:00 AM 5.71 42.278 0.112 7.07 2.49 13.78
11/25/2022 3:45:00 AM 5.77 42.386 0.112 7.06 2.53 13.66
11/25/2022 4:00:00 AM 5.75 42.35 0.111 7.04 2.5 13.78
11/25/2022 4:15:00 AM 5.81 42.458 0.112 7.05 2.47 13.81
11/25/2022 4:30:00 AM 5.83 42.494 0.111 7.05 2.39 13.8
11/25/2022 4:45:00 AM 5.9 42.62 0.111 7.06 2.53 13.74
11/25/2022 5:00:00 AM 6.02 42.836 0.111 7 3.5 13.27
11/25/2022 5:15:00 AM 5.99 42.782 0.112 7.04 2.44 13.57
11/25/2022 5:30:00 AM 6.07 42.926 0.112 7 2.79 13.54
11/25/2022 5:45:00 AM 5.98 42.764 0.111 7.08 2.62 13.73
11/25/2022 6:00:00 AM 6.04 42.872 0.111 7.05 2.46 13.71
11/25/2022 6:15:00 AM 6.14 43.052 0.111 6.96 2.53 13.5
11/25/2022 6:30:00 AM 6.07 42.926 0.111 7.06 2.46 13.58
11/25/2022 6:45:00 AM 6.09 42.962 0.111 7.04 2.44 13.58
11/25/2022 7:00:00 AM 6.16 43.088 0.111 6.98 2.52 13.42
11/25/2022 7:15:00 AM 6.09 42.962 0.111 7.05 2.46 13.69
11/25/2022 7:30:00 AM 6.14 43.052 0.111 7.05 2.52 13.56
11/25/2022 7:45:00 AM 6.13 43.034 0.111 7.08 2.52 13.63
11/25/2022 8:00